Provisional Data: Little Juniata River near Tipton, PA


Please select a monitoring station.
Please select start date.
Please select start date.

Toggle Unit: C/F Toggle Unit: C/F
Sample Time Temperature (C) Temperature (F) Specific Conductivity (mS/cm) pH   Turbidity (NTU+) DO (mg/L)
10/17/2022 12:00:00 AM 11.03 51.854 0.458 8 2.52 9.33
10/17/2022 12:15:00 AM 10.99 51.782 0.458 7.99 2.6 9.33
10/17/2022 12:30:00 AM 10.95 51.71 0.458 7.98 2.44 9.32
10/17/2022 12:45:00 AM 10.92 51.656 0.458 7.97 2.51 9.29
10/17/2022 1:00:00 AM 10.89 51.602 0.458 7.95 2.44 9.28
10/17/2022 1:15:00 AM 10.85 51.53 0.458 7.94 2.53 9.25
10/17/2022 1:30:00 AM 10.82 51.476 0.458 7.93 2.39 9.25
10/17/2022 1:45:00 AM 10.78 51.404 0.458 7.92 2.31 9.24
10/17/2022 2:00:00 AM 10.73 51.314 0.458 7.91 2.45 9.23
10/17/2022 2:15:00 AM 10.68 51.224 0.458 7.9 2.46 9.24
10/17/2022 2:30:00 AM 10.63 51.134 0.458 7.89 2.35 9.25
10/17/2022 2:45:00 AM 10.57 51.026 0.458 7.88 2.43 9.23
10/17/2022 3:00:00 AM 10.52 50.936 0.458 7.87 2.43 9.25
10/17/2022 3:15:00 AM 10.45 50.81 0.457 7.85 2.38 9.27
10/17/2022 3:30:00 AM 10.4 50.72 0.457 7.84 2.4 9.25
10/17/2022 3:45:00 AM 10.34 50.612 0.457 7.83 2.26 9.24
10/17/2022 4:00:00 AM 10.28 50.504 0.457 7.83 2.39 9.27
10/17/2022 4:15:00 AM 10.23 50.414 0.457 7.82 2.32 9.28
10/17/2022 4:30:00 AM 10.18 50.324 0.457 7.82 2.86 9.26
10/17/2022 4:45:00 AM 10.12 50.216 0.456 7.81 2.32 9.29
10/17/2022 5:00:00 AM 10.08 50.144 0.456 7.81 2.47 9.29
10/17/2022 5:15:00 AM 10.05 50.09 0.456 7.8 2.33 9.32
10/17/2022 5:30:00 AM 10.02 50.036 0.456 7.8 2.36 9.31
10/17/2022 5:45:00 AM 9.99 49.982 0.455 7.8 2.32 9.31
10/17/2022 6:00:00 AM 9.97 49.946 0.455 7.79 2.45 9.34
10/17/2022 6:15:00 AM 9.94 49.892 0.455 7.79 2.36 9.35
10/17/2022 6:30:00 AM 9.91 49.838 0.454 7.79 2.49 9.36
10/17/2022 6:45:00 AM 9.89 49.802 0.454 7.79 2.46 9.36
10/17/2022 7:00:00 AM 9.86 49.748 0.454 7.79 2.39 9.36
10/17/2022 7:15:00 AM 9.82 49.676 0.453 7.79 2.34 9.39
10/17/2022 7:30:00 AM 9.79 49.622 0.453 7.78 2.38 9.39
10/17/2022 7:45:00 AM 9.75 49.55 0.452 7.78 2.36 9.43
10/17/2022 8:00:00 AM 9.72 49.496 0.452 7.79 2.25 9.48
10/17/2022 8:15:00 AM 9.72 49.496 0.451 7.8 2.3 9.55
10/17/2022 8:30:00 AM 9.72 49.496 0.451 7.81 2.27 9.61
10/17/2022 8:45:00 AM 9.72 49.496 0.45 7.82 2.33 9.69
10/17/2022 9:00:00 AM 9.73 49.514 0.45 7.84 3.17 9.87
10/17/2022 9:15:00 AM 9.75 49.55 0.45 7.86 2.22 10
10/17/2022 9:30:00 AM 9.76 49.568 0.449 7.87 2.41 10.06
10/17/2022 9:45:00 AM 9.78 49.604 0.449 7.89 2.26 10.19
10/17/2022 10:00:00 AM 9.79 49.622 0.449 7.9 2.21 10.23
10/17/2022 10:15:00 AM 9.83 49.694 0.448 7.92 2.26 10.19
10/17/2022 10:30:00 AM 9.91 49.838 0.448 7.97 2.21 10.55
10/17/2022 10:45:00 AM 10.01 50.018 0.447 8.04 2.17 10.9
10/17/2022 11:00:00 AM 10.18 50.324 0.447 8.11 2.28 11.39
10/17/2022 11:15:00 AM 10.41 50.738 0.446 8.2 2.42 11.65
10/17/2022 11:30:00 AM 10.51 50.918 0.446 8.27 2.14 12.07
10/17/2022 11:45:00 AM 10.48 50.864 0.446 8.29 2.09 12.09
10/17/2022 12:00:00 PM 10.5 50.9 0.446 8.33 2.17 12.2
10/17/2022 12:15:00 PM 10.52 50.936 0.446 8.36 2.14 12.3
10/17/2022 12:30:00 PM 10.56 51.008 0.445 8.39 2.11 12.41
10/17/2022 12:45:00 PM 10.6 51.08 0.445 8.43 3.07 12.52
10/17/2022 1:00:00 PM 10.62 51.116 0.446 8.45 2.4 12.59
10/17/2022 1:15:00 PM 10.67 51.206 0.446 8.48 2.15 12.62
10/17/2022 1:30:00 PM 10.7 51.26 0.446 8.49 2.34 12.69
10/17/2022 1:45:00 PM 10.74 51.332 0.446 8.5 2.22 12.61
10/17/2022 2:00:00 PM 10.76 51.368 0.446 8.51 2.16 12.63
10/17/2022 2:15:00 PM 10.8 51.44 0.447 8.51 2.12 12.63
10/17/2022 2:30:00 PM 10.85 51.53 0.447 8.54 2.17 12.71
10/17/2022 2:45:00 PM 10.89 51.602 0.447 8.56 2.12 12.76
10/17/2022 3:00:00 PM 10.93 51.674 0.447 8.59 2.17 12.83
10/17/2022 3:15:00 PM 10.95 51.71 0.448 8.61 2.16 12.9
10/17/2022 3:30:00 PM 10.97 51.746 0.448 8.62 3.43 12.94
10/17/2022 3:45:00 PM 10.96 51.728 0.448 8.63 2.12 12.96
10/17/2022 4:00:00 PM 10.94 51.692 0.449 8.63 2.15 12.89
10/17/2022 4:15:00 PM 10.91 51.638 0.45 8.6 2.13 12.65
10/17/2022 4:30:00 PM 10.91 51.638 0.45 8.59 2.17 12.49
10/17/2022 4:45:00 PM 10.9 51.62 0.451 8.57 2.15 12.38
10/17/2022 5:00:00 PM 10.85 51.53 0.452 8.54 2.19 12.21
10/17/2022 5:15:00 PM 10.83 51.494 0.452 8.53 2.23 12.08
10/17/2022 5:30:00 PM 10.78 51.404 0.453 8.5 2.15 11.95
10/17/2022 5:45:00 PM 10.74 51.332 0.453 8.48 2.19 11.79
10/17/2022 6:00:00 PM 10.69 51.242 0.454 8.44 2.2 11.59
10/17/2022 6:15:00 PM 10.62 51.116 0.455 8.4 2.18 11.37
10/17/2022 6:30:00 PM 10.56 51.008 0.455 8.36 2.26 11.17
10/17/2022 6:45:00 PM 10.52 50.936 0.456 8.31 2.25 10.94
10/17/2022 7:00:00 PM 10.48 50.864 0.456 8.27 2.23 10.74
10/17/2022 7:15:00 PM 10.4 50.72 0.456 8.22 2.39 10.54
10/17/2022 7:30:00 PM 10.35 50.63 0.457 8.19 2.3 10.38
10/17/2022 7:45:00 PM 10.3 50.54 0.457 8.16 2.7 10.27
10/17/2022 8:00:00 PM 10.25 50.45 0.457 8.13 2.3 10.19
10/17/2022 8:15:00 PM 10.18 50.324 0.457 8.11 2.22 10.11
10/17/2022 8:30:00 PM 10.12 50.216 0.457 8.08 2.28 10.05
10/17/2022 8:45:00 PM 10.06 50.108 0.457 8.07 2.36 10
10/17/2022 9:00:00 PM 10 50 0.456 8.06 2.4 9.96
10/17/2022 9:15:00 PM 9.94 49.892 0.456 8.04 2.36 9.93
10/17/2022 9:30:00 PM 9.89 49.802 0.456 8.04 2.35 9.91
10/17/2022 9:45:00 PM 9.85 49.73 0.456 8.03 2.29 9.88
10/17/2022 10:00:00 PM 9.81 49.658 0.455 8.02 2.31 9.85
10/17/2022 10:15:00 PM 9.77 49.586 0.455 8.01 2.58 9.82
10/17/2022 10:30:00 PM 9.71 49.478 0.455 8 2.36 9.81
10/17/2022 10:45:00 PM 9.66 49.388 0.455 8 2.41 9.8
10/17/2022 11:00:00 PM 9.61 49.298 0.455 7.99 2.41 9.79
10/17/2022 11:15:00 PM 9.55 49.19 0.455 7.99 2.42 9.77
10/17/2022 11:30:00 PM 9.5 49.1 0.455 7.98 2.37 9.77
10/17/2022 11:45:00 PM 9.42 48.956 0.455 7.97 2.36 9.78
10/18/2022 12:00:00 AM 9.36 48.848 0.455 7.96 2.43 9.77
10/18/2022 12:15:00 AM 9.3 48.74 0.455 7.95 2.38 9.77
10/18/2022 12:30:00 AM 9.24 48.632 0.455 7.94 2.37 9.77
10/18/2022 12:45:00 AM 9.18 48.524 0.455 7.94 2.37 9.77
10/18/2022 1:00:00 AM 9.11 48.398 0.456 7.93 2.32 9.76
10/18/2022 1:15:00 AM 9.04 48.272 0.456 7.92 2.45 9.77
10/18/2022 1:30:00 AM 8.98 48.164 0.456 7.92 2.46 9.76
10/18/2022 1:45:00 AM 8.93 48.074 0.457 7.91 2.35 9.78
10/18/2022 2:00:00 AM 8.87 47.966 0.457 7.9 3 9.77
10/18/2022 2:15:00 AM 8.83 47.894 0.458 7.9 3.36 9.78
10/18/2022 2:30:00 AM 8.78 47.804 0.458 7.89 2.42 9.77
10/18/2022 2:45:00 AM 8.75 47.75 0.458 7.88 2.35 9.79
10/18/2022 3:00:00 AM 8.71 47.678 0.459 7.89 2.33 9.81
10/18/2022 3:15:00 AM 8.65 47.57 0.459 7.87 2.45 9.81
10/18/2022 3:30:00 AM 8.61 47.498 0.46 7.87 2.43 9.82
10/18/2022 3:45:00 AM 8.56 47.408 0.46 7.87 2.56 9.83
10/18/2022 4:00:00 AM 8.5 47.3 0.461 7.86 2.39 9.84
10/18/2022 4:15:00 AM 8.45 47.21 0.461 7.86 2.55 9.85
10/18/2022 4:30:00 AM 8.41 47.138 0.461 7.85 2.45 9.86
10/18/2022 4:45:00 AM 8.38 47.084 0.462 7.85 2.33 9.86
10/18/2022 5:00:00 AM 8.36 47.048 0.462 7.85 2.32 9.88
10/18/2022 5:15:00 AM 8.31 46.958 0.462 7.85 2.49 9.89
10/18/2022 5:30:00 AM 8.27 46.886 0.462 7.84 2.35 9.9
10/18/2022 5:45:00 AM 8.23 46.814 0.463 7.84 2.36 9.92
10/18/2022 6:00:00 AM 8.19 46.742 0.463 7.84 2.31 9.93
10/18/2022 6:15:00 AM 8.15 46.67 0.463 7.84 2.3 9.91
10/18/2022 6:30:00 AM 8.12 46.616 0.463 7.84 2.29 9.95
10/18/2022 6:45:00 AM 8.1 46.58 0.463 7.84 2.38 9.96
10/18/2022 7:00:00 AM 8.06 46.508 0.463 7.83 2.25 9.98
10/18/2022 7:15:00 AM 8.02 46.436 0.463 7.83 2.27 9.99
10/18/2022 7:30:00 AM 7.99 46.382 0.463 7.84 2.28 10.02
10/18/2022 7:45:00 AM 7.98 46.364 0.463 7.84 2.3 10.04
10/18/2022 8:00:00 AM 7.99 46.382 0.462 7.85 2.28 10.1
10/18/2022 8:15:00 AM 8 46.4 0.462 7.87 2.2 10.24
10/18/2022 8:30:00 AM 8.03 46.454 0.462 7.89 2.3 10.43
10/18/2022 8:45:00 AM 8.05 46.49 0.461 7.94 2.19 10.7
10/18/2022 9:00:00 AM 8.1 46.58 0.461 7.98 2.21 10.96
10/18/2022 9:15:00 AM 8.14 46.652 0.461 8.02 2.15 11.25
10/18/2022 9:30:00 AM 8.16 46.688 0.46 8.06 2.17 11.42
10/18/2022 9:45:00 AM 8.16 46.688 0.46 8.08 2.13 11.51
10/18/2022 10:00:00 AM 8.15 46.67 0.46 8.09 2.19 11.53
10/18/2022 10:15:00 AM 8.15 46.67 0.46 8.1 2.09 11.55
10/18/2022 10:30:00 AM 8.16 46.688 0.46 8.11 2.12 11.58
10/18/2022 10:45:00 AM 8.17 46.706 0.459 8.11 2.14 11.57
10/18/2022 11:00:00 AM 8.18 46.724 0.459 8.12 2.03 11.61
10/18/2022 11:15:00 AM 8.2 46.76 0.459 8.13 2.07 11.69
10/18/2022 11:30:00 AM 8.21 46.778 0.459 8.16 2.06 11.78
10/18/2022 11:45:00 AM 8.22 46.796 0.458 8.18 2.05 11.88
10/18/2022 12:00:00 PM 8.26 46.868 0.458 8.22 2.08 12.03
10/18/2022 12:15:00 PM 8.3 46.94 0.458 8.26 2.1 12.2
10/18/2022 12:30:00 PM 8.42 47.156 0.457 8.31 2.08 12.45
10/18/2022 12:45:00 PM 8.52 47.336 0.456 8.36 2.08 12.69
10/18/2022 1:00:00 PM 8.64 47.552 0.456 8.42 2.24 12.94
10/18/2022 1:15:00 PM 8.64 47.552 0.456 8.45 2.08 13.02
10/18/2022 1:30:00 PM 8.64 47.552 0.455 8.45 2.07 13.03
10/18/2022 1:45:00 PM 8.67 47.606 0.455 8.48 2.05 13.08
10/18/2022 2:00:00 PM 8.72 47.696 0.455 8.5 2.04 13.15
10/18/2022 2:15:00 PM 8.77 47.786 0.455 8.51 2.32 13.18
10/18/2022 2:30:00 PM 8.72 47.696 0.455 8.51 2.05 13.06
10/18/2022 2:45:00 PM 8.74 47.732 0.455 8.51 1.98 13.01
10/18/2022 3:00:00 PM 8.86 47.948 0.454 8.53 2.04 13.09
10/18/2022 3:15:00 PM 8.87 47.966 0.454 8.54 2.03 13.11
10/18/2022 3:30:00 PM 8.89 48.002 0.454 8.55 2.02 13.13
10/18/2022 3:45:00 PM 8.88 47.984 0.454 8.54 2.02 13.01
10/18/2022 4:00:00 PM 8.89 48.002 0.454 8.53 1.97 12.87
10/18/2022 4:15:00 PM 8.91 48.038 0.454 8.53 1.96 12.84
10/18/2022 4:30:00 PM 8.86 47.948 0.455 8.5 2.05 12.61
10/18/2022 4:45:00 PM 8.83 47.894 0.455 8.47 2.06 12.42
10/18/2022 5:00:00 PM 8.83 47.894 0.455 8.46 2.02 12.32
10/18/2022 5:15:00 PM 8.8 47.84 0.456 8.43 2.07 12.15
10/18/2022 5:30:00 PM 8.77 47.786 0.456 8.4 2.1 12.02
10/18/2022 5:45:00 PM 8.74 47.732 0.456 8.36 2.02 11.86
10/18/2022 6:00:00 PM 8.69 47.642 0.457 8.32 2.06 11.65
10/18/2022 6:15:00 PM 8.64 47.552 0.457 8.28 2.06 11.48
10/18/2022 6:30:00 PM 8.6 47.48 0.458 8.25 2.05 11.31
10/18/2022 6:45:00 PM 8.57 47.426 0.458 8.2 2.09 11.16
10/18/2022 7:00:00 PM 8.55 47.39 0.458 8.17 2.22 11.03
10/18/2022 7:15:00 PM 8.53 47.354 0.458 8.15 2.12 10.91
10/18/2022 7:30:00 PM 8.5 47.3 0.458 8.12 2.11 10.83
10/18/2022 7:45:00 PM 8.48 47.264 0.458 8.1 2.28 10.74
10/18/2022 8:00:00 PM 8.44 47.192 0.458 8.08 2.14 10.7
10/18/2022 8:15:00 PM 8.42 47.156 0.458 8.07 2.08 10.65
10/18/2022 8:30:00 PM 8.4 47.12 0.458 8.06 2.07 10.6
10/18/2022 8:45:00 PM 8.38 47.084 0.457 8.05 2.16 10.56
10/18/2022 9:00:00 PM 8.36 47.048 0.457 8.04 2.11 10.52
10/18/2022 9:15:00 PM 8.35 47.03 0.457 8.03 2.15 10.52
10/18/2022 9:30:00 PM 8.33 46.994 0.456 8.02 2.11 10.49
10/18/2022 9:45:00 PM 8.32 46.976 0.456 8.02 2.14 10.47
10/18/2022 10:00:00 PM 8.31 46.958 0.456 8.01 2.16 10.45
10/18/2022 10:15:00 PM 8.31 46.958 0.455 8.01 2.17 10.44
10/18/2022 10:30:00 PM 8.3 46.94 0.455 8 2.18 10.41
10/18/2022 10:45:00 PM 8.29 46.922 0.454 7.99 2.12 10.38
10/18/2022 11:00:00 PM 8.29 46.922 0.454 7.99 2.17 10.39
10/18/2022 11:15:00 PM 8.27 46.886 0.454 7.98 2.08 10.37
10/18/2022 11:30:00 PM 8.26 46.868 0.453 7.98 2.11 10.36
10/18/2022 11:45:00 PM 8.24 46.832 0.453 7.97 2.1 10.33
10/19/2022 12:00:00 AM 8.21 46.778 0.453 7.96 2.15 10.34
10/19/2022 12:15:00 AM 8.17 46.706 0.452 7.95 2.24 10.31
10/19/2022 12:30:00 AM 8.16 46.688 0.452 7.95 2.16 10.29
10/19/2022 12:45:00 AM 8.14 46.652 0.452 7.94 2.14 10.27
10/19/2022 1:00:00 AM 8.12 46.616 0.452 7.93 2.16 10.23
10/19/2022 1:15:00 AM 8.1 46.58 0.452 7.93 2.24 10.26
10/19/2022 1:30:00 AM 8.07 46.526 0.453 7.92 2.13 10.25
10/19/2022 1:45:00 AM 8.05 46.49 0.45 7.91 2.17 10.24
10/19/2022 2:00:00 AM 8.04 46.472 0.45 7.91 2.29 10.23
10/19/2022 2:15:00 AM 8.03 46.454 0.45 7.9 2.12 10.23
10/19/2022 2:30:00 AM 8.01 46.418 0.45 7.9 2.17 10.23
10/19/2022 2:45:00 AM 8 46.4 0.45 7.89 2.1 10.22
10/19/2022 3:00:00 AM 7.97 46.346 0.45 7.89 2.13 10.21
10/19/2022 3:15:00 AM 7.94 46.292 0.45 7.88 2.11 10.21
10/19/2022 3:30:00 AM 7.91 46.238 0.45 7.88 2.13 10.22
10/19/2022 3:45:00 AM 7.88 46.184 0.45 7.87 2.15 10.21
10/19/2022 4:00:00 AM 7.86 46.148 0.45 7.87 2.17 10.21
10/19/2022 4:15:00 AM 7.84 46.112 0.45 7.86 2.18 10.2
10/19/2022 4:30:00 AM 7.82 46.076 0.449 7.86 2.12 10.21
10/19/2022 4:45:00 AM 7.79 46.022 0.449 7.86 2.15 10.21
10/19/2022 5:00:00 AM 7.76 45.968 0.449 7.85 2.16 10.21
10/19/2022 5:15:00 AM 7.73 45.914 0.449 7.85 2.13 10.21
10/19/2022 5:30:00 AM 7.71 45.878 0.448 7.85 2.12 10.2
10/19/2022 5:45:00 AM 7.68 45.824 0.448 7.84 2.05 10.2
10/19/2022 6:00:00 AM 7.66 45.788 0.448 7.84 2.09 10.22
10/19/2022 6:15:00 AM 7.64 45.752 0.448 7.84 2.11 10.21
10/19/2022 6:30:00 AM 7.62 45.716 0.448 7.84 2.09 10.21
10/19/2022 6:45:00 AM 7.6 45.68 0.448 7.84 2.14 10.23
10/19/2022 7:00:00 AM 7.58 45.644 0.448 7.84 2.07 10.23
10/19/2022 7:15:00 AM 7.56 45.608 0.449 7.83 2.09 10.24
10/19/2022 7:30:00 AM 7.54 45.572 0.449 7.83 2.2 10.24
10/19/2022 7:45:00 AM 7.53 45.554 0.449 7.83 2.06 10.26
10/19/2022 8:00:00 AM 7.5 45.5 0.448 7.84 2.11 10.27
10/19/2022 8:15:00 AM 7.44 45.392 0.447 7.84 2.08 10.31
10/19/2022 8:30:00 AM 7.42 45.356 0.447 7.84 2.11 10.37
10/19/2022 8:45:00 AM 7.41 45.338 0.446 7.85 2.13 10.44
10/19/2022 9:00:00 AM 7.4 45.32 0.446 7.87 2.17 10.56
10/19/2022 9:15:00 AM 7.38 45.284 0.446 7.89 2.17 10.71
10/19/2022 9:30:00 AM 7.39 45.302 0.446 7.9 2.13 10.83
10/19/2022 9:45:00 AM 7.41 45.338 0.446 7.93 2.17 10.98
10/19/2022 10:00:00 AM 7.43 45.374 0.446 7.95 2.08 11.12
10/19/2022 10:15:00 AM 7.45 45.41 0.446 7.97 2.04 11.24
10/19/2022 10:30:00 AM 7.46 45.428 0.446 8 2.04 11.36
10/19/2022 10:45:00 AM 7.5 45.5 0.446 8.03 2.07 11.56
10/19/2022 11:00:00 AM 7.59 45.662 0.445 8.09 2.07 11.79
10/19/2022 11:15:00 AM 7.75 45.95 0.445 8.16 2.06 12.13
10/19/2022 11:30:00 AM 7.8 46.04 0.445 8.21 2.05 12.4
10/19/2022 11:45:00 AM 7.88 46.184 0.445 8.28 2.02 12.64
10/19/2022 12:00:00 PM 7.95 46.31 0.445 8.33 2.03 12.84
10/19/2022 12:15:00 PM 7.98 46.364 0.445 8.36 2.04 12.94
10/19/2022 12:30:00 PM 7.98 46.364 0.445 8.37 2.03 12.98
10/19/2022 12:45:00 PM 8 46.4 0.446 8.39 2.06 13
10/19/2022 1:00:00 PM 8.08 46.544 0.446 8.42 2.03 13.13
10/19/2022 1:15:00 PM 8.15 46.67 0.446 8.46 1.96 13.28
10/19/2022 1:30:00 PM 8.19 46.742 0.446 8.48 2.04 13.33
10/19/2022 1:45:00 PM 8.24 46.832 0.446 8.5 1.99 13.42
10/19/2022 2:00:00 PM 8.29 46.922 0.447 8.52 1.99 13.43
10/19/2022 2:15:00 PM 8.39 47.102 0.449 8.55 2.02 13.54
10/19/2022 2:30:00 PM 8.46 47.228 0.449 8.57 1.95 13.59
10/19/2022 2:45:00 PM 8.56 47.408 0.449 8.61 2.03 13.71
10/19/2022 3:00:00 PM 8.61 47.498 0.45 8.62 2 13.73
10/19/2022 3:15:00 PM 8.67 47.606 0.45 8.65 2 13.81
10/19/2022 3:30:00 PM 8.68 47.624 0.451 8.65 1.99 13.79
10/19/2022 3:45:00 PM 8.73 47.714 0.451 8.66 1.99 13.79
10/19/2022 4:00:00 PM 8.73 47.714 0.452 8.67 2.02 13.76
10/19/2022 4:15:00 PM 8.73 47.714 0.452 8.66 2.01 13.63
10/19/2022 4:30:00 PM 8.73 47.714 0.453 8.66 2.01 13.55
10/19/2022 4:45:00 PM 8.72 47.696 0.453 8.64 2.01 13.4
10/19/2022 5:00:00 PM 8.71 47.678 0.454 8.63 2 13.25
10/19/2022 5:15:00 PM 8.69 47.642 0.455 8.6 2.46 13.07
10/19/2022 5:30:00 PM 8.66 47.588 0.455 8.57 2.01 12.85
10/19/2022 5:45:00 PM 8.62 47.516 0.454 8.53 2.06 12.6
10/19/2022 6:00:00 PM 8.57 47.426 0.454 8.5 2.02 12.41
10/19/2022 6:15:00 PM 8.51 47.318 0.455 8.45 2 12.19
10/19/2022 6:30:00 PM 8.47 47.246 0.455 8.41 2.08 11.98
10/19/2022 6:45:00 PM 8.44 47.192 0.455 8.37 2.01 11.79
10/19/2022 7:00:00 PM 8.4 47.12 0.455 8.33 2.03 11.59
10/19/2022 7:15:00 PM 8.38 47.084 0.455 8.29 2.04 11.41
10/19/2022 7:30:00 PM 8.36 47.048 0.455 8.25 2.06 11.27
10/19/2022 7:45:00 PM 8.33 46.994 0.454 8.22 2.05 11.15
10/19/2022 8:00:00 PM 8.3 46.94 0.454 8.19 2.06 11.04
10/19/2022 8:15:00 PM 8.28 46.904 0.453 8.17 2.1 10.95
10/19/2022 8:30:00 PM 8.27 46.886 0.453 8.15 2.02 10.88
10/19/2022 8:45:00 PM 8.25 46.85 0.452 8.14 2.07 10.82
10/19/2022 9:00:00 PM 8.25 46.85 0.452 8.12 2.12 10.77
10/19/2022 9:15:00 PM 8.25 46.85 0.451 8.11 2.14 10.72
10/19/2022 9:30:00 PM 8.24 46.832 0.45 8.1 2.09 10.66
10/19/2022 9:45:00 PM 8.24 46.832 0.447 8.09 2.05 10.62
10/19/2022 10:00:00 PM 8.25 46.85 0.447 8.08 2.11 10.61
10/19/2022 10:15:00 PM 8.25 46.85 0.446 8.08 2.11 10.58
10/19/2022 10:30:00 PM 8.25 46.85 0.446 8.07 2.16 10.56
10/19/2022 10:45:00 PM 8.24 46.832 0.445 8.06 2.1 10.53
10/19/2022 11:00:00 PM 8.24 46.832 0.445 8.06 2.08 10.51
10/19/2022 11:15:00 PM 8.24 46.832 0.444 8.05 2.14 10.48
10/19/2022 11:30:00 PM 8.23 46.814 0.444 8.04 2.12 10.47
10/19/2022 11:45:00 PM 8.21 46.778 0.443 8.03 2.07 10.44
10/20/2022 12:00:00 AM 8.18 46.724 0.442 8.03 2.08 10.42
10/20/2022 12:15:00 AM 8.16 46.688 0.442 8.01 2.07 10.4
10/20/2022 12:30:00 AM 8.14 46.652 0.442 8 2.14 10.37
10/20/2022 12:45:00 AM 8.12 46.616 0.441 7.99 2.14 10.37
10/20/2022 1:00:00 AM 8.11 46.598 0.441 7.98 2.13 10.34
10/20/2022 1:15:00 AM 8.08 46.544 0.44 7.97 2.09 10.33
10/20/2022 1:30:00 AM 8.03 46.454 0.44 7.96 2.08 10.32
10/20/2022 1:45:00 AM 7.99 46.382 0.44 7.95 2.35 10.3
10/20/2022 2:00:00 AM 7.95 46.31 0.44 7.94 2.15 10.28
10/20/2022 2:15:00 AM 7.9 46.22 0.44 7.93 2.16 10.28
10/20/2022 2:30:00 AM 7.86 46.148 0.44 7.92 2.15 10.28
10/20/2022 2:45:00 AM 7.81 46.058 0.44 7.91 2.32 10.27
10/20/2022 3:00:00 AM 7.76 45.968 0.44 7.9 2.3 10.28
10/20/2022 3:15:00 AM 7.71 45.878 0.441 7.9 2.18 10.28
10/20/2022 3:30:00 AM 7.66 45.788 0.441 7.89 2.2 10.28
10/20/2022 3:45:00 AM 7.61 45.698 0.441 7.88 2.17 10.26
10/20/2022 4:00:00 AM 7.56 45.608 0.441 7.87 2.19 10.28
10/20/2022 4:15:00 AM 7.52 45.536 0.442 7.87 2.56 10.28
10/20/2022 4:30:00 AM 7.48 45.464 0.442 7.87 4.83 10.27
10/20/2022 4:45:00 AM 7.43 45.374 0.442 7.86 2.31 10.28
10/20/2022 5:00:00 AM 7.39 45.302 0.442 7.86 2.26 10.32
10/20/2022 5:15:00 AM 7.34 45.212 0.442 7.86 2.25 10.33
10/20/2022 5:30:00 AM 7.29 45.122 0.442 7.85 2.29 10.36
10/20/2022 5:45:00 AM 7.24 45.032 0.442 7.85 2.37 10.36
10/20/2022 6:00:00 AM 7.19 44.942 0.441 7.85 2.38 10.4
10/20/2022 6:15:00 AM 7.15 44.87 0.441 7.84 2.33 10.43
10/20/2022 6:30:00 AM 7.11 44.798 0.441 7.84 2.6 10.45
10/20/2022 6:45:00 AM 7.07 44.726 0.44 7.84 2.35 10.46
10/20/2022 7:00:00 AM 7.03 44.654 0.44 7.83 2.36 10.48
10/20/2022 7:15:00 AM 6.99 44.582 0.439 7.84 2.35 10.48
10/20/2022 7:30:00 AM 6.95 44.51 0.438 7.83 2.36 10.52
10/20/2022 7:45:00 AM 6.91 44.438 0.438 7.83 9.85 10.55
10/20/2022 8:00:00 AM 6.87 44.366 0.437 7.83 4.91 10.58
10/20/2022 8:15:00 AM 6.83 44.294 0.437 7.84 2.2 10.64
10/20/2022 8:30:00 AM 6.79 44.222 0.436 7.84 2.4 10.73
10/20/2022 8:45:00 AM 6.77 44.186 0.436 7.86 2.16 10.8
10/20/2022 9:00:00 AM 6.76 44.168 0.436 7.87 2.14 10.91
10/20/2022 9:15:00 AM 6.81 44.258 0.435 7.91 2.13 11.11
10/20/2022 9:30:00 AM 6.84 44.312 0.435 7.94 2.09 11.31
10/20/2022 9:45:00 AM 6.87 44.366 0.435 7.98 2.06 11.51
10/20/2022 10:00:00 AM 6.91 44.438 0.435 8.01 2.14 11.69
10/20/2022 10:15:00 AM 7 44.6 0.436 8.06 2.06 11.91
10/20/2022 10:30:00 AM 7.17 44.906 0.436 8.12 2.06 12.17
10/20/2022 10:45:00 AM 7.38 45.284 0.437 8.18 6.67 12.44
10/20/2022 11:00:00 AM 7.62 45.716 0.437 8.25 2.05 12.7
10/20/2022 11:15:00 AM 7.84 46.112 0.438 8.31 1.99 12.84
10/20/2022 11:30:00 AM 8.13 46.634 0.438 8.37 2.02 13.03
10/20/2022 11:45:00 AM 8.37 47.066 0.438 8.42 2.03 13.24
10/20/2022 12:00:00 PM 8.58 47.444 0.439 8.47 1.99 13.4
10/20/2022 12:15:00 PM 8.69 47.642 0.439 8.5 1.97 13.5
10/20/2022 12:30:00 PM 8.81 47.858 0.44 8.52 1.95 13.57
10/20/2022 12:45:00 PM 8.89 48.002 0.443 8.54 2 13.58
10/20/2022 1:00:00 PM 8.98 48.164 0.444 8.55 1.97 13.57
10/20/2022 1:15:00 PM 9.05 48.29 0.444 8.56 3.43 13.57
10/20/2022 1:30:00 PM 9.1 48.38 0.446 8.57 1.97 13.55
10/20/2022 1:45:00 PM 9.13 48.434 0.447 8.58 1.93 13.53
10/20/2022 2:00:00 PM 9.15 48.47 0.448 8.59 1.97 13.49
10/20/2022 2:15:00 PM 9.18 48.524 0.449 8.59 1.96 13.43
10/20/2022 2:30:00 PM 9.24 48.632 0.449 8.6 1.94 13.41
10/20/2022 2:45:00 PM 9.3 48.74 0.45 8.6 1.99 13.37
10/20/2022 3:00:00 PM 9.33 48.794 0.451 8.6 2.03 13.34
10/20/2022 3:15:00 PM 9.31 48.758 0.452 8.6 2.05 13.27
10/20/2022 3:30:00 PM 9.31 48.758 0.452 8.6 2.06 13.19
10/20/2022 3:45:00 PM 9.3 48.74 0.453 8.6 2.02 13.14
10/20/2022 4:00:00 PM 9.29 48.722 0.453 8.59 1.96 13.05
10/20/2022 4:15:00 PM 9.26 48.668 0.454 8.58 2.03 12.94
10/20/2022 4:30:00 PM 9.25 48.65 0.454 8.57 1.98 12.82
10/20/2022 4:45:00 PM 9.23 48.614 0.455 8.56 1.98 12.71
10/20/2022 5:00:00 PM 9.22 48.596 0.455 8.55 1.98 12.6
10/20/2022 5:15:00 PM 9.21 48.578 0.456 8.53 2.02 12.49
10/20/2022 5:30:00 PM 9.19 48.542 0.456 8.52 2.02 12.37
10/20/2022 5:45:00 PM 9.18 48.524 0.456 8.5 1.97 12.23
10/20/2022 6:00:00 PM 9.16 48.488 0.456 8.47 1.97 12.07
10/20/2022 6:15:00 PM 9.13 48.434 0.457 8.44 2 11.87
10/20/2022 6:30:00 PM 9.09 48.362 0.457 8.39 2.01 11.64
10/20/2022 6:45:00 PM 9.04 48.272 0.457 8.35 2 11.43
10/20/2022 7:00:00 PM 8.99 48.182 0.458 8.3 2.01 11.22
10/20/2022 7:15:00 PM 8.96 48.128 0.458 8.26 2.04 11.05
10/20/2022 7:30:00 PM 8.94 48.092 0.458 8.22 2.08 10.91
10/20/2022 7:45:00 PM 8.94 48.092 0.457 8.19 2.14 10.8
10/20/2022 8:00:00 PM 8.93 48.074 0.457 8.17 2.33 10.71
10/20/2022 8:15:00 PM 8.93 48.074 0.457 8.15 2.04 10.62
10/20/2022 8:30:00 PM 8.92 48.056 0.456 8.13 2.05 10.57
10/20/2022 8:45:00 PM 8.9 48.02 0.456 8.12 2.13 10.51
10/20/2022 9:00:00 PM 8.9 48.02 0.455 8.1 2.15 10.46
10/20/2022 9:15:00 PM 8.89 48.002 0.455 8.09 2.09 10.41
10/20/2022 9:30:00 PM 8.88 47.984 0.454 8.08 2.12 10.38
10/20/2022 9:45:00 PM 8.87 47.966 0.453 8.07 2.17 10.34
10/20/2022 10:00:00 PM 8.85 47.93 0.452 8.06 2.13 10.31
10/20/2022 10:15:00 PM 8.84 47.912 0.451 8.05 2.14 10.28
10/20/2022 10:30:00 PM 8.81 47.858 0.451 8.04 2.15 10.25
10/20/2022 10:45:00 PM 8.77 47.786 0.45 8.03 2.09 10.24
10/20/2022 11:00:00 PM 8.73 47.714 0.449 8.02 2.16 10.23
10/20/2022 11:15:00 PM 8.71 47.678 0.448 8.01 2.1 10.21
10/20/2022 11:30:00 PM 8.68 47.624 0.447 7.99 2.09 10.2
10/20/2022 11:45:00 PM 8.65 47.57 0.447 7.98 2.09 10.19
10/21/2022 12:00:00 AM 8.61 47.498 0.446 7.97 2.12 10.18
10/21/2022 12:15:00 AM 8.56 47.408 0.444 7.96 2.11 10.16
10/21/2022 12:30:00 AM 8.52 47.336 0.443 7.95 2.15 10.15
10/21/2022 12:45:00 AM 8.49 47.282 0.443 7.93 2.13 10.13
10/21/2022 1:00:00 AM 8.44 47.192 0.443 7.92 2.15 10.13
10/21/2022 1:15:00 AM 8.37 47.066 0.443 7.91 2.4 10.13
10/21/2022 1:30:00 AM 8.31 46.958 0.443 7.89 2.23 10.11
10/21/2022 1:45:00 AM 8.23 46.814 0.444 7.89 2.26 10.12
10/21/2022 2:00:00 AM 8.17 46.706 0.445 7.87 2.12 10.13
10/21/2022 2:15:00 AM 8.11 46.598 0.445 7.87 2.25 10.13
10/21/2022 2:30:00 AM 8.04 46.472 0.446 7.86 2.16 10.14
10/21/2022 2:45:00 AM 7.97 46.346 0.447 7.85 2.17 10.15
10/21/2022 3:00:00 AM 7.89 46.202 0.448 7.84 3.04 10.15
10/21/2022 3:15:00 AM 7.81 46.058 0.449 7.83 2.97 10.16
10/21/2022 3:30:00 AM 7.75 45.95 0.45 7.82 4.07 10.16
10/21/2022 3:45:00 AM 7.67 45.806 0.451 7.82 2.4 10.18
10/21/2022 4:00:00 AM 7.6 45.68 0.453 7.81 2.43 10.18
10/21/2022 4:15:00 AM 7.52 45.536 0.454 7.81 2.29 10.22
10/21/2022 4:30:00 AM 7.46 45.428 0.455 7.8 2.64 10.22
10/21/2022 4:45:00 AM 7.39 45.302 0.457 7.8 2.25 10.21
10/21/2022 5:00:00 AM 7.33 45.194 0.458 7.8 2.22 10.26
10/21/2022 5:15:00 AM 7.26 45.068 0.459 7.79 2.26 10.28
10/21/2022 5:30:00 AM 7.2 44.96 0.46 7.79 2.24 10.3
10/21/2022 5:45:00 AM 7.14 44.852 0.462 7.79 2.23 10.34
10/21/2022 6:00:00 AM 7.07 44.726 0.462 7.78 2.42 10.35
10/21/2022 6:15:00 AM 7.02 44.636 0.463 7.78 2.19 10.36
10/21/2022 6:30:00 AM 6.96 44.528 0.464 7.78 2.53 10.38
10/21/2022 6:45:00 AM 6.9 44.42 0.465 7.78 2.25 10.4
10/21/2022 7:00:00 AM 6.84 44.312 0.465 7.77 2.33 10.4
10/21/2022 7:15:00 AM 6.78 44.204 0.466 7.77 2.23 10.4
10/21/2022 7:30:00 AM 6.73 44.114 0.466 7.78 2.22 10.43
10/21/2022 7:45:00 AM 6.68 44.024 0.466 7.78 2.19 10.48
10/21/2022 8:00:00 AM 6.64 43.952 0.466 7.79 2.24 10.56
10/21/2022 8:15:00 AM 6.6 43.88 0.466 7.79 2.19 10.62
10/21/2022 8:30:00 AM 6.56 43.808 0.466 7.8 2.31 10.73
10/21/2022 8:45:00 AM 6.53 43.754 0.465 7.81 3.68 10.81
10/21/2022 9:00:00 AM 6.53 43.754 0.465 7.84 2.11 10.93
10/21/2022 9:15:00 AM 6.55 43.79 0.465 7.86 2.25 11.11
10/21/2022 9:30:00 AM 6.58 43.844 0.464 7.89 2.11 11.28
10/21/2022 9:45:00 AM 6.64 43.952 0.464 7.93 2.08 11.51
10/21/2022 10:00:00 AM 6.73 44.114 0.463 7.97 2.09 11.73
10/21/2022 10:15:00 AM 6.83 44.294 0.463 8.01 2.06 11.89
10/21/2022 10:30:00 AM 7.04 44.672 0.462 8.08 2.14 12.18
10/21/2022 10:45:00 AM 7.25 45.05 0.463 8.14 2.08 12.44
10/21/2022 11:00:00 AM 7.5 45.5 0.462 8.2 2.05 12.68
10/21/2022 11:15:00 AM 7.78 46.004 0.462 8.25 2.06 12.83
10/21/2022 11:30:00 AM 8.02 46.436 0.461 8.3 1.99 12.99
10/21/2022 11:45:00 AM 8.24 46.832 0.46 8.34 2.02 13.17
10/21/2022 12:00:00 PM 8.44 47.192 0.46 8.37 2.06 13.27
10/21/2022 12:15:00 PM 8.6 47.48 0.459 8.4 1.98 13.33
10/21/2022 12:30:00 PM 8.74 47.732 0.459 8.43 2.04 13.4
10/21/2022 12:45:00 PM 8.89 48.002 0.459 8.45 2.05 13.45
10/21/2022 1:00:00 PM 8.98 48.164 0.459 8.47 1.96 13.48
10/21/2022 1:15:00 PM 9.11 48.398 0.459 8.49 2.02 13.52
10/21/2022 1:30:00 PM 9.2 48.56 0.458 8.51 2.05 13.53
10/21/2022 1:45:00 PM 9.3 48.74 0.458 8.53 1.96 13.52
10/21/2022 2:00:00 PM 9.34 48.812 0.458 8.53 2.01 13.5
10/21/2022 2:15:00 PM 9.4 48.92 0.458 8.54 2.93 13.49
10/21/2022 2:30:00 PM 9.5 49.1 0.458 8.55 2 13.44
10/21/2022 2:45:00 PM 9.59 49.262 0.459 8.56 2.14 13.42
10/21/2022 3:00:00 PM 9.66 49.388 0.459 8.57 1.98 13.4
10/21/2022 3:15:00 PM 9.68 49.424 0.459 8.57 2.01 13.32
10/21/2022 3:30:00 PM 9.72 49.496 0.459 8.57 2.01 13.24
10/21/2022 3:45:00 PM 9.76 49.568 0.459 8.56 2.01 13.15
10/21/2022 4:00:00 PM 9.81 49.658 0.459 8.56 2.01 13.07
10/21/2022 4:15:00 PM 9.83 49.694 0.459 8.55 1.99 12.96
10/21/2022 4:30:00 PM 9.84 49.712 0.459 8.54 2.01 12.84
10/21/2022 4:45:00 PM 9.85 49.73 0.459 8.53 2.01 12.71
10/21/2022 5:00:00 PM 9.84 49.712 0.459 8.51 2.06 12.59
10/21/2022 5:15:00 PM 9.83 49.694 0.459 8.49 2.04 12.46
10/21/2022 5:30:00 PM 9.8 49.64 0.459 8.46 2.07 12.3
10/21/2022 5:45:00 PM 9.76 49.568 0.46 8.43 2.01 12.14
10/21/2022 6:00:00 PM 9.72 49.496 0.46 8.4 2.07 11.95
10/21/2022 6:15:00 PM 9.66 49.388 0.46 8.36 2.06 11.75
10/21/2022 6:30:00 PM 9.61 49.298 0.46 8.31 2.1 11.52
10/21/2022 6:45:00 PM 9.55 49.19 0.46 8.25 2.09 11.3
10/21/2022 7:00:00 PM 9.49 49.082 0.46 8.2 2.08 11.09
10/21/2022 7:15:00 PM 9.44 48.992 0.46 8.15 2.07 10.9
10/21/2022 7:30:00 PM 9.39 48.902 0.46 8.11 2.1 10.74
10/21/2022 7:45:00 PM 9.35 48.83 0.459 8.08 2.11 10.61
10/21/2022 8:00:00 PM 9.31 48.758 0.459 8.06 2.12 10.5
10/21/2022 8:15:00 PM 9.28 48.704 0.458 8.03 2.29 10.43
10/21/2022 8:30:00 PM 9.24 48.632 0.458 8.01 2.1 10.37
10/21/2022 8:45:00 PM 9.2 48.56 0.457 8 2.08 10.3
10/21/2022 9:00:00 PM 9.16 48.488 0.457 7.98 2.21 10.25
10/21/2022 9:15:00 PM 9.12 48.416 0.456 7.97 2.09 10.22
10/21/2022 9:30:00 PM 9.08 48.344 0.455 7.96 2.13 10.17
10/21/2022 9:45:00 PM 9.05 48.29 0.455 7.95 2.14 10.15
10/21/2022 10:00:00 PM 9.01 48.218 0.454 7.94 2.13 10.11
10/21/2022 10:15:00 PM 8.97 48.146 0.453 7.93 2.13 10.11
10/21/2022 10:30:00 PM 8.93 48.074 0.452 7.93 2.14 10.08
10/21/2022 10:45:00 PM 8.89 48.002 0.452 7.92 2.29 10.08
10/21/2022 11:00:00 PM 8.85 47.93 0.451 7.91 3.7 10.05
10/21/2022 11:15:00 PM 8.8 47.84 0.451 7.9 2.15 10.02
10/21/2022 11:30:00 PM 8.76 47.768 0.451 7.9 2.12 10.03
10/21/2022 11:45:00 PM 8.7 47.66 0.45 7.89 2.22 10
10/22/2022 12:00:00 AM 8.65 47.57 0.45 7.88 3.65 10
10/22/2022 12:15:00 AM 8.6 47.48 0.45 7.87 3.59 10
10/22/2022 12:30:00 AM 8.54 47.372 0.45 7.87 3.19 9.98
10/22/2022 12:45:00 AM 8.49 47.282 0.45 7.86 2.55 9.98
10/22/2022 1:00:00 AM 8.43 47.174 0.45 7.85 2.99 9.98
10/22/2022 1:15:00 AM 8.36 47.048 0.45 7.84 2.27 9.97
10/22/2022 1:30:00 AM 8.3 46.94 0.45 7.83 2.26 9.97
10/22/2022 1:45:00 AM 8.24 46.832 0.451 7.83 4.89 9.99
10/22/2022 2:00:00 AM 8.18 46.724 0.451 7.82 2.31 9.96
10/22/2022 2:15:00 AM 8.11 46.598 0.449 7.82 2.23 9.97
10/22/2022 2:30:00 AM 8.05 46.49 0.45 7.81 2.3 9.98
10/22/2022 2:45:00 AM 7.99 46.382 0.45 7.8 2.3 9.98
10/22/2022 3:00:00 AM 7.93 46.274 0.451 7.8 2.34 10
10/22/2022 3:15:00 AM 7.86 46.148 0.451 7.79 2.24 10.02
10/22/2022 3:30:00 AM 7.8 46.04 0.451 7.79 2.37 10.02
10/22/2022 3:45:00 AM 7.73 45.914 0.452 7.78 2.24 10.02
10/22/2022 4:00:00 AM 7.67 45.806 0.453 7.78 2.27 10.05
10/22/2022 4:15:00 AM 7.61 45.698 0.453 7.78 2.31 10.06
10/22/2022 4:30:00 AM 7.55 45.59 0.454 7.78 2.2 10.08
10/22/2022 4:45:00 AM 7.48 45.464 0.454 7.77 2.3 10.08
10/22/2022 5:00:00 AM 7.42 45.356 0.455 7.77 2.23 10.1
10/22/2022 5:15:00 AM 7.36 45.248 0.456 7.77 2.24 10.11
10/22/2022 5:30:00 AM 7.3 45.14 0.456 7.77 2.33 10.13
10/22/2022 5:45:00 AM 7.24 45.032 0.457 7.76 2.35 10.15
10/22/2022 6:00:00 AM 7.18 44.924 0.457 7.76 2.25 10.16
10/22/2022 6:15:00 AM 7.12 44.816 0.458 7.76 2.23 10.19
10/22/2022 6:30:00 AM 7.07 44.726 0.458 7.76 2.16 10.21
10/22/2022 6:45:00 AM 7.01 44.618 0.459 7.76 2.22 10.27
10/22/2022 7:00:00 AM 6.94 44.492 0.459 7.76 2.23 10.25
10/22/2022 7:15:00 AM 6.89 44.402 0.459 7.76 2.23 10.28
10/22/2022 7:30:00 AM 6.83 44.294 0.459 7.75 2.2 10.32
10/22/2022 7:45:00 AM 6.79 44.222 0.459 7.76 2.13 10.35
10/22/2022 8:00:00 AM 6.74 44.132 0.459 7.76 2.14 10.4
10/22/2022 8:15:00 AM 6.7 44.06 0.459 7.77 2.19 10.48
10/22/2022 8:30:00 AM 6.66 43.988 0.458 7.78 2.15 10.58
10/22/2022 8:45:00 AM 6.63 43.934 0.458 7.79 2.16 10.7
10/22/2022 9:00:00 AM 6.62 43.916 0.457 7.81 2.11 10.83
10/22/2022 9:15:00 AM 6.64 43.952 0.456 7.83 2.12 11.01
10/22/2022 9:30:00 AM 6.68 44.024 0.456 7.86 2.13 11.18
10/22/2022 9:45:00 AM 6.75 44.15 0.455 7.9 2.11 11.45
10/22/2022 10:00:00 AM 6.85 44.33 0.454 7.95 2.08 11.67
10/22/2022 10:15:00 AM 6.97 44.546 0.452 8 2.08 11.95
10/22/2022 10:30:00 AM 7.17 44.906 0.452 8.05 2.09 12.17
10/22/2022 10:45:00 AM 7.41 45.338 0.45 8.11 2.8 12.42
10/22/2022 11:00:00 AM 7.68 45.824 0.449 8.17 2.01 12.67
10/22/2022 11:15:00 AM 7.96 46.328 0.448 8.23 2.02 12.87
10/22/2022 11:30:00 AM 8.23 46.814 0.447 8.28 1.99 13.07
10/22/2022 11:45:00 AM 8.48 47.264 0.447 8.33 1.99 13.25
10/22/2022 12:00:00 PM 8.65 47.57 0.446 8.37 2.03 13.37
10/22/2022 12:15:00 PM 8.85 47.93 0.445 8.4 2.08 13.42
10/22/2022 12:30:00 PM 9.02 48.236 0.444 8.43 2.01 13.5
10/22/2022 12:45:00 PM 9.18 48.524 0.444 8.45 2.52 13.57
10/22/2022 1:00:00 PM 9.3 48.74 0.443 8.47 2.03 13.56
10/22/2022 1:15:00 PM 9.42 48.956 0.443 8.49 2 13.6
10/22/2022 1:30:00 PM 9.52 49.136 0.442 8.51 2.21 13.61
10/22/2022 1:45:00 PM 9.61 49.298 0.442 8.53 1.93 13.62
10/22/2022 2:00:00 PM 9.67 49.406 0.442 8.53 2 13.6
10/22/2022 2:15:00 PM 9.74 49.532 0.442 8.55 1.95 13.55
10/22/2022 2:30:00 PM 9.85 49.73 0.442 8.55 1.96 13.51
10/22/2022 2:45:00 PM 9.95 49.91 0.442 8.56 1.93 13.47
10/22/2022 3:00:00 PM 10.03 50.054 0.443 8.56 1.93 13.42
10/22/2022 3:15:00 PM 10.07 50.126 0.443 8.56 1.97 13.33
10/22/2022 3:30:00 PM 10.11 50.198 0.444 8.56 1.99 13.23
10/22/2022 3:45:00 PM 10.18 50.324 0.444 8.55 1.97 13.14
10/22/2022 4:00:00 PM 10.23 50.414 0.445 8.55 1.97 13.06
10/22/2022 4:15:00 PM 10.26 50.468 0.446 8.54 2.03 12.95
10/22/2022 4:30:00 PM 10.29 50.522 0.446 8.53 1.94 12.82
10/22/2022 4:45:00 PM 10.3 50.54 0.447 8.51 1.97 12.68
10/22/2022 5:00:00 PM 10.31 50.558 0.448 8.49 2.03 12.55
10/22/2022 5:15:00 PM 10.3 50.54 0.449 8.47 1.97 12.41
10/22/2022 5:30:00 PM 10.28 50.504 0.45 8.45 1.98 12.27
10/22/2022 5:45:00 PM 10.24 50.432 0.451 8.42 2.01 12.09
10/22/2022 6:00:00 PM 10.2 50.36 0.452 8.38 2.04 11.91
10/22/2022 6:15:00 PM 10.15 50.27 0.453 8.34 2 11.7
10/22/2022 6:30:00 PM 10.1 50.18 0.453 8.28 2.02 11.44
10/22/2022 6:45:00 PM 10.05 50.09 0.454 8.23 1.98 11.22
10/22/2022 7:00:00 PM 9.99 49.982 0.455 8.18 2.09 11
10/22/2022 7:15:00 PM 9.95 49.91 0.455 8.13 2.08 10.8
10/22/2022 7:30:00 PM 9.9 49.82 0.456 8.09 2.11 10.63
10/22/2022 7:45:00 PM 9.87 49.766 0.456 8.06 2.08 10.51
10/22/2022 8:00:00 PM 9.83 49.694 0.456 8.03 2.07 10.4
10/22/2022 8:15:00 PM 9.8 49.64 0.456 8.01 2.12 10.31
10/22/2022 8:30:00 PM 9.77 49.586 0.456 7.99 2.15 10.24
10/22/2022 8:45:00 PM 9.74 49.532 0.456 7.97 2.15 10.17
10/22/2022 9:00:00 PM 9.71 49.478 0.456 7.96 2.27 10.08
10/22/2022 9:15:00 PM 9.68 49.424 0.456 7.95 2.12 10.06
10/22/2022 9:30:00 PM 9.65 49.37 0.456 7.94 2.28 10.02
10/22/2022 9:45:00 PM 9.63 49.334 0.455 7.93 2.08 10
10/22/2022 10:00:00 PM 9.6 49.28 0.455 7.92 2.15 9.97
10/22/2022 10:15:00 PM 9.57 49.226 0.454 7.92 2.13 9.95
10/22/2022 10:30:00 PM 9.55 49.19 0.454 7.91 2.13 9.93
10/22/2022 10:45:00 PM 9.51 49.118 0.453 7.9 2.63 9.91
10/22/2022 11:00:00 PM 9.48 49.064 0.453 7.9 2.15 9.88
10/22/2022 11:15:00 PM 9.45 49.01 0.452 7.9 2.13 9.89
10/22/2022 11:30:00 PM 9.4 48.92 0.452 7.89 2.09 9.88
10/22/2022 11:45:00 PM 9.36 48.848 0.451 7.88 2.17 9.85
10/23/2022 12:00:00 AM 9.31 48.758 0.451 7.87 2.16 9.84
10/23/2022 12:15:00 AM 9.26 48.668 0.451 7.87 2.94 9.83
10/23/2022 12:30:00 AM 9.21 48.578 0.45 7.86 2.19 9.84
10/23/2022 12:45:00 AM 9.15 48.47 0.45 7.85 2.23 9.83
10/23/2022 1:00:00 AM 9.1 48.38 0.45 7.84 2.23 9.83
10/23/2022 1:15:00 AM 9.03 48.254 0.45 7.84 2.49 9.82
10/23/2022 1:30:00 AM 8.96 48.128 0.45 7.83 2.09 9.82
10/23/2022 1:45:00 AM 8.9 48.02 0.45 7.83 2.14 9.83
10/23/2022 2:00:00 AM 8.84 47.912 0.45 7.82 2.13 9.84
10/23/2022 2:15:00 AM 8.77 47.786 0.45 7.81 2.2 9.83
10/23/2022 2:30:00 AM 8.71 47.678 0.45 7.81 2.15 9.82
10/23/2022 2:45:00 AM 8.63 47.534 0.45 7.8 2.14 9.84
10/23/2022 3:00:00 AM 8.57 47.426 0.451 7.8 2.15 9.84
10/23/2022 3:15:00 AM 8.5 47.3 0.451 7.79 2.13 9.86
10/23/2022 3:30:00 AM 8.43 47.174 0.451 7.79 2.12 9.85
10/23/2022 3:45:00 AM 8.36 47.048 0.451 7.78 2.17 9.86
10/23/2022 4:00:00 AM 8.29 46.922 0.451 7.78 2.12 9.9
10/23/2022 4:15:00 AM 8.22 46.796 0.451 7.78 2.08 9.91
10/23/2022 4:30:00 AM 8.15 46.67 0.452 7.77 2.13 9.96
10/23/2022 4:45:00 AM 8.08 46.544 0.452 7.77 2.24 9.98
10/23/2022 5:00:00 AM 8 46.4 0.45 7.77 2.56 9.99
10/23/2022 5:15:00 AM 7.93 46.274 0.45 7.76 3.15 10
10/23/2022 5:30:00 AM 7.87 46.166 0.451 7.76 3.27 10.01
10/23/2022 5:45:00 AM 7.8 46.04 0.451 7.76 3.68 10.02
10/23/2022 6:00:00 AM 7.73 45.914 0.451 7.76 3.46 10.05
10/23/2022 6:15:00 AM 7.66 45.788 0.451 7.76 3.79 10.06
10/23/2022 6:30:00 AM 7.6 45.68 0.451 7.76 4.8 10.09
10/23/2022 6:45:00 AM 7.53 45.554 0.451 7.76 2.74 10.11
10/23/2022 7:00:00 AM 7.47 45.446 0.451 7.76 2.3 10.13
10/23/2022 7:15:00 AM 7.41 45.338 0.452 7.75 2.34 10.15
10/23/2022 7:30:00 AM 7.35 45.23 0.452 7.75 2.15 10.18
10/23/2022 7:45:00 AM 7.3 45.14 0.452 7.76 2.14 10.21
10/23/2022 8:00:00 AM 7.24 45.032 0.452 7.76 2.12 10.25
10/23/2022 8:15:00 AM 7.2 44.96 0.452 7.76 2.12 10.31
10/23/2022 8:30:00 AM 7.18 44.924 0.452 7.78 2.16 10.43
10/23/2022 8:45:00 AM 7.14 44.852 0.452 7.79 2.14 10.54
10/23/2022 9:00:00 AM 7.13 44.834 0.452 7.81 2.18 10.68
10/23/2022 9:15:00 AM 7.13 44.834 0.452 7.83 2.12 10.84
10/23/2022 9:30:00 AM 7.15 44.87 0.451 7.86 2.13 11.06
10/23/2022 9:45:00 AM 7.2 44.96 0.451 7.91 2.12 11.3
10/23/2022 10:00:00 AM 7.25 45.05 0.451 7.95 2.07 11.57
10/23/2022 10:15:00 AM 7.33 45.194 0.45 8 2.12 11.84
10/23/2022 10:30:00 AM 7.45 45.41 0.45 8.06 2.07 12.11
10/23/2022 10:45:00 AM 7.61 45.698 0.449 8.12 2.05 12.36
10/23/2022 11:00:00 AM 7.83 46.094 0.448 8.18 2.05 12.61
10/23/2022 11:15:00 AM 8.11 46.598 0.448 8.24 2.03 12.84
10/23/2022 11:30:00 AM 8.38 47.084 0.449 8.3 2.16 13.06
10/23/2022 11:45:00 AM 8.63 47.534 0.448 8.36 2.08 13.33
10/23/2022 12:00:00 PM 8.87 47.966 0.448 8.41 2.12 13.5
10/23/2022 12:15:00 PM 9.1 48.38 0.447 8.45 2.15 13.65
10/23/2022 12:30:00 PM 9.31 48.758 0.447 8.48 2.5 13.72
10/23/2022 12:45:00 PM 9.49 49.082 0.447 8.51 2.2 13.75
10/23/2022 1:00:00 PM 9.64 49.352 0.446 8.53 2.06 13.82
10/23/2022 1:15:00 PM 9.76 49.568 0.446 8.56 2.05 13.85
10/23/2022 1:30:00 PM 9.88 49.784 0.446 8.58 2.12 13.85
10/23/2022 1:45:00 PM 10 50 0.446 8.59 1.98 13.84
10/23/2022 2:00:00 PM 10 50 0.446 8.6 2.35 13.83
10/23/2022 2:15:00 PM 9.98 49.964 0.446 8.6 2.06 13.73
10/23/2022 2:30:00 PM 10.08 50.144 0.446 8.62 2.04 13.73
10/23/2022 2:45:00 PM 10.2 50.36 0.446 8.63 2.12 13.74
10/23/2022 3:00:00 PM 10.28 50.504 0.446 8.65 2.06 13.77
10/23/2022 3:15:00 PM 10.39 50.702 0.445 8.66 2.05 13.83
10/23/2022 3:30:00 PM 10.47 50.846 0.445 8.68 5.76 13.83
10/23/2022 3:45:00 PM 10.54 50.972 0.445 8.69 2.05 13.8
10/23/2022 4:00:00 PM 10.6 51.08 0.445 8.69 2.03 13.74
10/23/2022 4:15:00 PM 10.64 51.152 0.446 8.69 2.05 13.61
10/23/2022 4:30:00 PM 10.7 51.26 0.446 8.69 3.79 13.59
10/23/2022 4:45:00 PM 10.8 51.44 0.446 8.71 2.01 13.58
10/23/2022 5:00:00 PM 10.88 51.584 0.446 8.71 2.21 13.55
10/23/2022 5:15:00 PM 10.93 51.674 0.446 8.7 2.01 13.43
10/23/2022 5:30:00 PM 10.93 51.674 0.447 8.68 1.99 13.22
10/23/2022 5:45:00 PM 10.91 51.638 0.448 8.64 2.11 12.84
10/23/2022 6:00:00 PM 10.89 51.602 0.448 8.59 2.12 12.55
10/23/2022 6:15:00 PM 10.86 51.548 0.449 8.54 1.97 12.22
10/23/2022 6:30:00 PM 10.83 51.494 0.45 8.47 2.04 11.89
10/23/2022 6:45:00 PM 10.82 51.476 0.451 8.41 2.02 11.58
10/23/2022 7:00:00 PM 10.8 51.44 0.452 8.35 2 11.23
10/23/2022 7:15:00 PM 10.8 51.44 0.453 8.3 2.25 11.02
10/23/2022 7:30:00 PM 10.79 51.422 0.453 8.25 2.04 10.79
10/23/2022 7:45:00 PM 10.78 51.404 0.454 8.2 2.24 10.6
10/23/2022 8:00:00 PM 10.76 51.368 0.455 8.16 2.31 10.4
10/23/2022 8:15:00 PM 10.77 51.386 0.455 8.13 2.2 10.29
10/23/2022 8:30:00 PM 10.77 51.386 0.455 8.1 2.09 10.18
10/23/2022 8:45:00 PM 10.78 51.404 0.455 8.07 2.22 10.07
10/23/2022 9:00:00 PM 10.79 51.422 0.456 8.04 2.07 10
10/23/2022 9:15:00 PM 10.8 51.44 0.456 8.02 2.15 9.91
10/23/2022 9:30:00 PM 10.81 51.458 0.456 8 2.14 9.84
10/23/2022 9:45:00 PM 10.83 51.494 0.455 7.99 2.1 9.77
10/23/2022 10:00:00 PM 10.85 51.53 0.455 7.97 2.04 9.71
10/23/2022 10:15:00 PM 10.87 51.566 0.455 7.96 2.03 9.63
10/23/2022 10:30:00 PM 10.88 51.584 0.454 7.95 2.07 9.61
10/23/2022 10:45:00 PM 10.91 51.638 0.454 7.94 2.05 9.6
10/23/2022 11:00:00 PM 10.92 51.656 0.453 7.93 2.06 9.56
10/23/2022 11:15:00 PM 10.93 51.674 0.453 7.92 2.1 9.52
10/23/2022 11:30:00 PM 10.92 51.656 0.452 7.91 2.06 9.49
10/23/2022 11:45:00 PM 10.9 51.62 0.452 7.9 2.11 9.46
10/24/2022 12:00:00 AM 10.87 51.566 0.451 7.89 2.3 9.43
10/24/2022 12:15:00 AM 10.84 51.512 0.451 7.88 2.03 9.4
10/24/2022 12:30:00 AM 10.81 51.458 0.451 7.87 2.16 9.37
10/24/2022 12:45:00 AM 10.78 51.404 0.45 7.86 2.19 9.34
10/24/2022 1:00:00 AM 10.78 51.404 0.45 7.85 2.12 9.3
10/24/2022 1:15:00 AM 10.78 51.404 0.45 7.84 2.05 9.31
10/24/2022 1:30:00 AM 10.79 51.422 0.449 7.84 2.22 9.28
10/24/2022 1:45:00 AM 10.79 51.422 0.449 7.83 2.07 9.27
10/24/2022 2:00:00 AM 10.79 51.422 0.449 7.82 2.01 9.24
10/24/2022 2:15:00 AM 10.79 51.422 0.449 7.81 2.04 9.23
10/24/2022 2:30:00 AM 10.78 51.404 0.448 7.8 2.11 9.22
10/24/2022 2:45:00 AM 10.77 51.386 0.448 7.79 2.11 9.21
10/24/2022 3:00:00 AM 10.76 51.368 0.448 7.79 2.15 9.19
10/24/2022 3:15:00 AM 10.74 51.332 0.448 7.78 3.08 9.18
10/24/2022 3:30:00 AM 10.69 51.242 0.449 7.77 2.18 9.17
10/24/2022 3:45:00 AM 10.65 51.17 0.449 7.76 2.4 9.16
10/24/2022 4:00:00 AM 10.61 51.098 0.449 7.76 2.16 9.15
10/24/2022 4:15:00 AM 10.57 51.026 0.45 7.75 2.72 9.13
10/24/2022 4:30:00 AM 10.55 50.99 0.45 7.75 3.55 9.13
10/24/2022 4:45:00 AM 10.53 50.954 0.451 7.74 2.39 9.14
10/24/2022 5:00:00 AM 10.52 50.936 0.451 7.74 2.41 9.14
10/24/2022 5:15:00 AM 10.51 50.918 0.452 7.73 2.59 9.13
10/24/2022 5:30:00 AM 10.49 50.882 0.453 7.73 2.92 9.12
10/24/2022 5:45:00 AM 10.45 50.81 0.453 7.72 2.41 9.1
10/24/2022 6:00:00 AM 10.42 50.756 0.454 7.72 4.94 9.13
10/24/2022 6:15:00 AM 10.38 50.684 0.455 7.72 3.55 9.13
10/24/2022 6:30:00 AM 10.34 50.612 0.455 7.71 2.67 9.11
10/24/2022 6:45:00 AM 10.3 50.54 0.456 7.71 2.25 9.14
10/24/2022 7:00:00 AM 10.26 50.468 0.457 7.71 2.11 9.16
10/24/2022 7:15:00 AM 10.21 50.378 0.457 7.7 2.24 9.16
10/24/2022 7:30:00 AM 10.17 50.306 0.458 7.7 3.98 9.18
10/24/2022 7:45:00 AM 10.15 50.27 0.458 7.7 2.29 9.18
10/24/2022 8:00:00 AM 10.12 50.216 0.459 7.7 2.06 9.22
10/24/2022 8:15:00 AM 10.11 50.198 0.459 7.71 2.18 9.28
10/24/2022 8:30:00 AM 10.13 50.234 0.459 7.73 2.08 9.37
10/24/2022 8:45:00 AM 10.16 50.288 0.459 7.75 2.07 9.53
10/24/2022 9:00:00 AM 10.18 50.324 0.458 7.78 2.09 9.7
10/24/2022 9:15:00 AM 10.21 50.378 0.458 7.8 2.03 9.89
10/24/2022 9:30:00 AM 10.27 50.486 0.458 7.84 2.02 10.15
10/24/2022 9:45:00 AM 10.37 50.666 0.458 7.89 1.98 10.42
10/24/2022 10:00:00 AM 10.47 50.846 0.457 7.94 1.99 10.67
10/24/2022 10:15:00 AM 10.57 51.026 0.457 7.99 1.99 10.95
10/24/2022 10:30:00 AM 10.76 51.368 0.456 8.06 2 11.22
10/24/2022 10:45:00 AM 10.98 51.764 0.455 8.13 2 11.56
10/24/2022 11:00:00 AM 11.22 52.196 0.455 8.2 1.95 11.74
10/24/2022 11:15:00 AM 11.5 52.7 0.454 8.27 1.96 12.06
10/24/2022 11:30:00 AM 11.76 53.168 0.453 8.32 2.03 12.3
10/24/2022 11:45:00 AM 11.96 53.528 0.453 8.37 2.05 12.47
10/24/2022 12:00:00 PM 12.16 53.888 0.452 8.42 1.99 12.52
10/24/2022 12:15:00 PM 12.37 54.266 0.451 8.47 1.98 12.86
10/24/2022 12:30:00 PM 12.51 54.518 0.451 8.49 2.03 12.82
10/24/2022 12:45:00 PM 12.62 54.716 0.45 8.52 1.9 12.97
10/24/2022 1:00:00 PM 12.74 54.932 0.45 8.54 1.96 12.96
10/24/2022 1:15:00 PM 12.85 55.13 0.45 8.56 1.88 12.98
10/24/2022 1:30:00 PM 12.93 55.274 0.449 8.58 1.93 13.06
10/24/2022 1:45:00 PM 13.03 55.454 0.449 8.59 1.88 13.08
10/24/2022 2:00:00 PM 13.09 55.562 0.449 8.6 1.93 13.03
10/24/2022 2:15:00 PM 13.16 55.688 0.448 8.62 1.94 12.97
10/24/2022 2:30:00 PM 13.23 55.814 0.448 8.62 1.97 12.97
10/24/2022 2:45:00 PM 13.33 55.994 0.448 8.63 1.96 12.98
10/24/2022 3:00:00 PM 13.41 56.138 0.448 8.63 2.01 12.83
10/24/2022 3:15:00 PM 13.45 56.21 0.448 8.62 1.96 12.62
10/24/2022 3:30:00 PM 13.48 56.264 0.449 8.61 2.01 12.54
10/24/2022 3:45:00 PM 13.54 56.372 0.449 8.6 1.97 12.42
10/24/2022 4:00:00 PM 13.58 56.444 0.449 8.59 2.01 12.33
10/24/2022 4:15:00 PM 13.59 56.462 0.449 8.57 2.1 12.16
10/24/2022 4:30:00 PM 13.61 56.498 0.45 8.55 2 11.94
10/24/2022 4:45:00 PM 13.62 56.516 0.45 8.53 1.98 11.74
10/24/2022 5:00:00 PM 13.61 56.498 0.451 8.5 1.98 11.57
10/24/2022 5:15:00 PM 13.58 56.444 0.451 8.47 1.99 11.33
10/24/2022 5:30:00 PM 13.56 56.408 0.452 8.43 2.05 11.13
10/24/2022 5:45:00 PM 13.51 56.318 0.452 8.38 2.01 10.89
10/24/2022 6:00:00 PM 13.46 56.228 0.453 8.33 2.12 10.67
10/24/2022 6:15:00 PM 13.41 56.138 0.453 8.27 2.12 10.41
10/24/2022 6:30:00 PM 13.36 56.048 0.454 8.21 2.12 10.18
10/24/2022 6:45:00 PM 13.32 55.976 0.454 8.15 2.09 9.95
10/24/2022 7:00:00 PM 13.27 55.886 0.454 8.09 2.2 9.74
10/24/2022 7:15:00 PM 13.24 55.832 0.454 8.05 2.12 9.53
10/24/2022 7:30:00 PM 13.21 55.778 0.454 8.01 2.35 9.38
10/24/2022 7:45:00 PM 13.18 55.724 0.454 7.98 2.24 9.22
10/24/2022 8:00:00 PM 13.16 55.688 0.453 7.96 2.32 9.14
10/24/2022 8:15:00 PM 13.14 55.652 0.453 7.93 2.76 9.05
10/24/2022 8:30:00 PM 13.12 55.616 0.453 7.92 2.33 8.96
10/24/2022 8:45:00 PM 13.1 55.58 0.452 7.9 2.59 8.91
10/24/2022 9:00:00 PM 13.08 55.544 0.452 7.89 2.43 8.84
10/24/2022 9:15:00 PM 13.06 55.508 0.451 7.88 2.23 8.81
10/24/2022 9:30:00 PM 13.04 55.472 0.45 7.87 2.32 8.77
10/24/2022 9:45:00 PM 13.02 55.436 0.45 7.86 2.47 8.74
10/24/2022 10:00:00 PM 13 55.4 0.449 7.85 2.47 8.7
10/24/2022 10:15:00 PM 12.99 55.382 0.449 7.84 2.4 8.66
10/24/2022 10:30:00 PM 12.97 55.346 0.449 7.83 2.66 8.61
10/24/2022 10:45:00 PM 12.94 55.292 0.448 7.82 2.69 8.6
10/24/2022 11:00:00 PM 12.92 55.256 0.448 7.82 2.46 8.57
10/24/2022 11:15:00 PM 12.88 55.184 0.448 7.8 2.42 8.53
10/24/2022 11:30:00 PM 12.85 55.13 0.448 7.8 2.79 8.49
10/24/2022 11:45:00 PM 12.81 55.058 0.448 7.79 2.5 8.48
10/25/2022 12:00:00 AM 12.76 54.968 0.448 7.78 2.46 8.46
10/25/2022 12:15:00 AM 12.72 54.896 0.448 7.77 2.55 8.48
10/25/2022 12:30:00 AM 12.67 54.806 0.449 7.76 2.38 8.45
10/25/2022 12:45:00 AM 12.62 54.716 0.449 7.75 2.32 8.44
10/25/2022 1:00:00 AM 12.57 54.626 0.449 7.74 2.37 8.44
10/25/2022 1:15:00 AM 12.52 54.536 0.45 7.74 2.42 8.44
10/25/2022 1:30:00 AM 12.49 54.482 0.451 7.73 2.27 8.44
10/25/2022 1:45:00 AM 12.47 54.446 0.452 7.72 2.22 8.43
10/25/2022 2:00:00 AM 12.45 54.41 0.452 7.72 2.29 8.42
10/25/2022 2:15:00 AM 12.44 54.392 0.453 7.71 2.48 8.4
10/25/2022 2:30:00 AM 12.42 54.356 0.454 7.71 2.19 8.41
10/25/2022 2:45:00 AM 12.41 54.338 0.455 7.71 2.14 8.4
10/25/2022 3:00:00 AM 12.39 54.302 0.456 7.7 2.18 8.37
10/25/2022 3:15:00 AM 12.38 54.284 0.457 7.7 2.14 8.38
10/25/2022 3:30:00 AM 12.36 54.248 0.458 7.7 2.31 8.35
10/25/2022 3:45:00 AM 12.34 54.212 0.459 7.69 2.21 8.38
10/25/2022 4:00:00 AM 12.32 54.176 0.46 7.69 2.35 8.37
10/25/2022 4:15:00 AM 12.3 54.14 0.461 7.69 2.17 8.38
10/25/2022 4:30:00 AM 12.28 54.104 0.462 7.69 3.47 8.39
10/25/2022 4:45:00 AM 12.27 54.086 0.462 7.69 2.4 8.38
10/25/2022 5:00:00 AM 12.26 54.068 0.463 7.68 2.38 8.37
10/25/2022 5:15:00 AM 12.24 54.032 0.464 7.68 2.68 8.37
10/25/2022 5:30:00 AM 12.23 54.014 0.464 7.68 2.23 8.39
10/25/2022 5:45:00 AM 12.22 53.996 0.465 7.68 2.17 8.4
10/25/2022 6:00:00 AM 12.21 53.978 0.465 7.68 2.15 8.41
10/25/2022 6:15:00 AM 12.2 53.96 0.465 7.68 2.19 8.4
10/25/2022 6:30:00 AM 12.19 53.942 0.465 7.68 2.3 8.38
10/25/2022 6:45:00 AM 12.18 53.924 0.465 7.67 2.23 8.4
10/25/2022 7:00:00 AM 12.16 53.888 0.465 7.67 2.2 8.41
10/25/2022 7:15:00 AM 12.15 53.87 0.465 7.67 2.23 8.42
10/25/2022 7:30:00 AM 12.14 53.852 0.465 7.67 2.14 8.42
10/25/2022 7:45:00 AM 12.13 53.834 0.465 7.67 2.19 8.41
10/25/2022 8:00:00 AM 12.13 53.834 0.465 7.67 2.12 8.43
10/25/2022 8:15:00 AM 12.12 53.816 0.464 7.68 2.16 8.48
10/25/2022 8:30:00 AM 12.12 53.816 0.464 7.68 2.2 8.53
10/25/2022 8:45:00 AM 12.13 53.834 0.464 7.69 2.1 8.59
10/25/2022 9:00:00 AM 12.14 53.852 0.463 7.7 2.23 8.69
10/25/2022 9:15:00 AM 12.16 53.888 0.463 7.72 2.09 8.81
10/25/2022 9:30:00 AM 12.19 53.942 0.462 7.74 2.07 8.97
10/25/2022 9:45:00 AM 12.22 53.996 0.461 7.76 2.12 9.19
10/25/2022 10:00:00 AM 12.26 54.068 0.461 7.79 2.23 9.37
10/25/2022 10:15:00 AM 12.3 54.14 0.46 7.83 2.02 9.59
10/25/2022 10:30:00 AM 12.36 54.248 0.459 7.86 2 9.82
10/25/2022 10:45:00 AM 12.42 54.356 0.459 7.91 2.24 10.12
10/25/2022 11:00:00 AM 12.51 54.518 0.458 7.97 2.06 10.36
10/25/2022 11:15:00 AM 12.65 54.77 0.457 8.05 2.12 10.79
10/25/2022 11:30:00 AM 12.77 54.986 0.456 8.09 2.22 11.13
10/25/2022 11:45:00 AM 12.92 55.256 0.455 8.19 2.05 11.54
10/25/2022 12:00:00 PM 13.04 55.472 0.454 8.28 2.09 11.82
10/25/2022 12:15:00 PM 13.4 56.12 0.454 8.37 2.07 12.16
10/25/2022 12:30:00 PM 13.68 56.624 0.453 8.45 2.01 12.58
10/25/2022 12:45:00 PM 13.81 56.858 0.452 8.49 2.05 12.69
10/25/2022 1:00:00 PM 13.92 57.056 0.452 8.53 2.05 12.79
10/25/2022 1:15:00 PM 14.02 57.236 0.451 8.56 2.07 12.89
10/25/2022 1:30:00 PM 14.11 57.398 0.451 8.58 2.03 12.92
10/25/2022 1:45:00 PM 14.18 57.524 0.451 8.6 2.04 12.91
10/25/2022 2:00:00 PM 14.22 57.596 0.451 8.61 2.03 12.86
10/25/2022 2:15:00 PM 14.26 57.668 0.45 8.61 2.29 12.78
10/25/2022 2:30:00 PM 14.35 57.83 0.45 8.62 2.06 12.75
10/25/2022 2:45:00 PM 14.45 58.01 0.45 8.63 2.04 12.7
10/25/2022 3:00:00 PM 14.5 58.1 0.451 8.62 2.05 12.49
10/25/2022 3:15:00 PM 14.53 58.154 0.451 8.61 2.1 12.39
10/25/2022 3:30:00 PM 14.56 58.208 0.451 8.6 2.02 12.24
10/25/2022 3:45:00 PM 14.61 58.298 0.452 8.59 2.05 12.12
10/25/2022 4:00:00 PM 14.64 58.352 0.452 8.57 2.25 11.98
10/25/2022 4:15:00 PM 14.66 58.388 0.452 8.56 2.07 11.81
10/25/2022 4:30:00 PM 14.68 58.424 0.453 8.54 2.03 11.64
10/25/2022 4:45:00 PM 14.67 58.406 0.453 8.5 2.47 11.4
10/25/2022 5:00:00 PM 14.66 58.388 0.454 8.48 2.11 11.26
10/25/2022 5:15:00 PM 14.63 58.334 0.454 8.44 2.04 11.05
10/25/2022 5:30:00 PM 14.58 58.244 0.455 8.39 2 10.82
10/25/2022 5:45:00 PM 14.51 58.118 0.455 8.34 2.04 10.55
10/25/2022 6:00:00 PM 14.43 57.974 0.456 8.28 2.05 10.28
10/25/2022 6:15:00 PM 14.35 57.83 0.457 8.22 2.02 10.01
10/25/2022 6:30:00 PM 14.27 57.686 0.457 8.14 2.07 9.71
10/25/2022 6:45:00 PM 14.2 57.56 0.458 8.08 2.12 9.46
10/25/2022 7:00:00 PM 14.13 57.434 0.459 8.03 2.13 9.24
10/25/2022 7:15:00 PM 14.08 57.344 0.459 7.98 2.18 9.02
10/25/2022 7:30:00 PM 14.05 57.29 0.459 7.95 2.19 8.87
10/25/2022 7:45:00 PM 14.01 57.218 0.459 7.91 2.7 8.75
10/25/2022 8:00:00 PM 13.99 57.182 0.459 7.89 2.73 8.64
10/25/2022 8:15:00 PM 13.96 57.128 0.459 7.87 2.61 8.56
10/25/2022 8:30:00 PM 13.94 57.092 0.459 7.85 2.34 8.47
10/25/2022 8:45:00 PM 13.93 57.074 0.459 7.84 2.2 8.44
10/25/2022 9:00:00 PM 13.93 57.074 0.459 7.83 2.54 8.39
10/25/2022 9:15:00 PM 13.94 57.092 0.459 7.82 2.16 8.34
10/25/2022 9:30:00 PM 13.96 57.128 0.459 7.81 2.24 8.31
10/25/2022 9:45:00 PM 13.97 57.146 0.459 7.8 2.36 8.25
10/25/2022 10:00:00 PM 13.98 57.164 0.459 7.79 2.2 8.2
10/25/2022 10:15:00 PM 13.99 57.182 0.458 7.79 2.23 8.16
10/25/2022 10:30:00 PM 14 57.2 0.458 7.78 2.38 8.12
10/25/2022 10:45:00 PM 14.01 57.218 0.458 7.78 2.13 8.08
10/25/2022 11:00:00 PM 14.01 57.218 0.457 7.77 2 8.07
10/25/2022 11:15:00 PM 14.02 57.236 0.457 7.76 2.25 8.05
10/25/2022 11:30:00 PM 14.03 57.254 0.457 7.76 2.06 8.04
10/25/2022 11:45:00 PM 14.02 57.236 0.457 7.75 2.2 7.99
10/26/2022 12:00:00 AM 14 57.2 0.457 7.75 2.14 7.98
10/26/2022 12:15:00 AM 13.99 57.182 0.457 7.74 2.25 7.91
10/26/2022 12:30:00 AM 13.97 57.146 0.457 7.74 2.25 7.95
10/26/2022 12:45:00 AM 13.94 57.092 0.456 7.73 2.17 7.92
10/26/2022 1:00:00 AM 13.91 57.038 0.456 7.73 2.13 7.89
10/26/2022 1:15:00 AM 13.88 56.984 0.456 7.72 2.09 7.9
10/26/2022 1:30:00 AM 13.84 56.912 0.456 7.71 2.19 7.88
10/26/2022 1:45:00 AM 13.8 56.84 0.457 7.71 2.35 7.89
10/26/2022 2:00:00 AM 13.76 56.768 0.457 7.7 2.17 7.86
10/26/2022 2:15:00 AM 13.72 56.696 0.457 7.7 2.38 7.84
10/26/2022 2:30:00 AM 13.68 56.624 0.457 7.69 2.22 7.85
10/26/2022 2:45:00 AM 13.65 56.57 0.457 7.68 2.13 7.82
10/26/2022 3:00:00 AM 13.6 56.48 0.457 7.68 2.64 7.82
10/26/2022 3:15:00 AM 13.54 56.372 0.458 7.68 2.5 7.81
10/26/2022 3:30:00 AM 13.49 56.282 0.458 7.67 5.74 7.8
10/26/2022 3:45:00 AM 13.46 56.228 0.458 7.67 2.3 7.82
10/26/2022 4:00:00 AM 13.43 56.174 0.459 7.66 2.27 7.83
10/26/2022 4:15:00 AM 13.39 56.102 0.459 7.66 2.77 7.83
10/26/2022 4:30:00 AM 13.35 56.03 0.459 7.66 2.3 7.81
10/26/2022 4:45:00 AM 13.32 55.976 0.46 7.65 2.14 7.77
10/26/2022 5:00:00 AM 13.3 55.94 0.46 7.65 2.11 7.8
10/26/2022 5:15:00 AM 13.28 55.904 0.461 7.65 2.06 7.84
10/26/2022 5:30:00 AM 13.25 55.85 0.461 7.65 2.09 7.83
10/26/2022 5:45:00 AM 13.23 55.814 0.461 7.65 2.12 7.79
10/26/2022 6:00:00 AM 13.21 55.778 0.462 7.64 2.1 7.87
10/26/2022 6:15:00 AM 13.19 55.742 0.462 7.64 2.16 7.87
10/26/2022 6:30:00 AM 13.16 55.688 0.462 7.64 2.33 7.89
10/26/2022 6:45:00 AM 13.13 55.634 0.462 7.64 2.18 7.85
10/26/2022 7:00:00 AM 13.11 55.598 0.463 7.64 2.09 7.84
10/26/2022 7:15:00 AM 13.09 55.562 0.463 7.64 2.29 7.88
10/26/2022 7:30:00 AM 13.07 55.526 0.463 7.64 2.06 7.87
10/26/2022 7:45:00 AM 13.05 55.49 0.463 7.64 2.14 7.88
10/26/2022 8:00:00 AM 13.03 55.454 0.463 7.64 2.18 7.94
10/26/2022 8:15:00 AM 13.01 55.418 0.463 7.65 2.09 7.97
10/26/2022 8:30:00 AM 13.01 55.418 0.463 7.66 3.23 8.03
10/26/2022 8:45:00 AM 13.01 55.418 0.462 7.68 4.01 8.19
10/26/2022 9:00:00 AM 13.04 55.472 0.462 7.69 2.15 8.32
10/26/2022 9:15:00 AM 13.07 55.526 0.462 7.73 2.07 8.55
10/26/2022 9:30:00 AM 13.08 55.544 0.461 7.75 2.02 8.74
10/26/2022 9:45:00 AM 13.09 55.562 0.461 7.77 2.04 8.88
10/26/2022 10:00:00 AM 13.1 55.58 0.461 7.78 2 8.95
10/26/2022 10:15:00 AM 13.13 55.634 0.46 7.8 2 9.12
10/26/2022 10:30:00 AM 13.29 55.922 0.459 7.88 1.98 9.56
10/26/2022 10:45:00 AM 13.42 56.156 0.458 7.95 1.99 9.99
10/26/2022 11:00:00 AM 13.45 56.21 0.458 8 1.98 10.23
10/26/2022 11:15:00 AM 13.46 56.228 0.458 8 2.15 10.25
10/26/2022 11:30:00 AM 13.43 56.174 0.457 8 2.05 10.15
10/26/2022 11:45:00 AM 13.4 56.12 0.457 7.98 1.96 10.07
10/26/2022 12:00:00 PM 13.39 56.102 0.457 7.98 2.11 10.01
10/26/2022 12:15:00 PM 13.4 56.12 0.457 7.98 2.1 10.02
10/26/2022 12:30:00 PM 13.41 56.138 0.457 7.99 2.04 10.02
10/26/2022 12:45:00 PM 13.41 56.138 0.457 8 1.98 10.03
10/26/2022 1:00:00 PM 13.43 56.174 0.457 8 2.01 10.01
10/26/2022 1:15:00 PM 13.43 56.174 0.457 7.99 1.98 9.96
10/26/2022 1:30:00 PM 13.43 56.174 0.457 7.99 2.03 9.89
10/26/2022 1:45:00 PM 13.45 56.21 0.457 7.99 2.01 9.88
10/26/2022 2:00:00 PM 13.48 56.264 0.457 8 2.04 9.93
10/26/2022 2:15:00 PM 13.48 56.264 0.457 8 2.07 9.9
10/26/2022 2:30:00 PM 13.49 56.282 0.457 7.99 2.02 9.83
10/26/2022 2:45:00 PM 13.5 56.3 0.457 8 1.97 9.8
10/26/2022 3:00:00 PM 13.5 56.3 0.457 7.99 2 9.72
10/26/2022 3:15:00 PM 13.5 56.3 0.458 7.97 1.98 9.66
10/26/2022 3:30:00 PM 13.54 56.372 0.458 8.01 2 9.82
10/26/2022 3:45:00 PM 13.54 56.372 0.458 8.01 1.9 9.8
10/26/2022 4:00:00 PM 13.54 56.372 0.458 8.01 1.96 9.83
10/26/2022 4:15:00 PM 13.53 56.354 0.458 8.01 2 9.78
10/26/2022 4:30:00 PM 13.54 56.372 0.458 8.01 1.97 9.83
10/26/2022 4:45:00 PM 13.54 56.372 0.459 8.01 1.93 9.78
10/26/2022 5:00:00 PM 13.55 56.39 0.459 8.03 1.93 9.84
10/26/2022 5:15:00 PM 13.56 56.408 0.459 8.02 1.92 9.86
10/26/2022 5:30:00 PM 13.54 56.372 0.459 8.02 2.03 9.86
10/26/2022 5:45:00 PM 13.5 56.3 0.459 8.02 1.97 9.77
10/26/2022 6:00:00 PM 13.46 56.228 0.459 7.99 1.92 9.67
10/26/2022 6:15:00 PM 13.43 56.174 0.46 7.97 1.96 9.52
10/26/2022 6:30:00 PM 13.38 56.084 0.46 7.94 1.98 9.3
10/26/2022 6:45:00 PM 13.34 56.012 0.46 7.91 2.37 9.15
10/26/2022 7:00:00 PM 13.29 55.922 0.461 7.88 2.05 8.98
10/26/2022 7:15:00 PM 13.23 55.814 0.461 7.85 2.07 8.86
10/26/2022 7:30:00 PM 13.21 55.778 0.461 7.83 2.13 8.74
10/26/2022 7:45:00 PM 13.18 55.724 0.461 7.82 2.21 8.66
10/26/2022 8:00:00 PM 13.16 55.688 0.461 7.8 2.19 8.55
10/26/2022 8:15:00 PM 13.15 55.67 0.461 7.79 2.29 8.48
10/26/2022 8:30:00 PM 13.12 55.616 0.461 7.78 2.29 8.42
10/26/2022 8:45:00 PM 13.1 55.58 0.461 7.77 2.01 8.4
10/26/2022 9:00:00 PM 13.07 55.526 0.461 7.77 2.15 8.4
10/26/2022 9:15:00 PM 13.03 55.454 0.46 7.76 2.08 8.37
10/26/2022 9:30:00 PM 13 55.4 0.46 7.75 2.06 8.38
10/26/2022 9:45:00 PM 12.97 55.346 0.46 7.74 2.03 8.31
10/26/2022 10:00:00 PM 12.95 55.31 0.459 7.74 2.1 8.3
10/26/2022 10:15:00 PM 12.93 55.274 0.459 7.73 2 8.26
10/26/2022 10:30:00 PM 12.91 55.238 0.459 7.73 2.13 8.25
10/26/2022 10:45:00 PM 12.9 55.22 0.458 7.73 2.04 8.3
10/26/2022 11:00:00 PM 12.88 55.184 0.458 7.73 2.01 8.28
10/26/2022 11:15:00 PM 12.87 55.166 0.457 7.72 2.01 8.25
10/26/2022 11:30:00 PM 12.85 55.13 0.457 7.73 2.08 8.25
10/26/2022 11:45:00 PM 12.83 55.094 0.457 7.72 3.25 8.28
10/27/2022 12:00:00 AM 12.81 55.058 0.456 7.72 2.07 8.27
10/27/2022 12:15:00 AM 12.78 55.004 0.456 7.72 2.04 8.29
10/27/2022 12:30:00 AM 12.75 54.95 0.456 7.72 2 8.29
10/27/2022 12:45:00 AM 12.71 54.878 0.455 7.71 2.05 8.29
10/27/2022 1:00:00 AM 12.66 54.788 0.455 7.71 2 8.28
10/27/2022 1:15:00 AM 12.61 54.698 0.455 7.71 2.01 8.29
10/27/2022 1:30:00 AM 12.56 54.608 0.455 7.71 2.07 8.27
10/27/2022 1:45:00 AM 12.53 54.554 0.455 7.7 2.09 8.27
10/27/2022 2:00:00 AM 12.5 54.5 0.455 7.7 2.06 8.28
10/27/2022 2:15:00 AM 12.47 54.446 0.455 7.7 2.07 8.3
10/27/2022 2:30:00 AM 12.43 54.374 0.455 7.7 1.99 8.31
10/27/2022 2:45:00 AM 12.41 54.338 0.456 7.7 2.05 8.29
10/27/2022 3:00:00 AM 12.37 54.266 0.456 7.7 2.1 8.29
10/27/2022 3:15:00 AM 12.33 54.194 0.456 7.69 2.04 8.28
10/27/2022 3:30:00 AM 12.3 54.14 0.456 7.69 2.01 8.3
10/27/2022 3:45:00 AM 12.27 54.086 0.457 7.69 2.03 8.33
10/27/2022 4:00:00 AM 12.23 54.014 0.457 7.7 2.06 8.34
10/27/2022 4:15:00 AM 12.21 53.978 0.457 7.69 1.95 8.34
10/27/2022 4:30:00 AM 12.18 53.924 0.458 7.69 1.97 8.37
10/27/2022 4:45:00 AM 12.14 53.852 0.458 7.69 2.11 8.34
10/27/2022 5:00:00 AM 12.09 53.762 0.459 7.69 2.13 8.37
10/27/2022 5:15:00 AM 12.06 53.708 0.459 7.69 2.09 8.38
10/27/2022 5:30:00 AM 12.03 53.654 0.46 7.69 2.01 8.35
10/27/2022 5:45:00 AM 11.99 53.582 0.46 7.68 2.08 8.37
10/27/2022 6:00:00 AM 11.95 53.51 0.461 7.68 2.06 8.37
10/27/2022 6:15:00 AM 11.91 53.438 0.461 7.69 2.02 8.39
10/27/2022 6:30:00 AM 11.86 53.348 0.462 7.69 2.13 8.4
10/27/2022 6:45:00 AM 11.82 53.276 0.462 7.69 2.03 8.42
10/27/2022 7:00:00 AM 11.78 53.204 0.463 7.68 2.12 8.45
10/27/2022 7:15:00 AM 11.74 53.132 0.463 7.68 2.11 8.44
10/27/2022 7:30:00 AM 11.7 53.06 0.464 7.69 2.15 8.48
10/27/2022 7:45:00 AM 11.66 52.988 0.464 7.68 2.07 8.5
10/27/2022 8:00:00 AM 11.62 52.916 0.465 7.68 2.07 8.5
10/27/2022 8:15:00 AM 11.6 52.88 0.465 7.69 1.97 8.56
10/27/2022 8:30:00 AM 11.58 52.844 0.465 7.7 1.99 8.64
10/27/2022 8:45:00 AM 11.56 52.808 0.465 7.71 1.97 8.78
10/27/2022 9:00:00 AM 11.56 52.808 0.465 7.73 1.98 8.95
10/27/2022 9:15:00 AM 11.55 52.79 0.465 7.76 1.98 9.14
10/27/2022 9:30:00 AM 11.56 52.808 0.465 7.79 1.97 9.38
10/27/2022 9:45:00 AM 11.61 52.898 0.465 7.84 1.97 9.68
10/27/2022 10:00:00 AM 11.62 52.916 0.465 7.88 2 9.97
10/27/2022 10:15:00 AM 11.64 52.952 0.464 7.92 1.91 10.21
10/27/2022 10:30:00 AM 11.72 53.096 0.464 7.98 1.92 10.54
10/27/2022 10:45:00 AM 11.86 53.348 0.464 8.04 1.94 10.85
10/27/2022 11:00:00 AM 12.06 53.708 0.463 8.1 1.96 11.13
10/27/2022 11:15:00 AM 12.27 54.086 0.463 8.16 1.91 11.37
10/27/2022 11:30:00 AM 12.44 54.392 0.462 8.22 1.89 11.59
10/27/2022 11:45:00 AM 12.62 54.716 0.462 8.27 1.9 11.8
10/27/2022 12:00:00 PM 12.76 54.968 0.461 8.32 1.84 12.01
10/27/2022 12:15:00 PM 12.88 55.184 0.461 8.36 1.97 12.21
10/27/2022 12:30:00 PM 12.98 55.364 0.46 8.4 1.88 12.33
10/27/2022 12:45:00 PM 13.08 55.544 0.46 8.43 1.84 12.43
10/27/2022 1:00:00 PM 13.17 55.706 0.46 8.45 1.86 12.47
10/27/2022 1:15:00 PM 13.2 55.76 0.46 8.47 1.86 12.52
10/27/2022 1:30:00 PM 13.25 55.85 0.459 8.49 1.91 12.59
10/27/2022 1:45:00 PM 13.3 55.94 0.459 8.51 1.86 12.61
10/27/2022 2:00:00 PM 13.31 55.958 0.459 8.52 1.9 12.54
10/27/2022 2:15:00 PM 13.31 55.958 0.459 8.52 1.92 12.52
10/27/2022 2:30:00 PM 13.35 56.03 0.459 8.53 1.86 12.5
10/27/2022 2:45:00 PM 13.39 56.102 0.459 8.53 2.01 12.48
10/27/2022 3:00:00 PM 13.39 56.102 0.46 8.52 1.9 12.34
10/27/2022 3:15:00 PM 13.37 56.066 0.46 8.52 1.86 12.24
10/27/2022 3:30:00 PM 13.37 56.066 0.46 8.51 1.91 12.11
10/27/2022 3:45:00 PM 13.38 56.084 0.461 8.5 1.95 12.04
10/27/2022 4:00:00 PM 13.37 56.066 0.461 8.49 1.89 11.92
10/27/2022 4:15:00 PM 13.34 56.012 0.461 8.48 1.9 11.8
10/27/2022 4:30:00 PM 13.32 55.976 0.462 8.46 1.92 11.68
10/27/2022 4:45:00 PM 13.29 55.922 0.462 8.44 1.96 11.52
10/27/2022 5:00:00 PM 13.25 55.85 0.462 8.41 1.98 11.36
10/27/2022 5:15:00 PM 13.19 55.742 0.463 8.38 1.93 11.21
10/27/2022 5:30:00 PM 13.12 55.616 0.463 8.35 1.88 11
10/27/2022 5:45:00 PM 13.04 55.472 0.464 8.31 1.94 10.84
10/27/2022 6:00:00 PM 12.94 55.292 0.465 8.26 1.99 10.63
10/27/2022 6:15:00 PM 12.84 55.112 0.465 8.2 1.94 10.36
10/27/2022 6:30:00 PM 12.74 54.932 0.466 8.14 2.02 10.14
10/27/2022 6:45:00 PM 12.64 54.752 0.467 8.08 2.11 9.91
10/27/2022 7:00:00 PM 12.54 54.572 0.467 8.03 1.99 9.72
10/27/2022 7:15:00 PM 12.45 54.41 0.467 7.99 2.05 9.55
10/27/2022 7:30:00 PM 12.36 54.248 0.468 7.95 2.06 9.43
10/27/2022 7:45:00 PM 12.28 54.104 0.468 7.92 2.12 9.29
10/27/2022 8:00:00 PM 12.21 53.978 0.468 7.9 2 9.24
10/27/2022 8:15:00 PM 12.13 53.834 0.468 7.88 2.54 9.17
10/27/2022 8:30:00 PM 12.06 53.708 0.468 7.86 2.12 9.11
10/27/2022 8:45:00 PM 11.97 53.546 0.468 7.85 2.05 9.04
10/27/2022 9:00:00 PM 11.9 53.42 0.468 7.84 2.06 9.02
10/27/2022 9:15:00 PM 11.82 53.276 0.468 7.83 2.15 9
10/27/2022 9:30:00 PM 11.74 53.132 0.467 7.82 2.12 9.01
10/27/2022 9:45:00 PM 11.67 53.006 0.467 7.81 2.08 8.97
10/27/2022 10:00:00 PM 11.6 52.88 0.467 7.81 2.05 8.95
10/27/2022 10:15:00 PM 11.51 52.718 0.466 7.8 2.42 8.91
10/27/2022 10:30:00 PM 11.44 52.592 0.466 7.8 2.18 8.93
10/27/2022 10:45:00 PM 11.37 52.466 0.466 7.79 2.69 8.94
10/27/2022 11:00:00 PM 11.29 52.322 0.465 7.79 2.11 8.93
10/27/2022 11:15:00 PM 11.21 52.178 0.465 7.78 3.89 8.93
10/27/2022 11:30:00 PM 11.14 52.052 0.465 7.78 3.65 8.88
10/27/2022 11:45:00 PM 11.05 51.89 0.464 7.78 2.98 8.92
10/28/2022 12:00:00 AM 10.97 51.746 0.464 7.78 2.43 8.97
10/28/2022 12:15:00 AM 10.88 51.584 0.464 7.77 2.16 8.96
10/28/2022 12:30:00 AM 10.8 51.44 0.463 7.77 2.85 8.98
10/28/2022 12:45:00 AM 10.7 51.26 0.463 7.76 2.27 8.98
10/28/2022 1:00:00 AM 10.61 51.098 0.463 7.76 2.14 9
10/28/2022 1:15:00 AM 10.53 50.954 0.463 7.76 2.31 9.04
10/28/2022 1:30:00 AM 10.44 50.792 0.462 7.75 2.32 9.03
10/28/2022 1:45:00 AM 10.34 50.612 0.462 7.75 2.4 9.04
10/28/2022 2:00:00 AM 10.25 50.45 0.462 7.74 2.29 9.06
10/28/2022 2:15:00 AM 10.16 50.288 0.462 7.74 2.81 9.07
10/28/2022 2:30:00 AM 10.06 50.108 0.462 7.74 2.32 9.08
10/28/2022 2:45:00 AM 9.97 49.946 0.462 7.73 2.1 9.11
10/28/2022 3:00:00 AM 9.88 49.784 0.462 7.73 2.53 9.12
10/28/2022 3:15:00 AM 9.79 49.622 0.462 7.73 2.12 9.13
10/28/2022 3:30:00 AM 9.7 49.46 0.462 7.73 2.23 9.18
10/28/2022 3:45:00 AM 9.61 49.298 0.462 7.72 2.08 9.21
10/28/2022 4:00:00 AM 9.52 49.136 0.463 7.73 2.1 9.25
10/28/2022 4:15:00 AM 9.44 48.992 0.463 7.72 2.14 9.27
10/28/2022 4:30:00 AM 9.36 48.848 0.463 7.72 2.18 9.27
10/28/2022 4:45:00 AM 9.27 48.686 0.464 7.72 2.14 9.29
10/28/2022 5:00:00 AM 9.2 48.56 0.465 7.72 2.17 9.35
10/28/2022 5:15:00 AM 9.12 48.416 0.465 7.72 2.06 9.36
10/28/2022 5:30:00 AM 9.05 48.29 0.465 7.72 2.11 9.37
10/28/2022 5:45:00 AM 8.97 48.146 0.466 7.72 2.11 9.43
10/28/2022 6:00:00 AM 8.91 48.038 0.467 7.72 2.19 9.42
10/28/2022 6:15:00 AM 8.83 47.894 0.467 7.71 2.12 9.47
10/28/2022 6:30:00 AM 8.76 47.768 0.467 7.72 2.86 9.49
10/28/2022 6:45:00 AM 8.69 47.642 0.468 7.72 2.09 9.47
10/28/2022 7:00:00 AM 8.62 47.516 0.468 7.72 2.32 9.51
10/28/2022 7:15:00 AM 8.56 47.408 0.469 7.72 2.37 9.55
10/28/2022 7:30:00 AM 8.5 47.3 0.469 7.73 2.36 9.63
10/28/2022 7:45:00 AM 8.44 47.192 0.469 7.72 2.07 9.65
10/28/2022 8:00:00 AM 8.39 47.102 0.47 7.73 2.05 9.71
10/28/2022 8:15:00 AM 8.35 47.03 0.47 7.73 1.98 9.79
10/28/2022 8:30:00 AM 8.32 46.976 0.47 7.75 2.06 9.92
10/28/2022 8:45:00 AM 8.3 46.94 0.47 7.77 2.05 10.09
10/28/2022 9:00:00 AM 8.29 46.922 0.469 7.8 2.23 10.32
10/28/2022 9:15:00 AM 8.29 46.922 0.469 7.83 1.98 10.51
10/28/2022 9:30:00 AM 8.32 46.976 0.469 7.88 2.01 10.78
10/28/2022 9:45:00 AM 8.37 47.066 0.469 7.92 1.97 11.04
10/28/2022 10:00:00 AM 8.43 47.174 0.468 7.97 1.97 11.36
10/28/2022 10:15:00 AM 8.51 47.318 0.468 8.02 2.02 11.64
10/28/2022 10:30:00 AM 8.61 47.498 0.467 8.08 2.47 11.89
10/28/2022 10:45:00 AM 8.67 47.606 0.467 8.13 1.98 12.15
10/28/2022 11:00:00 AM 8.75 47.75 0.466 8.18 2 12.38
10/28/2022 11:15:00 AM 8.84 47.912 0.465 8.24 1.95 12.61
10/28/2022 11:30:00 AM 8.93 48.074 0.464 8.29 1.94 12.83
10/28/2022 11:45:00 AM 9.06 48.308 0.464 8.34 1.93 13.03
10/28/2022 12:00:00 PM 9.19 48.542 0.463 8.39 1.95 13.23
10/28/2022 12:15:00 PM 9.3 48.74 0.462 8.43 2.19 13.4
10/28/2022 12:30:00 PM 9.42 48.956 0.461 8.48 1.92 13.54
10/28/2022 12:45:00 PM 9.58 49.244 0.46 8.52 1.91 13.72
10/28/2022 1:00:00 PM 9.74 49.532 0.46 8.56 1.96 13.83
10/28/2022 1:15:00 PM 9.95 49.91 0.459 8.6 1.92 13.99
10/28/2022 1:30:00 PM 10.12 50.216 0.458 8.63 1.94 14.07
10/28/2022 1:45:00 PM 10.22 50.396 0.458 8.64 1.97 14.1
10/28/2022 2:00:00 PM 10.29 50.522 0.457 8.66 1.95 14.09
10/28/2022 2:15:00 PM 10.32 50.576 0.457 8.67 1.94 14.03
10/28/2022 2:30:00 PM 10.4 50.72 0.456 8.68 1.9 14.04
10/28/2022 2:45:00 PM 10.48 50.864 0.456 8.7 1.93 14.06
10/28/2022 3:00:00 PM 10.52 50.936 0.456 8.7 1.92 14.01
10/28/2022 3:15:00 PM 10.52 50.936 0.456 8.69 1.89 13.91
10/28/2022 3:30:00 PM 10.56 51.008 0.455 8.69 1.94 13.8
10/28/2022 3:45:00 PM 10.59 51.062 0.455 8.68 1.93 13.7
10/28/2022 4:00:00 PM 10.63 51.134 0.455 8.68 2.49 13.61
10/28/2022 4:15:00 PM 10.64 51.152 0.455 8.68 1.97 13.55
10/28/2022 4:30:00 PM 10.64 51.152 0.455 8.66 2.25 13.34
10/28/2022 4:45:00 PM 10.63 51.134 0.455 8.65 2.14 13.31
10/28/2022 5:00:00 PM 10.62 51.116 0.455 8.63 2.12 13.14
10/28/2022 5:15:00 PM 10.6 51.08 0.455 8.61 2.01 13
10/28/2022 5:30:00 PM 10.56 51.008 0.455 8.58 1.98 12.82
10/28/2022 5:45:00 PM 10.52 50.936 0.455 8.55 1.98 12.64
10/28/2022 6:00:00 PM 10.46 50.828 0.456 8.51 2.01 12.41
10/28/2022 6:15:00 PM 10.4 50.72 0.456 8.46 2 12.13
10/28/2022 6:30:00 PM 10.32 50.576 0.456 8.4 1.93 11.84
10/28/2022 6:45:00 PM 10.25 50.45 0.457 8.34 2.17 11.54
10/28/2022 7:00:00 PM 10.16 50.288 0.457 8.27 2.02 11.22
10/28/2022 7:15:00 PM 10.08 50.144 0.457 8.22 2.04 10.97
10/28/2022 7:30:00 PM 10 50 0.457 8.17 1.95 10.78
10/28/2022 7:45:00 PM 9.93 49.874 0.457 8.13 2.08 10.66
10/28/2022 8:00:00 PM 9.87 49.766 0.457 8.09 2.04 10.5
10/28/2022 8:15:00 PM 9.81 49.658 0.457 8.06 2.53 10.45
10/28/2022 8:30:00 PM 9.75 49.55 0.457 8.04 2.07 10.38
10/28/2022 8:45:00 PM 9.69 49.442 0.456 8.02 2.25 10.21
10/28/2022 9:00:00 PM 9.64 49.352 0.456 8 2.37 10.14
10/28/2022 9:15:00 PM 9.59 49.262 0.456 7.98 2.26 10.12
10/28/2022 9:30:00 PM 9.53 49.154 0.455 7.97 2.11 9.99
10/28/2022 9:45:00 PM 9.48 49.064 0.455 7.96 2.34 10.05
10/28/2022 10:00:00 PM 9.43 48.974 0.454 7.94 2.06 9.94
10/28/2022 10:15:00 PM 9.38 48.884 0.454 7.94 2.23 9.94
10/28/2022 10:30:00 PM 9.31 48.758 0.453 7.93 2.75 9.96
10/28/2022 10:45:00 PM 9.26 48.668 0.453 7.92 2.31 9.92
10/28/2022 11:00:00 PM 9.21 48.578 0.452 7.91 3.15 9.93
10/28/2022 11:15:00 PM 9.15 48.47 0.451 7.91 2.2 9.99
10/28/2022 11:30:00 PM 9.1 48.38 0.451 7.9 2.76 9.98
10/28/2022 11:45:00 PM 9.03 48.254 0.45 7.89 2.87 9.95
10/29/2022 12:00:00 AM 8.98 48.164 0.45 7.89 3.01 9.97
10/29/2022 12:15:00 AM 8.92 48.056 0.449 7.88 2.24 9.95
10/29/2022 12:30:00 AM 8.85 47.93 0.449 7.87 2.16 9.92
10/29/2022 12:45:00 AM 8.8 47.84 0.449 7.87 2.16 9.94
10/29/2022 1:00:00 AM 8.74 47.732 0.448 7.86 2.45 9.93
10/29/2022 1:15:00 AM 8.68 47.624 0.448 7.85 2.16 9.88
10/29/2022 1:30:00 AM 8.62 47.516 0.448 7.85 2.23 9.88
10/29/2022 1:45:00 AM 8.55 47.39 0.447 7.84 2.18 9.83
10/29/2022 2:00:00 AM 8.48 47.264 0.447 7.84 2.13 9.89
10/29/2022 2:15:00 AM 8.43 47.174 0.445 7.83 2.17 9.86
10/29/2022 2:30:00 AM 8.36 47.048 0.444 7.82 2.14 9.92
10/29/2022 2:45:00 AM 8.3 46.94 0.444 7.82 2.35 9.91
10/29/2022 3:00:00 AM 8.23 46.814 0.444 7.81 2.19 9.96
10/29/2022 3:15:00 AM 8.16 46.688 0.443 7.81 2.08 9.94
10/29/2022 3:30:00 AM 8.1 46.58 0.443 7.8 2.1 9.95
10/29/2022 3:45:00 AM 8.03 46.454 0.443 7.8 2.15 9.95
10/29/2022 4:00:00 AM 7.96 46.328 0.442 7.78 2.16 9.98
10/29/2022 4:15:00 AM 7.89 46.202 0.442 7.78 2.17 9.98
10/29/2022 4:30:00 AM 7.83 46.094 0.442 7.78 2.41 9.99
10/29/2022 4:45:00 AM 7.76 45.968 0.442 7.77 2.18 10
10/29/2022 5:00:00 AM 7.69 45.842 0.442 7.77 2.16 10.01
10/29/2022 5:15:00 AM 7.62 45.716 0.442 7.76 2.19 10.04
10/29/2022 5:30:00 AM 7.56 45.608 0.442 7.76 2.38 9.98
10/29/2022 5:45:00 AM 7.49 45.482 0.443 7.76 2.13 10.03
10/29/2022 6:00:00 AM 7.41 45.338 0.443 7.75 2.15 10.07
10/29/2022 6:15:00 AM 7.35 45.23 0.444 7.76 2.18 10.1
10/29/2022 6:30:00 AM 7.28 45.104 0.444 7.75 2.19 10.12
10/29/2022 6:45:00 AM 7.22 44.996 0.445 7.75 2.12 10.15
10/29/2022 7:00:00 AM 7.15 44.87 0.445 7.75 2.18 10.17
10/29/2022 7:15:00 AM 7.09 44.762 0.446 7.74 2.24 10.21
10/29/2022 7:30:00 AM 7.02 44.636 0.447 7.74 2.2 10.27
10/29/2022 7:45:00 AM 6.95 44.51 0.447 7.74 2.11 10.26
10/29/2022 8:00:00 AM 6.89 44.402 0.448 7.76 2.11 10.34
10/29/2022 8:15:00 AM 6.82 44.276 0.448 7.76 2.08 10.38
10/29/2022 8:30:00 AM 6.77 44.186 0.449 7.76 2.13 10.5
10/29/2022 8:45:00 AM 6.73 44.114 0.449 7.78 2.24 10.66
10/29/2022 9:00:00 AM 6.7 44.06 0.45 7.8 2.27 10.81
10/29/2022 9:15:00 AM 6.69 44.042 0.45 7.83 2.08 10.94
10/29/2022 9:30:00 AM 6.72 44.096 0.451 7.86 2.04 11.15
10/29/2022 9:45:00 AM 6.77 44.186 0.451 7.9 2.27 11.42
10/29/2022 10:00:00 AM 6.84 44.312 0.451 7.95 3.44 11.75
10/29/2022 10:15:00 AM 6.94 44.492 0.451 8 2.02 12.02
10/29/2022 10:30:00 AM 7.09 44.762 0.451 8.06 2.1 12.18
10/29/2022 10:45:00 AM 7.28 45.104 0.451 8.13 2.04 12.52
10/29/2022 11:00:00 AM 7.54 45.572 0.451 8.19 2 12.73
10/29/2022 11:15:00 AM 7.8 46.04 0.451 8.25 2.01 12.99
10/29/2022 11:30:00 AM 8.04 46.472 0.453 8.29 2.01 13.2
10/29/2022 11:45:00 AM 8.23 46.814 0.452 8.35 1.99 13.39
10/29/2022 12:00:00 PM 8.43 47.174 0.452 8.39 1.95 13.52
10/29/2022 12:15:00 PM 8.63 47.534 0.452 8.43 2.01 13.7
10/29/2022 12:30:00 PM 8.82 47.876 0.452 8.46 1.94 13.75
10/29/2022 12:45:00 PM 8.96 48.128 0.452 8.49 1.92 13.84
10/29/2022 1:00:00 PM 9.11 48.398 0.451 8.52 1.93 13.91
10/29/2022 1:15:00 PM 9.21 48.578 0.451 8.54 1.98 13.95
10/29/2022 1:30:00 PM 9.35 48.83 0.451 8.56 2.03 14.02
10/29/2022 1:45:00 PM 9.43 48.974 0.451 8.57 1.93 13.96
10/29/2022 2:00:00 PM 9.51 49.118 0.451 8.59 1.91 13.98
10/29/2022 2:15:00 PM 9.58 49.244 0.451 8.6 1.95 13.97
10/29/2022 2:30:00 PM 9.67 49.406 0.451 8.61 1.89 13.92
10/29/2022 2:45:00 PM 9.76 49.568 0.452 8.62 2.01 13.89
10/29/2022 3:00:00 PM 9.81 49.658 0.452 8.62 1.94 13.86
10/29/2022 3:15:00 PM 9.85 49.73 0.452 8.61 1.91 13.77
10/29/2022 3:30:00 PM 9.87 49.766 0.453 8.61 1.89 13.67
10/29/2022 3:45:00 PM 9.91 49.838 0.453 8.61 2 13.51
10/29/2022 4:00:00 PM 9.93 49.874 0.453 8.6 2.01 13.42
10/29/2022 4:15:00 PM 9.94 49.892 0.454 8.59 2.02 13.32
10/29/2022 4:30:00 PM 9.94 49.892 0.454 8.58 1.97 13.19
10/29/2022 4:45:00 PM 9.94 49.892 0.455 8.56 6.14 12.99
10/29/2022 5:00:00 PM 9.91 49.838 0.455 8.54 2.15 12.81
10/29/2022 5:15:00 PM 9.87 49.766 0.456 8.51 1.98 12.69
10/29/2022 5:30:00 PM 9.82 49.676 0.457 8.48 2.23 12.5
10/29/2022 5:45:00 PM 9.75 49.55 0.457 8.44 2.36 12.34
10/29/2022 6:00:00 PM 9.67 49.406 0.458 8.39 2.03 12.01
10/29/2022 6:15:00 PM 9.57 49.226 0.459 8.34 2.03 11.89
10/29/2022 6:30:00 PM 9.48 49.064 0.46 8.28 2 11.6
10/29/2022 6:45:00 PM 9.39 48.902 0.46 8.23 2.14 11.4
10/29/2022 7:00:00 PM 9.3 48.74 0.461 8.17 2.05 11.17
10/29/2022 7:15:00 PM 9.23 48.614 0.462 8.12 2.12 10.97
10/29/2022 7:30:00 PM 9.16 48.488 0.462 8.08 2.06 10.8
10/29/2022 7:45:00 PM 9.08 48.344 0.463 8.04 2.1 10.68
10/29/2022 8:00:00 PM 9.03 48.254 0.463 8.01 3 10.58
10/29/2022 8:15:00 PM 8.96 48.128 0.463 7.98 2.03 10.5
10/29/2022 8:30:00 PM 8.9 48.02 0.463 7.96 2.15 10.42
10/29/2022 8:45:00 PM 8.84 47.912 0.463 7.94 2.16 10.36
10/29/2022 9:00:00 PM 8.78 47.804 0.463 7.93 2.2 10.31
10/29/2022 9:15:00 PM 8.72 47.696 0.464 7.91 2.03 10.26
10/29/2022 9:30:00 PM 8.66 47.588 0.464 7.9 2.11 10.27
10/29/2022 9:45:00 PM 8.6 47.48 0.464 7.89 2.29 10.18
10/29/2022 10:00:00 PM 8.55 47.39 0.464 7.88 2.3 10.2
10/29/2022 10:15:00 PM 8.49 47.282 0.463 7.87 2.33 10.13
10/29/2022 10:30:00 PM 8.43 47.174 0.463 7.87 2.21 9.99
10/29/2022 10:45:00 PM 8.38 47.084 0.463 7.86 2.17 10.03
10/29/2022 11:00:00 PM 8.33 46.994 0.463 7.86 2.23 10.1
10/29/2022 11:15:00 PM 8.28 46.904 0.463 7.86 2.19 10.17
10/29/2022 11:30:00 PM 8.23 46.814 0.462 7.85 2.27 10.15
10/29/2022 11:45:00 PM 8.17 46.706 0.462 7.84 2.19 10.16
10/30/2022 12:00:00 AM 8.11 46.598 0.462 7.84 2.15 10.17
10/30/2022 12:15:00 AM 8.06 46.508 0.461 7.83 2.83 10.15
10/30/2022 12:30:00 AM 8 46.4 0.461 7.83 2.18 10.17
10/30/2022 12:45:00 AM 7.93 46.274 0.461 7.82 2.19 10.15
10/30/2022 1:00:00 AM 7.87 46.166 0.461 7.82 2.21 10.15
10/30/2022 1:15:00 AM 7.81 46.058 0.461 7.82 2.16 10.16
10/30/2022 1:30:00 AM 7.74 45.932 0.461 7.81 2.34 10.15
10/30/2022 1:45:00 AM 7.68 45.824 0.46 7.8 2.27 10.15
10/30/2022 2:00:00 AM 7.61 45.698 0.46 7.8 2.17 10.14
10/30/2022 2:15:00 AM 7.54 45.572 0.46 7.79 2.15 10.1
10/30/2022 2:30:00 AM 7.47 45.446 0.46 7.79 2.23 10.14
10/30/2022 2:45:00 AM 7.41 45.338 0.459 7.79 2.17 10.1
10/30/2022 3:00:00 AM 7.35 45.23 0.458 7.79 2.59 10.18
10/30/2022 3:15:00 AM 7.28 45.104 0.458 7.78 2.18 10.17
10/30/2022 3:30:00 AM 7.21 44.978 0.458 7.78 2.18 10.21
10/30/2022 3:45:00 AM 7.15 44.87 0.458 7.77 2.22 10.19
10/30/2022 4:00:00 AM 7.08 44.744 0.458 7.77 2.32 10.19
10/30/2022 4:15:00 AM 7.01 44.618 0.458 7.77 2.21 10.21
10/30/2022 4:30:00 AM 6.95 44.51 0.458 7.76 2.41 10.21
10/30/2022 4:45:00 AM 6.87 44.366 0.458 7.77 2.27 10.24
10/30/2022 5:00:00 AM 6.81 44.258 0.459 7.76 2.2 10.27
10/30/2022 5:15:00 AM 6.75 44.15 0.459 7.76 2.86 10.23
10/30/2022 5:30:00 AM 6.67 44.006 0.459 7.75 2.34 10.28
10/30/2022 5:45:00 AM 6.6 43.88 0.459 7.76 2.23 10.3
10/30/2022 6:00:00 AM 6.53 43.754 0.459 7.76 2.28 10.33
10/30/2022 6:15:00 AM 6.47 43.646 0.46 7.75 2.25 10.34
10/30/2022 6:30:00 AM 6.39 43.502 0.46 7.75 2.23 10.31
10/30/2022 6:45:00 AM 6.32 43.376 0.461 7.76 2.45 10.35
10/30/2022 7:00:00 AM 6.25 43.25 0.461 7.76 2.16 10.38
10/30/2022 7:15:00 AM 6.19 43.142 0.462 7.75 2.19 10.42
10/30/2022 7:30:00 AM 6.11 42.998 0.462 7.75 2.28 10.51
10/30/2022 7:45:00 AM 6.05 42.89 0.463 7.75 2.51 10.54
10/30/2022 8:00:00 AM 5.98 42.764 0.464 7.75 2.18 10.56
10/30/2022 8:15:00 AM 5.92 42.656 0.464 7.76 2.23 10.62
10/30/2022 8:30:00 AM 5.88 42.584 0.465 7.78 2.86 10.75
10/30/2022 8:45:00 AM 5.83 42.494 0.466 7.79 2.22 10.84
10/30/2022 9:00:00 AM 5.79 42.422 0.467 7.8 2.14 11.03
10/30/2022 9:15:00 AM 5.78 42.404 0.467 7.82 2.19 11.14
10/30/2022 9:30:00 AM 5.8 42.44 0.468 7.86 2.18 11.43
10/30/2022 9:45:00 AM 5.86 42.548 0.469 7.9 2.12 11.6
10/30/2022 10:00:00 AM 5.94 42.692 0.47 7.95 2.19 11.92
10/30/2022 10:15:00 AM 6.04 42.872 0.47 8 2.12 12.15
10/30/2022 10:30:00 AM 6.17 43.106 0.47 8.06 2.08 12.42
10/30/2022 10:45:00 AM 6.38 43.484 0.471 8.13 2.16 12.77
10/30/2022 11:00:00 AM 6.63 43.934 0.473 8.19 2.03 13.01
10/30/2022 11:15:00 AM 6.88 44.384 0.472 8.26 2.25 13.27
10/30/2022 11:30:00 AM 7.07 44.726 0.472 8.31 2.09 13.46
10/30/2022 11:45:00 AM 7.28 45.104 0.472 8.35 2 13.69
10/30/2022 12:00:00 PM 7.47 45.446 0.472 8.41 2.01 13.86
10/30/2022 12:15:00 PM 7.67 45.806 0.471 8.45 2.05 14.01
10/30/2022 12:30:00 PM 7.82 46.076 0.47 8.5 2.01 14.2
10/30/2022 12:45:00 PM 7.96 46.328 0.47 8.53 2.06 14.28
10/30/2022 1:00:00 PM 8.09 46.562 0.469 8.56 2.08 14.34
10/30/2022 1:15:00 PM 8.15 46.67 0.469 8.57 2.07 14.38
10/30/2022 1:30:00 PM 8.25 46.85 0.468 8.61 2.05 14.51
10/30/2022 1:45:00 PM 8.42 47.156 0.467 8.64 2.03 14.56
10/30/2022 2:00:00 PM 8.5 47.3 0.467 8.66 2.06 14.59
10/30/2022 2:15:00 PM 8.56 47.408 0.466 8.67 1.99 14.57
10/30/2022 2:30:00 PM 8.75 47.75 0.465 8.7 2.06 14.69
10/30/2022 2:45:00 PM 8.87 47.966 0.464 8.72 2.06 14.72
10/30/2022 3:00:00 PM 8.91 48.038 0.464 8.72 2 14.64
10/30/2022 3:15:00 PM 8.96 48.128 0.463 8.73 2.01 14.56
10/30/2022 3:30:00 PM 8.99 48.182 0.463 8.72 2.02 14.45
10/30/2022 3:45:00 PM 9.03 48.254 0.462 8.73 2.01 14.39
10/30/2022 4:00:00 PM 9.07 48.326 0.462 8.73 2.52 14.3
10/30/2022 4:15:00 PM 9.1 48.38 0.461 8.73 3.84 14.26
10/30/2022 4:30:00 PM 9.08 48.344 0.462 8.71 2.26 14.14
10/30/2022 4:45:00 PM 9.08 48.344 0.461 8.7 2.02 13.99
10/30/2022 5:00:00 PM 9.06 48.308 0.461 8.68 2.08 13.8
10/30/2022 5:15:00 PM 9.03 48.254 0.462 8.65 2.03 13.58
10/30/2022 5:30:00 PM 8.99 48.182 0.462 8.61 2.1 13.32
10/30/2022 5:45:00 PM 8.94 48.092 0.462 8.57 2.05 13.07
10/30/2022 6:00:00 PM 8.89 48.002 0.462 8.52 2.2 12.78
10/30/2022 6:15:00 PM 8.84 47.912 0.463 8.46 2.03 12.47
10/30/2022 6:30:00 PM 8.8 47.84 0.463 8.4 2.08 12.17
10/30/2022 6:45:00 PM 8.76 47.768 0.464 8.34 2.05 11.88
10/30/2022 7:00:00 PM 8.72 47.696 0.464 8.29 2.13 11.63
10/30/2022 7:15:00 PM 8.69 47.642 0.464 8.24 2.02 11.44
10/30/2022 7:30:00 PM 8.67 47.606 0.464 8.19 2.13 11.26
10/30/2022 7:45:00 PM 8.66 47.588 0.464 8.15 2.05 11.1
10/30/2022 8:00:00 PM 8.65 47.57 0.464 8.12 2.07 10.96
10/30/2022 8:15:00 PM 8.62 47.516 0.465 8.09 2.09 10.83
10/30/2022 8:30:00 PM 8.59 47.462 0.465 8.06 2.16 10.72
10/30/2022 8:45:00 PM 8.54 47.372 0.464 8.03 2.1 10.62
10/30/2022 9:00:00 PM 8.5 47.3 0.464 8.01 2.16 10.54
10/30/2022 9:15:00 PM 8.45 47.21 0.464 7.99 2.08 10.49
10/30/2022 9:30:00 PM 8.39 47.102 0.464 7.97 2.09 10.46
10/30/2022 9:45:00 PM 8.35 47.03 0.464 7.96 2.09 10.4
10/30/2022 10:00:00 PM 8.3 46.94 0.464 7.94 2.43 10.33
10/30/2022 10:15:00 PM 8.26 46.868 0.464 7.93 2.09 10.28
10/30/2022 10:30:00 PM 8.22 46.796 0.463 7.92 2.16 10.3
10/30/2022 10:45:00 PM 8.19 46.742 0.463 7.92 2.14 10.26
10/30/2022 11:00:00 PM 8.15 46.67 0.463 7.91 2.24 10.29
10/30/2022 11:15:00 PM 8.12 46.616 0.462 7.9 3.27 10.3
10/30/2022 11:30:00 PM 8.08 46.544 0.462 7.9 2.64 10.3
10/30/2022 11:45:00 PM 8.04 46.472 0.461 7.89 2.6 10.28
10/31/2022 12:00:00 AM 8 46.4 0.461 7.89 2.73 10.26
10/31/2022 12:15:00 AM 7.97 46.346 0.46 7.88 2.4 10.25
10/31/2022 12:30:00 AM 7.93 46.274 0.46 7.87 2.83 10.19
10/31/2022 12:45:00 AM 7.9 46.22 0.459 7.87 2.4 10.22
10/31/2022 1:00:00 AM 7.85 46.13 0.459 7.86 2.38 10.22
10/31/2022 1:15:00 AM 7.82 46.076 0.459 7.85 2.29 10.22
10/31/2022 1:30:00 AM 7.78 46.004 0.458 7.85 2.48 10.17
10/31/2022 1:45:00 AM 7.74 45.932 0.458 7.84 2.3 10.21
10/31/2022 2:00:00 AM 7.7 45.86 0.458 7.84 2.36 10.11
10/31/2022 2:15:00 AM 7.68 45.824 0.458 7.83 2.32 10.14
10/31/2022 2:30:00 AM 7.66 45.788 0.458 7.82 2.28 10.11
10/31/2022 2:45:00 AM 7.63 45.734 0.456 7.82 2.38 10.02
10/31/2022 3:00:00 AM 7.6 45.68 0.456 7.81 2.29 10.12
10/31/2022 3:15:00 AM 7.56 45.608 0.455 7.81 2.32 10.05
10/31/2022 3:30:00 AM 7.52 45.536 0.455 7.8 2.28 10.12
10/31/2022 3:45:00 AM 7.48 45.464 0.455 7.8 2.37 10.08
10/31/2022 4:00:00 AM 7.44 45.392 0.455 7.79 2.38 10.1
10/31/2022 4:15:00 AM 7.4 45.32 0.455 7.78 2.31 10.13
10/31/2022 4:30:00 AM 7.36 45.248 0.455 7.78 2.75 10.1
10/31/2022 4:45:00 AM 7.34 45.212 0.456 7.77 2.46 10.09
10/31/2022 5:00:00 AM 7.33 45.194 0.456 7.77 2.33 10.11
10/31/2022 5:15:00 AM 7.33 45.194 0.456 7.77 2.27 10.12
10/31/2022 5:30:00 AM 7.32 45.176 0.456 7.77 2.26 10.12
10/31/2022 5:45:00 AM 7.29 45.122 0.457 7.76 2.28 10.09
10/31/2022 6:00:00 AM 7.26 45.068 0.457 7.76 2.3 10.13
10/31/2022 6:15:00 AM 7.23 45.014 0.457 7.76 2.3 10.12
10/31/2022 6:30:00 AM 7.21 44.978 0.457 7.75 2.33 10.11
10/31/2022 6:45:00 AM 7.19 44.942 0.458 7.75 2.62 10.14
10/31/2022 7:00:00 AM 7.18 44.924 0.458 7.75 2.4 10.15
10/31/2022 7:15:00 AM 7.18 44.924 0.459 7.75 2.33 10.05
10/31/2022 7:30:00 AM 7.17 44.906 0.459 7.75 2.59 10.15
10/31/2022 7:45:00 AM 7.17 44.906 0.459 7.75 2.66 10.16
10/31/2022 8:00:00 AM 7.18 44.924 0.46 7.75 2.25 10.19
10/31/2022 8:15:00 AM 7.19 44.942 0.46 7.75 2.17 10.2
10/31/2022 8:30:00 AM 7.2 44.96 0.461 7.76 2.18 10.22
10/31/2022 8:45:00 AM 7.2 44.96 0.461 7.76 2.12 10.29
10/31/2022 9:00:00 AM 7.22 44.996 0.461 7.78 2.27 10.38
10/31/2022 9:15:00 AM 7.24 45.032 0.461 7.8 2.21 10.52
10/31/2022 9:30:00 AM 7.28 45.104 0.463 7.82 2.12 10.69
10/31/2022 9:45:00 AM 7.33 45.194 0.463 7.86 2.1 10.92
10/31/2022 10:00:00 AM 7.39 45.302 0.463 7.9 2.09 11.18
10/31/2022 10:15:00 AM 7.45 45.41 0.463 7.94 2.08 11.44
10/31/2022 10:30:00 AM 7.52 45.536 0.462 7.99 1.99 11.72
10/31/2022 10:45:00 AM 7.57 45.626 0.462 8.03 2.02 11.91
10/31/2022 11:00:00 AM 7.63 45.734 0.462 8.07 2.04 12.04
10/31/2022 11:15:00 AM 7.69 45.842 0.462 8.11 2.09 12.25
10/31/2022 11:30:00 AM 7.74 45.932 0.461 8.13 2.12 12.35
10/31/2022 11:45:00 AM 7.78 46.004 0.461 8.15 2 12.42
10/31/2022 12:00:00 PM 7.86 46.148 0.46 8.2 1.94 12.6
10/31/2022 12:15:00 PM 8.03 46.454 0.46 8.27 1.97 12.91
10/31/2022 12:30:00 PM 8.09 46.562 0.459 8.31 2.01 13.05
10/31/2022 12:45:00 PM 8.14 46.652 0.459 8.34 1.97 13.15
10/31/2022 1:00:00 PM 8.2 46.76 0.458 8.37 2 13.24
10/31/2022 1:15:00 PM 8.24 46.832 0.458 8.38 1.95 13.25
10/31/2022 1:30:00 PM 8.28 46.904 0.458 8.38 2.01 13.19
10/31/2022 1:45:00 PM 8.35 47.03 0.457 8.41 2.16 13.21
10/31/2022 2:00:00 PM 8.48 47.264 0.456 8.45 2 13.42
10/31/2022 2:15:00 PM 8.54 47.372 0.456 8.47 1.97 13.49
10/31/2022 2:30:00 PM 8.58 47.444 0.456 8.49 1.98 13.49
10/31/2022 2:45:00 PM 8.65 47.57 0.455 8.51 2.03 13.54
10/31/2022 3:00:00 PM 8.7 47.66 0.455 8.5 2.01 13.5
10/31/2022 3:15:00 PM 8.72 47.696 0.455 8.49 3.1 13.34
10/31/2022 3:30:00 PM 8.76 47.768 0.455 8.49 3.03 13.26
10/31/2022 3:45:00 PM 8.8 47.84 0.455 8.49 1.92 13.22
10/31/2022 4:00:00 PM 8.87 47.966 0.455 8.51 1.99 13.27
10/31/2022 4:15:00 PM 8.9 48.02 0.455 8.5 1.96 13.22
10/31/2022 4:30:00 PM 8.93 48.074 0.455 8.5 1.97 13.13
10/31/2022 4:45:00 PM 8.95 48.11 0.455 8.49 2 13.05
10/31/2022 5:00:00 PM 8.97 48.146 0.455 8.47 1.95 12.89
10/31/2022 5:15:00 PM 8.98 48.164 0.456 8.44 1.99 12.72
10/31/2022 5:30:00 PM 8.99 48.182 0.456 8.41 2.06 12.52
10/31/2022 5:45:00 PM 9 48.2 0.457 8.37 2.02 12.29
10/31/2022 6:00:00 PM 9 48.2 0.457 8.32 2.09 12.03
10/31/2022 6:15:00 PM 9 48.2 0.458 8.27 2.01 11.8
10/31/2022 6:30:00 PM 8.99 48.182 0.458 8.22 2.04 11.54
10/31/2022 6:45:00 PM 8.99 48.182 0.458 8.17 2.06 11.31
10/31/2022 7:00:00 PM 8.99 48.182 0.459 8.12 2.05 11.1
10/31/2022 7:15:00 PM 9 48.2 0.459 8.08 2.05 10.93
10/31/2022 7:30:00 PM 9.01 48.218 0.46 8.05 2.11 10.78
10/31/2022 7:45:00 PM 9.02 48.236 0.46 8.02 2.08 10.67
10/31/2022 8:00:00 PM 9.04 48.272 0.46 7.99 2.57 10.56
10/31/2022 8:15:00 PM 9.05 48.29 0.46 7.97 2.12 10.45
10/31/2022 8:30:00 PM 9.06 48.308 0.46 7.95 2.11 10.35
10/31/2022 8:45:00 PM 9.08 48.344 0.46 7.94 2.14 10.31
10/31/2022 9:00:00 PM 9.09 48.362 0.46 7.92 2.29 10.25
10/31/2022 9:15:00 PM 9.11 48.398 0.46 7.91 2.14 10.18
10/31/2022 9:30:00 PM 9.13 48.434 0.46 7.9 2.1 10.14
10/31/2022 9:45:00 PM 9.15 48.47 0.46 7.89 2.13 10.09
10/31/2022 10:00:00 PM 9.17 48.506 0.459 7.88 2.14 10.04
10/31/2022 10:15:00 PM 9.19 48.542 0.459 7.87 2.3 10
10/31/2022 10:30:00 PM 9.21 48.578 0.458 7.87 2.09 9.99
10/31/2022 10:45:00 PM 9.22 48.596 0.458 7.86 2.14 9.94
10/31/2022 11:00:00 PM 9.24 48.632 0.458 7.85 2.11 9.9
10/31/2022 11:15:00 PM 9.26 48.668 0.457 7.85 2.1 9.89
10/31/2022 11:30:00 PM 9.27 48.686 0.457 7.84 2.2 9.89
10/31/2022 11:45:00 PM 9.29 48.722 0.456 7.83 2.13 9.83
11/1/2022 12:00:00 AM 9.31 48.758 0.456 7.83 2.14 9.76
11/1/2022 12:15:00 AM 9.33 48.794 0.455 7.82 2.1 9.75
11/1/2022 12:30:00 AM 9.34 48.812 0.455 7.81 2.18 9.75
11/1/2022 12:45:00 AM 9.36 48.848 0.455 7.81 2.12 9.71
11/1/2022 1:00:00 AM 9.37 48.866 0.454 7.8 2.16 9.68
11/1/2022 1:15:00 AM 9.38 48.884 0.454 7.8 2.12 9.68
11/1/2022 1:30:00 AM 9.4 48.92 0.454 7.79 2.17 9.65
11/1/2022 1:45:00 AM 9.41 48.938 0.453 7.78 2.18 9.63
11/1/2022 2:00:00 AM 9.43 48.974 0.453 7.78 2.22 9.61
11/1/2022 2:15:00 AM 9.44 48.992 0.453 7.77 2.16 9.55
11/1/2022 2:30:00 AM 9.46 49.028 0.453 7.77 2.11 9.53
11/1/2022 2:45:00 AM 9.47 49.046 0.452 7.76 2.11 9.52
11/1/2022 3:00:00 AM 9.49 49.082 0.452 7.75 2.14 9.5
11/1/2022 3:15:00 AM 9.5 49.1 0.452 7.75 2.13 9.48
11/1/2022 3:30:00 AM 9.51 49.118 0.452 7.74 2.28 9.41
11/1/2022 3:45:00 AM 9.52 49.136 0.452 7.74 2.14 9.43
11/1/2022 4:00:00 AM 9.53 49.154 0.452 7.73 2.11 9.4
11/1/2022 4:15:00 AM 9.54 49.172 0.452 7.73 2.19 9.38
11/1/2022 4:30:00 AM 9.55 49.19 0.452 7.73 2.18 9.32
11/1/2022 4:45:00 AM 9.56 49.208 0.453 7.72 2.27 9.38
11/1/2022 5:00:00 AM 9.56 49.208 0.453 7.72 2.12 9.32
11/1/2022 5:15:00 AM 9.54 49.172 0.453 7.72 2.13 9.36
11/1/2022 5:30:00 AM 9.53 49.154 0.454 7.71 2.6 9.29
11/1/2022 5:45:00 AM 9.52 49.136 0.454 7.71 2.33 9.32
11/1/2022 6:00:00 AM 9.52 49.136 0.455 7.71 2.14 9.33
11/1/2022 6:15:00 AM 9.53 49.154 0.455 7.71 2.14 9.33
11/1/2022 6:30:00 AM 9.53 49.154 0.456 7.7 2.13 9.32
11/1/2022 6:45:00 AM 9.54 49.172 0.456 7.7 2.18 9.31
11/1/2022 7:00:00 AM 9.54 49.172 0.457 7.7 2.24 9.33
11/1/2022 7:15:00 AM 9.55 49.19 0.457 7.7 2.23 9.32
11/1/2022 7:30:00 AM 9.56 49.208 0.457 7.7 2.32 9.32
11/1/2022 7:45:00 AM 9.57 49.226 0.458 7.69 2.27 9.3
11/1/2022 8:00:00 AM 9.58 49.244 0.458 7.69 2.18 9.3
11/1/2022 8:15:00 AM 9.6 49.28 0.458 7.7 2.13 9.34
11/1/2022 8:30:00 AM 9.61 49.298 0.458 7.7 2.73 9.35
11/1/2022 8:45:00 AM 9.63 49.334 0.458 7.71 2.06 9.43
11/1/2022 9:00:00 AM 9.65 49.37 0.458 7.72 2.07 9.51
11/1/2022 9:15:00 AM 9.67 49.406 0.458 7.73 1.99 9.58
11/1/2022 9:30:00 AM 9.69 49.442 0.458 7.73 1.98 9.6
11/1/2022 9:45:00 AM 9.71 49.478 0.458 7.75 1.98 9.68
11/1/2022 10:00:00 AM 9.77 49.586 0.458 7.78 1.99 9.89
11/1/2022 10:15:00 AM 9.83 49.694 0.457 7.81 1.92 10.15
11/1/2022 10:30:00 AM 9.91 49.838 0.457 7.87 1.93 10.47
11/1/2022 10:45:00 AM 10.11 50.198 0.456 7.96 1.98 10.95
11/1/2022 11:00:00 AM 10.2 50.36 0.455 8.01 1.96 11.28
11/1/2022 11:15:00 AM 10.26 50.468 0.455 8.07 1.96 11.49
11/1/2022 11:30:00 AM 10.32 50.576 0.454 8.1 1.99 11.61
11/1/2022 11:45:00 AM 10.41 50.738 0.454 8.14 1.96 11.76
11/1/2022 12:00:00 PM 10.46 50.828 0.453 8.15 1.99 11.79
11/1/2022 12:15:00 PM 10.55 50.99 0.453 8.2 1.93 11.92
11/1/2022 12:30:00 PM 10.66 51.188 0.452 8.27 1.96 12.25
11/1/2022 12:45:00 PM 10.74 51.332 0.451 8.31 1.92 12.44
11/1/2022 1:00:00 PM 10.81 51.458 0.451 8.35 1.98 12.55
11/1/2022 1:15:00 PM 10.86 51.548 0.45 8.36 1.96 12.58
11/1/2022 1:30:00 PM 10.98 51.764 0.45 8.42 1.95 12.76
11/1/2022 1:45:00 PM 11.08 51.944 0.449 8.46 1.95 12.96
11/1/2022 2:00:00 PM 11.24 52.232 0.448 8.53 1.97 13.24
11/1/2022 2:15:00 PM 11.41 52.538 0.447 8.59 1.98 13.53
11/1/2022 2:30:00 PM 11.53 52.754 0.447 8.62 1.94 13.62
11/1/2022 2:45:00 PM 11.64 52.952 0.446 8.65 2 13.74
11/1/2022 3:00:00 PM 11.72 53.096 0.446 8.67 1.96 13.77
11/1/2022 3:15:00 PM 11.78 53.204 0.446 8.68 2 13.71
11/1/2022 3:30:00 PM 11.8 53.24 0.446 8.67 1.98 13.61
11/1/2022 3:45:00 PM 11.81 53.258 0.446 8.66 5.68 13.42
11/1/2022 4:00:00 PM 11.82 53.276 0.447 8.64 2.11 13.24
11/1/2022 4:15:00 PM 11.84 53.312 0.447 8.63 2.1 13.09
11/1/2022 4:30:00 PM 11.83 53.294 0.447 8.59 3.58 12.81
11/1/2022 4:45:00 PM 11.84 53.312 0.448 8.57 2.17 12.64
11/1/2022 5:00:00 PM 11.85 53.33 0.448 8.54 2.08 12.43
11/1/2022 5:15:00 PM 11.88 53.384 0.448 8.52 2.07 12.34
11/1/2022 5:30:00 PM 11.82 53.276 0.449 8.47 2.08 12.07
11/1/2022 5:45:00 PM 11.77 53.186 0.449 8.42 2.15 11.81
11/1/2022 6:00:00 PM 11.74 53.132 0.45 8.37 2.17 11.54
11/1/2022 6:15:00 PM 11.7 53.06 0.451 8.3 2.33 11.23
11/1/2022 6:30:00 PM 11.68 53.024 0.451 8.23 2.18 10.92
11/1/2022 6:45:00 PM 11.67 53.006 0.452 8.17 2.28 10.63
11/1/2022 7:00:00 PM 11.65 52.97 0.452 8.11 2.55 10.39
11/1/2022 7:15:00 PM 11.64 52.952 0.453 8.06 2.25 10.16
11/1/2022 7:30:00 PM 11.63 52.934 0.453 8.02 2.31 9.98
11/1/2022 7:45:00 PM 11.64 52.952 0.453 7.98 2.36 9.83
11/1/2022 8:00:00 PM 11.64 52.952 0.453 7.95 2.29 9.7
11/1/2022 8:15:00 PM 11.65 52.97 0.453 7.92 2.23 9.59
11/1/2022 8:30:00 PM 11.66 52.988 0.452 7.9 2.92 9.52
11/1/2022 8:45:00 PM 11.65 52.97 0.452 7.89 2.32 9.46
11/1/2022 9:00:00 PM 11.63 52.934 0.451 7.88 2.31 9.43
11/1/2022 9:15:00 PM 11.61 52.898 0.451 7.87 2.82 9.4
11/1/2022 9:30:00 PM 11.6 52.88 0.45 7.86 2.69 9.36
11/1/2022 9:45:00 PM 11.58 52.844 0.449 7.85 2.42 9.34
11/1/2022 10:00:00 PM 11.56 52.808 0.448 7.84 2.71 9.29
11/1/2022 10:15:00 PM 11.55 52.79 0.446 7.84 2.42 9.27
11/1/2022 10:30:00 PM 11.54 52.772 0.445 7.83 3.62 9.24
11/1/2022 10:45:00 PM 11.55 52.79 0.444 7.82 2.48 9.21
11/1/2022 11:00:00 PM 11.56 52.808 0.443 7.81 2.46 9.17
11/1/2022 11:15:00 PM 11.58 52.844 0.442 7.81 2.35 9.14
11/1/2022 11:30:00 PM 11.6 52.88 0.441 7.8 2.34 9.11
11/1/2022 11:45:00 PM 11.62 52.916 0.441 7.79 3.43 9.07
11/2/2022 12:00:00 AM 11.63 52.934 0.44 7.79 2.4 9.04
11/2/2022 12:15:00 AM 11.64 52.952 0.44 7.78 2.81 9
11/2/2022 12:30:00 AM 11.63 52.934 0.44 7.77 2.26 8.99
11/2/2022 12:45:00 AM 11.63 52.934 0.441 7.76 2.44 8.96
11/2/2022 1:00:00 AM 11.63 52.934 0.441 7.76 2.51 8.95
11/2/2022 1:15:00 AM 11.64 52.952 0.442 7.75 2.52 8.94
11/2/2022 1:30:00 AM 11.64 52.952 0.442 7.75 2.37 8.91
11/2/2022 1:45:00 AM 11.65 52.97 0.443 7.74 2.36 8.86
11/2/2022 2:00:00 AM 11.64 52.952 0.444 7.74 2.29 8.86
11/2/2022 2:15:00 AM 11.62 52.916 0.444 7.73 2.2 8.84
11/2/2022 2:30:00 AM 11.62 52.916 0.445 7.72 2.22 8.82
11/2/2022 2:45:00 AM 11.59 52.862 0.446 7.72 2.33 8.79
11/2/2022 3:00:00 AM 11.54 52.772 0.447 7.72 2.34 8.79
11/2/2022 3:15:00 AM 11.49 52.682 0.448 7.71 2.91 8.79
11/2/2022 3:30:00 AM 11.44 52.592 0.449 7.71 2.43 8.78
11/2/2022 3:45:00 AM 11.38 52.484 0.45 7.7 2.58 8.78
11/2/2022 4:00:00 AM 11.33 52.394 0.452 7.7 2.65 8.78
11/2/2022 4:15:00 AM 11.27 52.286 0.453 7.7 2.93 8.76
11/2/2022 4:30:00 AM 11.2 52.16 0.454 7.7 2.75 8.78
11/2/2022 4:45:00 AM 11.14 52.052 0.455 7.69 2.79 8.78
11/2/2022 5:00:00 AM 11.08 51.944 0.457 7.69 2.59 8.79
11/2/2022 5:15:00 AM 11.04 51.872 0.458 7.69 2.49 8.81
11/2/2022 5:30:00 AM 10.99 51.782 0.46 7.68 4.28 8.8
11/2/2022 5:45:00 AM 10.94 51.692 0.461 7.68 2.8 8.82
11/2/2022 6:00:00 AM 10.88 51.584 0.463 7.68 3 8.83
11/2/2022 6:15:00 AM 10.82 51.476 0.464 7.68 2.52 8.82
11/2/2022 6:30:00 AM 10.76 51.368 0.466 7.68 2.37 8.85
11/2/2022 6:45:00 AM 10.7 51.26 0.467 7.67 2.32 8.86
11/2/2022 7:00:00 AM 10.64 51.152 0.468 7.67 2.39 8.88
11/2/2022 7:15:00 AM 10.58 51.044 0.468 7.67 2.37 8.9
11/2/2022 7:30:00 AM 10.52 50.936 0.469 7.67 2.44 8.9
11/2/2022 7:45:00 AM 10.46 50.828 0.469 7.67 2.31 8.93
11/2/2022 8:00:00 AM 10.42 50.756 0.47 7.67 3.21 8.96
11/2/2022 8:15:00 AM 10.37 50.666 0.47 7.68 2.12 9.02
11/2/2022 8:30:00 AM 10.33 50.594 0.47 7.69 2.16 9.12
11/2/2022 8:45:00 AM 10.3 50.54 0.47 7.71 10.34 9.29
11/2/2022 9:00:00 AM 10.28 50.504 0.47 7.73 2.14 9.51
11/2/2022 9:15:00 AM 10.27 50.486 0.469 7.76 2.05 9.71
11/2/2022 9:30:00 AM 10.29 50.522 0.469 7.8 2.05 9.96
11/2/2022 9:45:00 AM 10.35 50.63 0.469 7.85 10.53 10.33
11/2/2022 10:00:00 AM 10.46 50.828 0.468 7.92 2.09 10.54
11/2/2022 10:15:00 AM 10.54 50.972 0.467 7.98 2.24 11
11/2/2022 10:30:00 AM 10.64 51.152 0.467 8.04 4.05 11.32
11/2/2022 10:45:00 AM 10.84 51.512 0.466 8.13 2.07 11.81
11/2/2022 11:00:00 AM 11 51.8 0.465 8.19 2.06 12.07
11/2/2022 11:15:00 AM 11.25 52.25 0.464 8.28 2.07 12.42
11/2/2022 11:30:00 AM 11.46 52.628 0.463 8.36 1.87 12.74
11/2/2022 11:45:00 AM 11.64 52.952 0.462 8.42 1.9 12.94
11/2/2022 12:00:00 PM 11.84 53.312 0.461 8.48 1.87 13.21
11/2/2022 12:15:00 PM 12 53.6 0.46 8.53 1.92 13.39
11/2/2022 12:30:00 PM 12.16 53.888 0.46 8.57 1.84 13.56
11/2/2022 12:45:00 PM 12.27 54.086 0.459 8.61 1.87 13.68
11/2/2022 1:00:00 PM 12.41 54.338 0.458 8.64 1.9 13.81
11/2/2022 1:15:00 PM 12.52 54.536 0.458 8.67 1.89 13.9
11/2/2022 1:30:00 PM 12.59 54.662 0.457 8.69 1.87 13.94
11/2/2022 1:45:00 PM 12.66 54.788 0.457 8.71 1.86 13.97
11/2/2022 2:00:00 PM 12.7 54.86 0.456 8.72 1.88 13.94
11/2/2022 2:15:00 PM 12.78 55.004 0.456 8.74 1.86 13.94
11/2/2022 2:30:00 PM 12.86 55.148 0.456 8.76 1.79 13.95
11/2/2022 2:45:00 PM 12.9 55.22 0.455 8.76 1.82 13.89
11/2/2022 3:00:00 PM 12.97 55.346 0.455 8.77 1.91 13.86
11/2/2022 3:15:00 PM 12.99 55.382 0.456 8.78 1.92 13.79
11/2/2022 3:30:00 PM 13.01 55.418 0.455 8.78 1.94 13.72
11/2/2022 3:45:00 PM 13.03 55.454 0.456 8.77 1.85 13.61
11/2/2022 4:00:00 PM 13.06 55.508 0.456 8.78 1.86 13.56
11/2/2022 4:15:00 PM 13.07 55.526 0.456 8.78 2.03 13.48
11/2/2022 4:30:00 PM 13.08 55.544 0.456 8.77 1.88 13.4
11/2/2022 4:45:00 PM 13.07 55.526 0.456 8.76 1.9 13.25
11/2/2022 5:00:00 PM 13.05 55.49 0.457 8.74 2.01 13.05
11/2/2022 5:15:00 PM 13.02 55.436 0.457 8.71 1.9 12.84
11/2/2022 5:30:00 PM 12.97 55.346 0.458 8.67 1.93 12.55
11/2/2022 5:45:00 PM 12.91 55.238 0.459 8.62 1.99 12.23
11/2/2022 6:00:00 PM 12.84 55.112 0.46 8.56 1.93 11.88
11/2/2022 6:15:00 PM 12.77 54.986 0.461 8.5 2 11.51
11/2/2022 6:30:00 PM 12.7 54.86 0.462 8.42 2.02 11.12
11/2/2022 6:45:00 PM 12.62 54.716 0.463 8.34 2.03 10.76
11/2/2022 7:00:00 PM 12.55 54.59 0.463 8.27 2.27 10.4
11/2/2022 7:15:00 PM 12.48 54.464 0.464 8.2 2.08 10.15
11/2/2022 7:30:00 PM 12.42 54.356 0.464 8.14 2.07 9.92
11/2/2022 7:45:00 PM 12.36 54.248 0.465 8.09 2.04 9.76
11/2/2022 8:00:00 PM 12.3 54.14 0.465 8.04 2.13 9.64
11/2/2022 8:15:00 PM 12.24 54.032 0.465 8 2.15 9.48
11/2/2022 8:30:00 PM 12.19 53.942 0.465 7.97 2.34 9.34
11/2/2022 8:45:00 PM 12.12 53.816 0.466 7.94 2.22 9.29
11/2/2022 9:00:00 PM 12.07 53.726 0.466 7.91 2.07 9.21
11/2/2022 9:15:00 PM 12.01 53.618 0.466 7.89 2.08 9.15
11/2/2022 9:30:00 PM 11.96 53.528 0.465 7.87 2.17 9.06
11/2/2022 9:45:00 PM 11.9 53.42 0.465 7.85 2.45 9.05
11/2/2022 10:00:00 PM 11.84 53.312 0.465 7.84 2.12 9.02
11/2/2022 10:15:00 PM 11.79 53.222 0.465 7.82 2.09 8.97
11/2/2022 10:30:00 PM 11.73 53.114 0.465 7.81 2.25 8.99
11/2/2022 10:45:00 PM 11.68 53.024 0.464 7.8 2.04 8.94
11/2/2022 11:00:00 PM 11.62 52.916 0.464 7.79 2.13 8.94
11/2/2022 11:15:00 PM 11.57 52.826 0.464 7.78 2.05 8.91
11/2/2022 11:30:00 PM 11.51 52.718 0.463 7.78 2.05 8.9
11/2/2022 11:45:00 PM 11.46 52.628 0.463 7.77 2.12 8.88
11/3/2022 12:00:00 AM 11.4 52.52 0.463 7.76 2.09 8.89
11/3/2022 12:15:00 AM 11.34 52.412 0.463 7.76 2.07 8.88
11/3/2022 12:30:00 AM 11.29 52.322 0.462 7.75 2.09 8.86
11/3/2022 12:45:00 AM 11.23 52.214 0.462 7.74 2.3 8.87
11/3/2022 1:00:00 AM 11.17 52.106 0.462 7.74 2.29 8.87
11/3/2022 1:15:00 AM 11.1 51.98 0.461 7.73 2.11 8.86
11/3/2022 1:30:00 AM 11.04 51.872 0.461 7.72 2.57 8.86
11/3/2022 1:45:00 AM 10.98 51.764 0.461 7.72 2.08 8.85
11/3/2022 2:00:00 AM 10.91 51.638 0.461 7.71 2.07 8.81
11/3/2022 2:15:00 AM 10.84 51.512 0.46 7.71 2.26 8.84
11/3/2022 2:30:00 AM 10.77 51.386 0.46 7.7 2.19 8.85
11/3/2022 2:45:00 AM 10.7 51.26 0.46 7.7 3.13 8.81
11/3/2022 3:00:00 AM 10.63 51.134 0.46 7.69 3.04 8.8
11/3/2022 3:15:00 AM 10.56 51.008 0.46 7.69 3.55 8.82
11/3/2022 3:30:00 AM 10.49 50.882 0.46 7.68 3.47 8.88
11/3/2022 3:45:00 AM 10.42 50.756 0.46 7.68 3.44 8.86
11/3/2022 4:00:00 AM 10.35 50.63 0.46 7.68 3.93 8.91
11/3/2022 4:15:00 AM 10.27 50.486 0.46 7.67 3.58 8.91
11/3/2022 4:30:00 AM 10.21 50.378 0.46 7.67 3.78 8.92
11/3/2022 4:45:00 AM 10.14 50.252 0.46 7.67 3.5 8.92
11/3/2022 5:00:00 AM 10.06 50.108 0.46 7.66 2.9 8.92
11/3/2022 5:15:00 AM 9.98 49.964 0.46 7.66 2.83 8.95
11/3/2022 5:30:00 AM 9.92 49.856 0.461 7.66 2.68 9
11/3/2022 5:45:00 AM 9.85 49.73 0.461 7.66 2.58 9
11/3/2022 6:00:00 AM 9.78 49.604 0.461 7.66 2.38 9.03
11/3/2022 6:15:00 AM 9.71 49.478 0.461 7.66 2.36 9.05
11/3/2022 6:30:00 AM 9.64 49.352 0.461 7.66 2.31 9.03
11/3/2022 6:45:00 AM 9.58 49.244 0.461 7.66 2.39 9.06
11/3/2022 7:00:00 AM 9.54 49.172 0.461 7.66 2.35 9.07
11/3/2022 7:15:00 AM 9.5 49.1 0.461 7.66 2.33 9.14
11/3/2022 7:30:00 AM 9.46 49.028 0.461 7.66 2.13 9.17
11/3/2022 7:45:00 AM 9.41 48.938 0.461 7.66 34.38 9.18
11/3/2022 8:00:00 AM 9.38 48.884 0.461 7.67 2.15 9.16
11/3/2022 8:15:00 AM 9.34 48.812 0.461 7.67 2.14 9.23
11/3/2022 8:30:00 AM 9.31 48.758 0.461 7.68 2.17 9.31
11/3/2022 8:45:00 AM 9.3 48.74 0.461 7.71 2.11 9.49
11/3/2022 9:00:00 AM 9.29 48.722 0.46 7.73 2.08 9.67
11/3/2022 9:15:00 AM 9.3 48.74 0.46 7.76 2.2 9.89
11/3/2022 9:30:00 AM 9.33 48.794 0.459 7.81 2.14 10.26
11/3/2022 9:45:00 AM 9.37 48.866 0.459 7.87 2.1 10.62
11/3/2022 10:00:00 AM 9.42 48.956 0.458 7.93 1.99 10.99
11/3/2022 10:15:00 AM 9.49 49.082 0.457 8 1.98 11.35
11/3/2022 10:30:00 AM 9.54 49.172 0.456 8.06 1.99 11.7
11/3/2022 10:45:00 AM 9.67 49.406 0.456 8.14 2.02 12.03
11/3/2022 11:00:00 AM 9.9 49.82 0.454 8.23 2 12.39
11/3/2022 11:15:00 AM 10.14 50.252 0.453 8.31 1.96 12.74
11/3/2022 11:30:00 AM 10.34 50.612 0.452 8.39 2.13 13.07
11/3/2022 11:45:00 AM 10.53 50.954 0.451 8.45 2.08 13.27
11/3/2022 12:00:00 PM 10.72 51.296 0.45 8.51 2.01 13.5
11/3/2022 12:15:00 PM 10.9 51.62 0.449 8.56 1.99 13.74
11/3/2022 12:30:00 PM 11.1 51.98 0.448 8.6 1.92 13.91
11/3/2022 12:45:00 PM 11.21 52.178 0.447 8.63 1.95 14.02
11/3/2022 1:00:00 PM 11.36 52.448 0.446 8.66 1.91 13.94
11/3/2022 1:15:00 PM 11.48 52.664 0.445 8.69 1.99 14.17
11/3/2022 1:30:00 PM 11.58 52.844 0.445 8.71 1.9 14.2
11/3/2022 1:45:00 PM 11.7 53.06 0.444 8.73 1.91 14.27
11/3/2022 2:00:00 PM 11.77 53.186 0.444 8.75 1.9 14.29
11/3/2022 2:15:00 PM 11.86 53.348 0.443 8.76 1.94 14.25
11/3/2022 2:30:00 PM 11.97 53.546 0.443 8.78 1.97 14.24
11/3/2022 2:45:00 PM 12.05 53.69 0.442 8.79 2.04 14.2
11/3/2022 3:00:00 PM 12.12 53.816 0.442 8.79 1.92 14.12
11/3/2022 3:15:00 PM 12.17 53.906 0.442 8.79 1.9 14.01
11/3/2022 3:30:00 PM 12.21 53.978 0.442 8.78 1.96 13.87
11/3/2022 3:45:00 PM 12.26 54.068 0.443 8.78 1.97 13.71
11/3/2022 4:00:00 PM 12.28 54.104 0.443 8.77 1.97 13.58
11/3/2022 4:15:00 PM 12.29 54.122 0.443 8.76 1.96 13.4
11/3/2022 4:30:00 PM 12.3 54.14 0.443 8.74 1.99 13.22
11/3/2022 4:45:00 PM 12.29 54.122 0.444 8.72 1.99 13.01
11/3/2022 5:00:00 PM 12.26 54.068 0.444 8.7 2.05 12.82
11/3/2022 5:15:00 PM 12.22 53.996 0.445 8.66 1.99 12.59
11/3/2022 5:30:00 PM 12.16 53.888 0.445 8.63 2 12.31
11/3/2022 5:45:00 PM 12.09 53.762 0.446 8.58 2 12.04
11/3/2022 6:00:00 PM 12.01 53.618 0.447 8.52 2 11.74
11/3/2022 6:15:00 PM 11.92 53.456 0.448 8.46 2.01 11.42
11/3/2022 6:30:00 PM 11.83 53.294 0.449 8.39 2.14 11.08
11/3/2022 6:45:00 PM 11.75 53.15 0.449 8.31 2.08 10.82
11/3/2022 7:00:00 PM 11.66 52.988 0.45 8.24 2.08 10.53
11/3/2022 7:15:00 PM 11.58 52.844 0.451 8.17 2.09 10.28
11/3/2022 7:30:00 PM 11.51 52.718 0.451 8.11 2.12 10.12
11/3/2022 7:45:00 PM 11.45 52.61 0.451 8.06 2.08 9.94
11/3/2022 8:00:00 PM 11.39 52.502 0.452 8.02 2.1 9.83
11/3/2022 8:15:00 PM 11.33 52.394 0.452 7.99 2.09 9.73
11/3/2022 8:30:00 PM 11.27 52.286 0.452 7.96 2.05 9.63
11/3/2022 8:45:00 PM 11.21 52.178 0.452 7.94 2.09 9.54
11/3/2022 9:00:00 PM 11.16 52.088 0.451 7.92 2.05 9.49
11/3/2022 9:15:00 PM 11.1 51.98 0.451 7.9 2.16 9.44
11/3/2022 9:30:00 PM 11.04 51.872 0.451 7.88 2.08 9.39
11/3/2022 9:45:00 PM 10.99 51.782 0.451 7.87 2.16 9.36
11/3/2022 10:00:00 PM 10.93 51.674 0.45 7.86 2.09 9.34
11/3/2022 10:15:00 PM 10.88 51.584 0.45 7.85 2.11 9.31
11/3/2022 10:30:00 PM 10.82 51.476 0.449 7.85 2.17 9.28
11/3/2022 10:45:00 PM 10.78 51.404 0.449 7.84 2.18 9.27
11/3/2022 11:00:00 PM 10.73 51.314 0.449 7.83 2.17 9.27
11/3/2022 11:15:00 PM 10.68 51.224 0.448 7.83 2.12 9.26
11/3/2022 11:30:00 PM 10.63 51.134 0.448 7.82 2.16 9.25
11/3/2022 11:45:00 PM 10.57 51.026 0.448 7.81 2.15 9.19
11/4/2022 12:00:00 AM 10.52 50.936 0.447 7.8 2.15 9.18
11/4/2022 12:15:00 AM 10.46 50.828 0.447 7.8 2.1 9.17
11/4/2022 12:30:00 AM 10.41 50.738 0.447 7.79 2.13 9.16
11/4/2022 12:45:00 AM 10.36 50.648 0.447 7.79 2.14 9.14
11/4/2022 1:00:00 AM 10.29 50.522 0.447 7.78 2.17 9.16
11/4/2022 1:15:00 AM 10.23 50.414 0.447 7.77 2.21 9.14
11/4/2022 1:30:00 AM 10.18 50.324 0.447 7.77 2.16 9.15
11/4/2022 1:45:00 AM 10.12 50.216 0.447 7.76 2.12 9.14
11/4/2022 2:00:00 AM 10.05 50.09 0.447 7.76 2.38 9.13
11/4/2022 2:15:00 AM 9.99 49.982 0.447 7.75 2.38 9.11
11/4/2022 2:30:00 AM 9.93 49.874 0.447 7.74 2.42 9.11
11/4/2022 2:45:00 AM 9.86 49.748 0.447 7.74 2.75 9.12
11/4/2022 3:00:00 AM 9.8 49.64 0.447 7.73 2.16 9.11
11/4/2022 3:15:00 AM 9.74 49.532 0.447 7.73 2.18 9.12
11/4/2022 3:30:00 AM 9.67 49.406 0.447 7.72 2.18 9.13
11/4/2022 3:45:00 AM 9.62 49.316 0.448 7.72 2.27 9.12
11/4/2022 4:00:00 AM 9.55 49.19 0.448 7.72 2.43 9.16
11/4/2022 4:15:00 AM 9.48 49.064 0.449 7.72 2.2 9.18
11/4/2022 4:30:00 AM 9.42 48.956 0.449 7.72 2.48 9.2
11/4/2022 4:45:00 AM 9.35 48.83 0.45 7.71 2.42 9.23
11/4/2022 5:00:00 AM 9.28 48.704 0.45 7.7 2.21 9.2
11/4/2022 5:15:00 AM 9.22 48.596 0.451 7.7 2.19 9.24
11/4/2022 5:30:00 AM 9.14 48.452 0.451 7.7 2.27 9.24
11/4/2022 5:45:00 AM 9.08 48.344 0.452 7.7 2.2 9.26
11/4/2022 6:00:00 AM 9.01 48.218 0.453 7.7 2.22 9.27
11/4/2022 6:15:00 AM 8.94 48.092 0.453 7.69 2.23 9.31
11/4/2022 6:30:00 AM 8.88 47.984 0.454 7.7 2.38 9.35
11/4/2022 6:45:00 AM 8.81 47.858 0.455 7.69 2.25 9.4
11/4/2022 7:00:00 AM 8.74 47.732 0.455 7.69 2.26 9.39
11/4/2022 7:15:00 AM 8.69 47.642 0.456 7.69 2.17 9.44
11/4/2022 7:30:00 AM 8.62 47.516 0.456 7.69 2.17 9.45
11/4/2022 7:45:00 AM 8.56 47.408 0.457 7.69 2.26 9.47
11/4/2022 8:00:00 AM 8.5 47.3 0.457 7.69 2.19 9.5
11/4/2022 8:15:00 AM 8.45 47.21 0.458 7.7 2.24 9.58
11/4/2022 8:30:00 AM 8.41 47.138 0.458 7.71 2.18 9.66
11/4/2022 8:45:00 AM 8.38 47.084 0.458 7.73 2.17 9.87
11/4/2022 9:00:00 AM 8.36 47.048 0.458 7.77 2.17 10.11
11/4/2022 9:15:00 AM 8.36 47.048 0.458 7.8 2.14 10.4
11/4/2022 9:30:00 AM 8.37 47.066 0.458 7.84 2.1 10.65
11/4/2022 9:45:00 AM 8.39 47.102 0.458 7.88 2.51 10.93
11/4/2022 10:00:00 AM 8.45 47.21 0.458 7.94 2.08 11.22
11/4/2022 10:15:00 AM 8.54 47.372 0.458 8 2.09 11.54
11/4/2022 10:30:00 AM 8.68 47.624 0.457 8.09 2.83 11.92
11/4/2022 10:45:00 AM 8.86 47.948 0.457 8.18 2.03 12.39
11/4/2022 11:00:00 AM 9.1 48.38 0.456 8.27 2.03 12.75
11/4/2022 11:15:00 AM 9.33 48.794 0.455 8.35 2.03 13
11/4/2022 11:30:00 AM 9.54 49.172 0.454 8.42 1.99 13.39
11/4/2022 11:45:00 AM 9.75 49.55 0.453 8.48 2.15 13.67
11/4/2022 12:00:00 PM 9.95 49.91 0.452 8.54 1.95 13.92
11/4/2022 12:15:00 PM 10.16 50.288 0.452 8.59 1.94 14.09
11/4/2022 12:30:00 PM 10.34 50.612 0.451 8.63 1.91 14.2
11/4/2022 12:45:00 PM 10.51 50.918 0.45 8.66 1.93 14.31
11/4/2022 1:00:00 PM 10.67 51.206 0.45 8.69 1.97 14.42
11/4/2022 1:15:00 PM 10.81 51.458 0.449 8.72 1.9 14.58
11/4/2022 1:30:00 PM 10.96 51.728 0.449 8.75 1.91 14.56
11/4/2022 1:45:00 PM 11.09 51.962 0.448 8.77 1.9 14.67
11/4/2022 2:00:00 PM 11.2 52.16 0.448 8.79 1.92 14.67
11/4/2022 2:15:00 PM 11.31 52.358 0.447 8.8 1.93 14.64
11/4/2022 2:30:00 PM 11.42 52.556 0.447 8.82 1.94 14.65
11/4/2022 2:45:00 PM 11.54 52.772 0.447 8.83 1.89 14.61
11/4/2022 3:00:00 PM 11.64 52.952 0.447 8.84 1.91 14.59
11/4/2022 3:15:00 PM 11.73 53.114 0.446 8.85 1.95 14.56
11/4/2022 3:30:00 PM 11.81 53.258 0.446 8.86 1.98 14.48
11/4/2022 3:45:00 PM 11.88 53.384 0.446 8.87 1.95 14.45
11/4/2022 4:00:00 PM 11.92 53.456 0.446 8.87 1.95 14.35
11/4/2022 4:15:00 PM 11.95 53.51 0.447 8.86 1.94 14.16
11/4/2022 4:30:00 PM 11.95 53.51 0.447 8.84 1.97 13.94
11/4/2022 4:45:00 PM 11.95 53.51 0.448 8.81 1.97 13.7
11/4/2022 5:00:00 PM 11.93 53.474 0.448 8.79 5.4 13.38
11/4/2022 5:15:00 PM 11.89 53.402 0.449 8.75 2.55 13.1
11/4/2022 5:30:00 PM 11.85 53.33 0.45 8.72 1.92 12.86
11/4/2022 5:45:00 PM 11.8 53.24 0.451 8.67 1.91 12.51
11/4/2022 6:00:00 PM 11.74 53.132 0.452 8.61 1.91 12.16
11/4/2022 6:15:00 PM 11.68 53.024 0.453 8.55 1.94 11.82
11/4/2022 6:30:00 PM 11.63 52.934 0.454 8.48 1.94 11.49
11/4/2022 6:45:00 PM 11.58 52.844 0.455 8.4 2.07 11.14
11/4/2022 7:00:00 PM 11.53 52.754 0.456 8.33 1.98 10.84
11/4/2022 7:15:00 PM 11.48 52.664 0.456 8.26 2.01 10.6
11/4/2022 7:30:00 PM 11.45 52.61 0.457 8.2 1.98 10.34
11/4/2022 7:45:00 PM 11.42 52.556 0.458 8.15 1.91 10.17
11/4/2022 8:00:00 PM 11.39 52.502 0.458 8.1 2.02 10
11/4/2022 8:15:00 PM 11.36 52.448 0.458 8.07 1.95 9.86
11/4/2022 8:30:00 PM 11.34 52.412 0.458 8.03 1.88 9.77
11/4/2022 8:45:00 PM 11.32 52.376 0.458 8 1.95 9.67
11/4/2022 9:00:00 PM 11.29 52.322 0.458 7.98 2.01 9.44
11/4/2022 9:15:00 PM 11.27 52.286 0.458 7.96 1.93 9.46
11/4/2022 9:30:00 PM 11.25 52.25 0.458 7.94 1.96 9.45
11/4/2022 9:45:00 PM 11.23 52.214 0.458 7.92 2.16 9.36
11/4/2022 10:00:00 PM 11.21 52.178 0.457 7.91 2.16 9.34
11/4/2022 10:15:00 PM 11.2 52.16 0.457 7.9 2.07 9.27
11/4/2022 10:30:00 PM 11.18 52.124 0.456 7.89 1.97 9.24
11/4/2022 10:45:00 PM 11.16 52.088 0.456 7.88 2.13 9.22
11/4/2022 11:00:00 PM 11.14 52.052 0.455 7.88 2.01 9.19
11/4/2022 11:15:00 PM 11.12 52.016 0.455 7.87 2.01 9.15
11/4/2022 11:30:00 PM 11.1 51.98 0.455 7.86 2.08 9.11
11/4/2022 11:45:00 PM 11.08 51.944 0.454 7.86 2.01 9.11
11/5/2022 12:00:00 AM 11.05 51.89 0.454 7.85 2.02 9.08
11/5/2022 12:15:00 AM 11.03 51.854 0.453 7.84 2 9.05
11/5/2022 12:30:00 AM 11 51.8 0.453 7.83 2.23 9
11/5/2022 12:45:00 AM 10.98 51.764 0.453 7.82 2.25 9.01
11/5/2022 1:00:00 AM 10.95 51.71 0.453 7.81 2.02 8.96
11/5/2022 1:15:00 AM 10.92 51.656 0.452 7.81 2.06 8.96
11/5/2022 1:30:00 AM 10.88 51.584 0.452 7.8 1.99 8.96
11/5/2022 1:45:00 AM 10.85 51.53 0.452 7.79 2.04 8.92
11/5/2022 2:00:00 AM 10.82 51.476 0.452 7.78 2.03 8.91
11/5/2022 2:15:00 AM 10.79 51.422 0.452 7.78 2.07 8.9
11/5/2022 2:30:00 AM 10.75 51.35 0.452 7.77 1.98 8.88
11/5/2022 2:45:00 AM 10.72 51.296 0.452 7.76 2.08 8.87
11/5/2022 3:00:00 AM 10.69 51.242 0.452 7.75 1.99 8.89
11/5/2022 3:15:00 AM 10.66 51.188 0.452 7.75 2 8.86
11/5/2022 3:30:00 AM 10.62 51.116 0.452 7.74 2.04 8.86
11/5/2022 3:45:00 AM 10.58 51.044 0.452 7.74 2.03 8.82
11/5/2022 4:00:00 AM 10.55 50.99 0.452 7.73 2.01 8.82
11/5/2022 4:15:00 AM 10.55 50.99 0.453 7.72 2.01 8.83
11/5/2022 4:30:00 AM 10.54 50.972 0.453 7.72 2.09 8.85
11/5/2022 4:45:00 AM 10.51 50.918 0.453 7.71 2.02 8.85
11/5/2022 5:00:00 AM 10.48 50.864 0.454 7.72 2.36 8.85
11/5/2022 5:15:00 AM 10.44 50.792 0.454 7.71 2.06 8.81
11/5/2022 5:30:00 AM 10.41 50.738 0.455 7.7 2.06 8.79
11/5/2022 5:45:00 AM 10.4 50.72 0.455 7.7 2.05 8.84
11/5/2022 6:00:00 AM 10.38 50.684 0.456 7.7 2.07 8.85
11/5/2022 6:15:00 AM 10.37 50.666 0.456 7.7 2.2 8.85
11/5/2022 6:30:00 AM 10.34 50.612 0.457 7.69 2.09 8.86
11/5/2022 6:45:00 AM 10.32 50.576 0.458 7.69 2.1 8.87
11/5/2022 7:00:00 AM 10.32 50.576 0.458 7.69 2.08 8.85
11/5/2022 7:15:00 AM 10.32 50.576 0.459 7.69 2.06 8.81
11/5/2022 7:30:00 AM 10.31 50.558 0.46 7.7 2.06 8.87
11/5/2022 7:45:00 AM 10.32 50.576 0.46 7.69 2.03 8.88
11/5/2022 8:00:00 AM 10.33 50.594 0.46 7.7 1.97 8.87
11/5/2022 8:15:00 AM 10.34 50.612 0.461 7.7 8.72 8.98
11/5/2022 8:30:00 AM 10.36 50.648 0.461 7.71 3.56 9.03
11/5/2022 8:45:00 AM 10.38 50.684 0.462 7.73 2.07 9.12
11/5/2022 9:00:00 AM 10.41 50.738 0.462 7.75 2.05 9.28
11/5/2022 9:15:00 AM 10.45 50.81 0.462 7.77 1.99 9.5
11/5/2022 9:30:00 AM 10.51 50.918 0.462 7.81 1.99 9.71
11/5/2022 9:45:00 AM 10.57 51.026 0.462 7.86 1.93 10.06
11/5/2022 10:00:00 AM 10.67 51.206 0.461 7.93 1.93 10.49
11/5/2022 10:15:00 AM 10.78 51.404 0.461 8.01 1.93 10.87
11/5/2022 10:30:00 AM 10.89 51.602 0.46 8.11 10.04 11.47
11/5/2022 10:45:00 AM 11.01 51.818 0.46 8.19 1.88 11.88
11/5/2022 11:00:00 AM 11.1 51.98 0.459 8.25 1.86 12.14
11/5/2022 11:15:00 AM 11.25 52.25 0.459 8.34 1.83 12.51
11/5/2022 11:30:00 AM 11.42 52.556 0.458 8.42 2.01 12.93
11/5/2022 11:45:00 AM 11.5 52.7 0.457 8.47 1.81 13.14
11/5/2022 12:00:00 PM 11.57 52.826 0.457 8.49 1.86 13.21
11/5/2022 12:15:00 PM 11.64 52.952 0.456 8.52 2.25 13.29
11/5/2022 12:30:00 PM 11.68 53.024 0.456 8.53 7.69 13.19
11/5/2022 12:45:00 PM 11.72 53.096 0.456 8.53 1.79 13.13
11/5/2022 1:00:00 PM 11.81 53.258 0.455 8.56 1.85 13.2
11/5/2022 1:15:00 PM 11.96 53.528 0.454 8.6 1.81 13.36
11/5/2022 1:30:00 PM 12.12 53.816 0.454 8.64 1.94 13.43
11/5/2022 1:45:00 PM 12.24 54.032 0.453 8.66 1.93 13.58
11/5/2022 2:00:00 PM 12.4 54.32 0.452 8.7 1.87 13.78
11/5/2022 2:15:00 PM 12.54 54.572 0.452 8.73 1.86 13.82
11/5/2022 2:30:00 PM 12.69 54.842 0.451 8.77 1.87 14.05
11/5/2022 2:45:00 PM 12.84 55.112 0.451 8.8 1.98 14.18
11/5/2022 3:00:00 PM 12.94 55.292 0.451 8.81 1.89 14.16
11/5/2022 3:15:00 PM 13.01 55.418 0.451 8.8 1.88 13.94
11/5/2022 3:30:00 PM 13.08 55.544 0.451 8.8 1.89 13.79
11/5/2022 3:45:00 PM 13.13 55.634 0.451 8.78 1.89 13.53
11/5/2022 4:00:00 PM 13.18 55.724 0.452 8.77 1.89 13.36
11/5/2022 4:15:00 PM 13.22 55.796 0.452 8.76 2.14 13.24
11/5/2022 4:30:00 PM 13.26 55.868 0.452 8.74 1.87 13.03
11/5/2022 4:45:00 PM 13.29 55.922 0.453 8.72 1.91 12.86
11/5/2022 5:00:00 PM 13.31 55.958 0.453 8.67 1.94 12.41
11/5/2022 5:15:00 PM 13.33 55.994 0.454 8.63 1.9 12.09
11/5/2022 5:30:00 PM 13.37 56.066 0.455 8.57 1.88 11.77
11/5/2022 5:45:00 PM 13.39 56.102 0.456 8.53 1.9 11.48
11/5/2022 6:00:00 PM 13.4 56.12 0.456 8.47 1.93 11.18
11/5/2022 6:15:00 PM 13.39 56.102 0.457 8.41 1.92 10.86
11/5/2022 6:30:00 PM 13.39 56.102 0.458 8.35 2.07 10.54
11/5/2022 6:45:00 PM 13.4 56.12 0.459 8.28 2.04 10.23
11/5/2022 7:00:00 PM 13.39 56.102 0.459 8.22 2.07 9.94
11/5/2022 7:15:00 PM 13.38 56.084 0.46 8.16 1.98 9.7
11/5/2022 7:30:00 PM 13.39 56.102 0.461 8.11 1.92 9.49
11/5/2022 7:45:00 PM 13.38 56.084 0.461 8.06 1.91 9.32
11/5/2022 8:00:00 PM 13.37 56.066 0.461 8.02 1.93 9.18
11/5/2022 8:15:00 PM 13.36 56.048 0.462 7.99 1.99 9.03
11/5/2022 8:30:00 PM 13.35 56.03 0.462 7.96 1.97 8.9
11/5/2022 8:45:00 PM 13.35 56.03 0.462 7.93 1.99 8.8
11/5/2022 9:00:00 PM 13.36 56.048 0.462 7.91 2.11 8.72
11/5/2022 9:15:00 PM 13.36 56.048 0.462 7.89 1.96 8.62
11/5/2022 9:30:00 PM 13.35 56.03 0.462 7.87 2.02 8.55
11/5/2022 9:45:00 PM 13.37 56.066 0.462 7.86 2.01 8.51
11/5/2022 10:00:00 PM 13.39 56.102 0.462 7.85 1.99 8.44
11/5/2022 10:15:00 PM 13.41 56.138 0.462 7.84 2.1 8.39
11/5/2022 10:30:00 PM 13.43 56.174 0.462 7.83 2.05 8.38
11/5/2022 10:45:00 PM 13.45 56.21 0.461 7.83 2.08 8.32
11/5/2022 11:00:00 PM 13.48 56.264 0.461 7.82 1.98 8.29
11/5/2022 11:15:00 PM 13.51 56.318 0.461 7.82 2.01 8.26
11/5/2022 11:30:00 PM 13.53 56.354 0.46 7.81 2.2 8.26
11/5/2022 11:45:00 PM 13.55 56.39 0.46 7.8 1.99 8.21
11/6/2022 12:00:00 AM 13.57 56.426 0.46 7.8 1.94 8.18
11/6/2022 12:15:00 AM 13.58 56.444 0.459 7.79 1.97 8.15
11/6/2022 12:30:00 AM 13.6 56.48 0.459 7.78 1.94 8.09
11/6/2022 12:45:00 AM 13.62 56.516 0.459 7.77 1.97 8.05
11/6/2022 1:00:00 AM 13.64 56.552 0.459 7.77 1.97 8.04
11/6/2022 1:15:00 AM 13.65 56.57 0.459 7.77 2 7.98
11/6/2022 1:30:00 AM 13.66 56.588 0.458 7.76 1.98 7.97
11/6/2022 1:45:00 AM 13.67 56.606 0.458 7.75 1.92 7.92
11/6/2022 2:00:00 AM 13.66 56.588 0.458 7.75 1.97 7.92
11/6/2022 2:15:00 AM 13.65 56.57 0.458 7.74 2.31 7.89
11/6/2022 2:30:00 AM 13.65 56.57 0.458 7.73 2.02 7.89
11/6/2022 2:45:00 AM 13.65 56.57 0.458 7.72 2.02 7.84
11/6/2022 3:00:00 AM 13.64 56.552 0.458 7.72 1.98 7.83
11/6/2022 3:15:00 AM 13.64 56.552 0.458 7.71 2.1 7.81
11/6/2022 3:30:00 AM 13.63 56.534 0.458 7.71 2.04 7.81
11/6/2022 3:45:00 AM 13.62 56.516 0.458 7.71 2.06 7.79
11/6/2022 4:00:00 AM 13.61 56.498 0.458 7.7 1.98 7.79
11/6/2022 4:15:00 AM 13.6 56.48 0.458 7.69 2.04 7.76
11/6/2022 4:30:00 AM 13.59 56.462 0.458 7.69 2.1 7.75
11/6/2022 4:45:00 AM 13.57 56.426 0.459 7.68 2.83 7.73
11/6/2022 5:00:00 AM 13.56 56.408 0.459 7.68 2.55 7.73
11/6/2022 5:15:00 AM 13.55 56.39 0.459 7.67 2.44 7.73
11/6/2022 5:30:00 AM 13.53 56.354 0.46 7.66 3.15 7.7
11/6/2022 5:45:00 AM 13.52 56.336 0.46 7.66 2.36 7.71
11/6/2022 6:00:00 AM 13.52 56.336 0.461 7.66 2.28 7.7
11/6/2022 6:15:00 AM 13.52 56.336 0.461 7.65 2.13 7.71
11/6/2022 6:30:00 AM 13.51 56.318 0.462 7.65 2.67 7.69
11/6/2022 6:45:00 AM 13.51 56.318 0.462 7.64 2.14 7.69
11/6/2022 7:00:00 AM 13.5 56.3 0.463 7.64 2.16 7.7
11/6/2022 7:15:00 AM 13.5 56.3 0.463 7.64 2.07 7.7
11/6/2022 7:30:00 AM 13.49 56.282 0.464 7.63 2.16 7.68
11/6/2022 7:45:00 AM 13.49 56.282 0.464 7.63 2.08 7.71
11/6/2022 8:00:00 AM 13.47 56.246 0.465 7.63 2.11 7.7
11/6/2022 8:15:00 AM 13.44 56.192 0.466 7.63 2.54 7.74
11/6/2022 8:30:00 AM 13.43 56.174 0.466 7.64 6.73 7.85
11/6/2022 8:45:00 AM 13.43 56.174 0.466 7.67 2.14 8.07
11/6/2022 9:00:00 AM 13.46 56.228 0.467 7.7 2.03 8.35
11/6/2022 9:15:00 AM 13.5 56.3 0.467 7.74 1.94 8.66
11/6/2022 9:30:00 AM 13.55 56.39 0.467 7.79 2.01 9.11
11/6/2022 9:45:00 AM 13.58 56.444 0.467 7.83 2.07 9.41
11/6/2022 10:00:00 AM 13.62 56.516 0.467 7.88 1.94 9.74
11/6/2022 10:15:00 AM 13.65 56.57 0.467 7.93 1.99 9.98
11/6/2022 10:30:00 AM 13.64 56.552 0.467 7.95 1.91 10.08
11/6/2022 10:45:00 AM 13.65 56.57 0.467 7.96 2 10.14
11/6/2022 11:00:00 AM 13.77 56.786 0.467 8.06 1.96 10.61
11/6/2022 11:15:00 AM 13.87 56.966 0.466 8.13 2 11
11/6/2022 11:30:00 AM 14.08 57.344 0.465 8.24 1.94 11.52
11/6/2022 11:45:00 AM 14.38 57.884 0.466 8.36 1.95 12.09
11/6/2022 12:00:00 PM 14.64 58.352 0.464 8.46 1.98 12.58
11/6/2022 12:15:00 PM 14.9 58.82 0.463 8.55 1.91 13.01
11/6/2022 12:30:00 PM 15.1 59.18 0.462 8.61 1.96 13.32
11/6/2022 12:45:00 PM 15.28 59.504 0.461 8.66 1.91 13.51
11/6/2022 1:00:00 PM 15.42 59.756 0.46 8.71 1.88 13.72
11/6/2022 1:15:00 PM 15.58 60.044 0.459 8.75 1.92 13.89
11/6/2022 1:30:00 PM 15.75 60.35 0.459 8.79 1.9 14.01
11/6/2022 1:45:00 PM 15.88 60.584 0.458 8.82 1.92 14.17
11/6/2022 2:00:00 PM 15.92 60.656 0.457 8.83 1.95 14.13
11/6/2022 2:15:00 PM 16.02 60.836 0.457 8.85 1.94 14.1
11/6/2022 2:30:00 PM 16.17 61.106 0.456 8.87 1.92 14.14
11/6/2022 2:45:00 PM 16.26 61.268 0.456 8.89 1.94 14.08
11/6/2022 3:00:00 PM 16.33 61.394 0.456 8.89 1.91 14.01
11/6/2022 3:15:00 PM 16.4 61.52 0.456 8.9 1.92 13.91
11/6/2022 3:30:00 PM 16.43 61.574 0.456 8.88 1.87 13.64
11/6/2022 3:45:00 PM 16.48 61.664 0.456 8.88 1.97 13.41
11/6/2022 4:00:00 PM 16.49 61.682 0.456 8.86 2.04 13.16
11/6/2022 4:15:00 PM 16.52 61.736 0.456 8.85 1.99 12.95
11/6/2022 4:30:00 PM 16.5 61.7 0.457 8.83 1.93 12.7
11/6/2022 4:45:00 PM 16.46 61.628 0.457 8.79 1.91 12.33
11/6/2022 5:00:00 PM 16.42 61.556 0.458 8.74 1.93 11.88
11/6/2022 5:15:00 PM 16.39 61.502 0.459 8.69 1.94 11.53
11/6/2022 5:30:00 PM 16.34 61.412 0.46 8.63 1.94 11.12
11/6/2022 5:45:00 PM 16.28 61.304 0.461 8.56 1.95 10.73
11/6/2022 6:00:00 PM 16.21 61.178 0.462 8.49 1.93 10.35
11/6/2022 6:15:00 PM 16.15 61.07 0.463 8.41 2.01 9.95
11/6/2022 6:30:00 PM 16.08 60.944 0.463 8.33 2.06 9.6
11/6/2022 6:45:00 PM 16.03 60.854 0.464 8.26 2.01 9.26
11/6/2022 7:00:00 PM 15.99 60.782 0.465 8.18 2.05 8.99
11/6/2022 7:15:00 PM 15.94 60.692 0.466 8.12 2.05 8.76
11/6/2022 7:30:00 PM 15.89 60.602 0.466 8.06 2.98 8.54
11/6/2022 7:45:00 PM 15.84 60.512 0.466 8.01 2.02 8.38
11/6/2022 8:00:00 PM 15.79 60.422 0.467 7.97 2.25 8.21
11/6/2022 8:15:00 PM 15.74 60.332 0.467 7.93 2.13 8.06
11/6/2022 8:30:00 PM 15.7 60.26 0.467 7.9 2.03 7.95
11/6/2022 8:45:00 PM 15.66 60.188 0.467 7.87 1.99 7.84
11/6/2022 9:00:00 PM 15.63 60.134 0.467 7.85 2.05 7.76
11/6/2022 9:15:00 PM 15.61 60.098 0.467 7.83 2.07 7.7
11/6/2022 9:30:00 PM 15.58 60.044 0.467 7.82 2.15 7.67
11/6/2022 9:45:00 PM 15.56 60.008 0.467 7.8 2.02 7.62
11/6/2022 10:00:00 PM 15.53 59.954 0.467 7.79 2.02 7.57
11/6/2022 10:15:00 PM 15.52 59.936 0.467 7.78 2.09 7.52
11/6/2022 10:30:00 PM 15.52 59.936 0.466 7.77 2.26 7.52
11/6/2022 10:45:00 PM 15.5 59.9 0.466 7.76 2.31 7.47
11/6/2022 11:00:00 PM 15.5 59.9 0.466 7.76 2.08 7.46
11/6/2022 11:15:00 PM 15.48 59.864 0.465 7.75 2.03 7.43
11/6/2022 11:30:00 PM 15.46 59.828 0.465 7.74 2.13 7.41
11/6/2022 11:45:00 PM 15.43 59.774 0.465 7.74 2.08 7.42
11/7/2022 12:00:00 AM 15.39 59.702 0.464 7.73 2.08 7.41
11/7/2022 12:15:00 AM 15.36 59.648 0.464 7.72 2.05 7.38
11/7/2022 12:30:00 AM 15.33 59.594 0.463 7.71 2.12 7.37
11/7/2022 12:45:00 AM 15.29 59.522 0.463 7.71 2.07 7.38
11/7/2022 1:00:00 AM 15.24 59.432 0.463 7.7 2.35 7.34
11/7/2022 1:15:00 AM 15.19 59.342 0.462 7.69 2.07 7.33
11/7/2022 1:30:00 AM 15.14 59.252 0.462 7.68 2.14 7.29
11/7/2022 1:45:00 AM 15.09 59.162 0.462 7.68 2.21 7.29
11/7/2022 2:00:00 AM 15.04 59.072 0.461 7.67 2.18 7.29
11/7/2022 2:15:00 AM 15 59 0.461 7.66 2.08 7.21
11/7/2022 2:30:00 AM 14.95 58.91 0.461 7.65 2.1 7.22
11/7/2022 2:45:00 AM 14.89 58.802 0.461 7.65 2.04 7.28
11/7/2022 3:00:00 AM 14.84 58.712 0.461 7.64 2.07 7.25
11/7/2022 3:15:00 AM 14.79 58.622 0.46 7.64 2.04 7.27
11/7/2022 3:30:00 AM 14.74 58.532 0.46 7.63 2.04 7.28
11/7/2022 3:45:00 AM 14.68 58.424 0.46 7.63 2.09 7.28
11/7/2022 4:00:00 AM 14.64 58.352 0.46 7.62 2.06 7.28
11/7/2022 4:15:00 AM 14.59 58.262 0.46 7.62 2.11 7.28
11/7/2022 4:30:00 AM 14.54 58.172 0.46 7.62 2.04 7.28
11/7/2022 4:45:00 AM 14.49 58.082 0.46 7.62 2.08 7.3
11/7/2022 5:00:00 AM 14.44 57.992 0.46 7.62 2.15 7.3
11/7/2022 5:15:00 AM 14.38 57.884 0.461 7.62 3.61 7.32
11/7/2022 5:30:00 AM 14.32 57.776 0.461 7.62 2.15 7.35
11/7/2022 5:45:00 AM 14.26 57.668 0.461 7.62 2.25 7.37
11/7/2022 6:00:00 AM 14.2 57.56 0.461 7.62 2.48 7.39
11/7/2022 6:15:00 AM 14.14 57.452 0.461 7.62 2.19 7.4
11/7/2022 6:30:00 AM 14.09 57.362 0.461 7.62 2.35 7.41
11/7/2022 6:45:00 AM 14.03 57.254 0.462 7.62 2.4 7.43
11/7/2022 7:00:00 AM 13.97 57.146 0.462 7.62 2.41 7.46
11/7/2022 7:15:00 AM 13.91 57.038 0.462 7.62 2.11 7.44
11/7/2022 7:30:00 AM 13.85 56.93 0.463 7.62 2.08 7.45
11/7/2022 7:45:00 AM 13.78 56.804 0.463 7.62 2.27 7.46
11/7/2022 8:00:00 AM 13.72 56.696 0.463 7.62 2.13 7.53
11/7/2022 8:15:00 AM 13.66 56.588 0.464 7.63 2.15 7.61
11/7/2022 8:30:00 AM 13.6 56.48 0.464 7.64 2.22 7.73
11/7/2022 8:45:00 AM 13.55 56.39 0.464 7.65 2.09 7.84
11/7/2022 9:00:00 AM 13.51 56.318 0.465 7.66 2.03 8.01
11/7/2022 9:15:00 AM 13.49 56.282 0.465 7.69 2.08 8.18
11/7/2022 9:30:00 AM 13.5 56.3 0.465 7.72 1.98 8.44
11/7/2022 9:45:00 AM 13.53 56.354 0.465 7.78 1.97 8.84
11/7/2022 10:00:00 AM 13.57 56.426 0.465 7.84 2.07 9.3
11/7/2022 10:15:00 AM 13.63 56.534 0.465 7.91 1.99 9.73
11/7/2022 10:30:00 AM 13.73 56.714 0.465 8 1.93 10.21
11/7/2022 10:45:00 AM 13.87 56.966 0.464 8.11 2.13 10.77
11/7/2022 11:00:00 AM 14.06 57.308 0.464 8.21 1.96 11.29
11/7/2022 11:15:00 AM 14.24 57.632 0.463 8.3 1.93 11.74
11/7/2022 11:30:00 AM 14.39 57.902 0.462 8.37 1.98 12.1
11/7/2022 11:45:00 AM 14.54 58.172 0.462 8.46 2.02 12.47
11/7/2022 12:00:00 PM 14.71 58.478 0.461 8.51 1.92 12.74
11/7/2022 12:15:00 PM 14.88 58.784 0.46 8.58 1.97 13.08
11/7/2022 12:30:00 PM 15.01 59.018 0.459 8.63 1.98 13.35
11/7/2022 12:45:00 PM 15.07 59.126 0.458 8.67 1.96 13.5
11/7/2022 1:00:00 PM 15.15 59.27 0.457 8.71 2.03 13.72
11/7/2022 1:15:00 PM 15.21 59.378 0.457 8.74 1.92 13.79
11/7/2022 1:30:00 PM 15.25 59.45 0.456 8.77 1.88 13.86
11/7/2022 1:45:00 PM 15.3 59.54 0.455 8.8 1.94 13.96
11/7/2022 2:00:00 PM 15.31 59.558 0.455 8.82 1.99 13.97
11/7/2022 2:15:00 PM 15.33 59.594 0.454 8.83 1.97 13.99
11/7/2022 2:30:00 PM 15.37 59.666 0.454 8.84 1.98 13.93
11/7/2022 2:45:00 PM 15.38 59.684 0.453 8.86 1.99 13.91
11/7/2022 3:00:00 PM 15.39 59.702 0.453 8.86 1.98 13.78
11/7/2022 3:15:00 PM 15.23 59.414 0.452 8.84 1.91 12.96
11/7/2022 3:30:00 PM 15.19 59.342 0.452 8.82 1.95 12.7
11/7/2022 3:45:00 PM 15.14 59.252 0.452 8.81 2 12.51
11/7/2022 4:00:00 PM 15.07 59.126 0.452 8.78 2.02 12.28
11/7/2022 4:15:00 PM 14.99 58.982 0.453 8.75 2.02 12
11/7/2022 4:30:00 PM 14.88 58.784 0.454 8.71 2.04 11.74
11/7/2022 4:45:00 PM 14.79 58.622 0.454 8.66 2.02 11.39
11/7/2022 5:00:00 PM 14.65 58.37 0.455 8.6 1.97 10.97
11/7/2022 5:15:00 PM 14.53 58.154 0.456 8.53 2.02 10.64
11/7/2022 5:30:00 PM 14.41 57.938 0.457 8.45 2.04 10.28
11/7/2022 5:45:00 PM 14.29 57.722 0.458 8.36 2.08 9.94
11/7/2022 6:00:00 PM 14.18 57.524 0.459 8.29 2.2 9.62
11/7/2022 6:15:00 PM 14.09 57.362 0.46 8.21 2.11 9.37
11/7/2022 6:30:00 PM 14 57.2 0.46 8.15 2.14 9.15
11/7/2022 6:45:00 PM 13.9 57.02 0.461 8.09 2.37 8.97
11/7/2022 7:00:00 PM 13.81 56.858 0.461 8.05 2.15 8.81
11/7/2022 7:15:00 PM 13.73 56.714 0.462 8.01 2.35 8.71
11/7/2022 7:30:00 PM 13.64 56.552 0.462 7.97 2.07 8.59
11/7/2022 7:45:00 PM 13.56 56.408 0.462 7.95 2.12 8.51
11/7/2022 8:00:00 PM 13.48 56.264 0.462 7.92 2.14 8.45
11/7/2022 8:15:00 PM 13.4 56.12 0.462 7.9 2.42 8.35
11/7/2022 8:30:00 PM 13.32 55.976 0.462 7.89 2.12 8.33
11/7/2022 8:45:00 PM 13.24 55.832 0.462 7.87 2.17 8.29
11/7/2022 9:00:00 PM 13.16 55.688 0.462 7.86 2.15 8.31
11/7/2022 9:15:00 PM 13.09 55.562 0.462 7.85 2.15 8.27
11/7/2022 9:30:00 PM 13.02 55.436 0.462 7.84 2.12 8.22
11/7/2022 9:45:00 PM 12.94 55.292 0.462 7.83 2.09 8.24
11/7/2022 10:00:00 PM 12.88 55.184 0.461 7.83 2.16 8.27
11/7/2022 10:15:00 PM 12.81 55.058 0.461 7.83 2.16 8.27
11/7/2022 10:30:00 PM 12.74 54.932 0.461 7.82 2.24 8.28
11/7/2022 10:45:00 PM 12.67 54.806 0.46 7.81 2.19 8.26
11/7/2022 11:00:00 PM 12.59 54.662 0.46 7.81 2.55 8.24
11/7/2022 11:15:00 PM 12.52 54.536 0.46 7.8 2.17 8.26
11/7/2022 11:30:00 PM 12.45 54.41 0.459 7.8 2.23 8.25
11/7/2022 11:45:00 PM 12.38 54.284 0.459 7.79 2.18 8.24
11/8/2022 12:00:00 AM 12.3 54.14 0.459 7.79 2.17 8.23
11/8/2022 12:15:00 AM 12.23 54.014 0.458 7.78 2.14 8.23
11/8/2022 12:30:00 AM 12.14 53.852 0.458 7.77 2.08 8.22
11/8/2022 12:45:00 AM 12.07 53.726 0.458 7.77 2.08 8.2
11/8/2022 1:00:00 AM 11.99 53.582 0.457 7.77 2.12 8.19
11/8/2022 1:15:00 AM 11.9 53.42 0.457 7.75 2.18 8.26
11/8/2022 1:30:00 AM 11.82 53.276 0.457 7.74 2.14 8.25
11/8/2022 1:45:00 AM 11.73 53.114 0.457 7.74 2.16 8.2
11/8/2022 2:00:00 AM 11.64 52.952 0.457 7.73 2.16 8.28
11/8/2022 2:15:00 AM 11.56 52.808 0.456 7.72 2.14 8.24
11/8/2022 2:30:00 AM 11.48 52.664 0.456 7.72 2.13 8.33
11/8/2022 2:45:00 AM 11.41 52.538 0.456 7.71 2.19 8.27
11/8/2022 3:00:00 AM 11.33 52.394 0.456 7.71 2.3 8.3
11/8/2022 3:15:00 AM 11.26 52.268 0.456 7.71 2.12 8.36
11/8/2022 3:30:00 AM 11.19 52.142 0.456 7.7 2.13 8.35
11/8/2022 3:45:00 AM 11.12 52.016 0.456 7.7 2.17 8.38
11/8/2022 4:00:00 AM 11.04 51.872 0.456 7.7 2.11 8.42
11/8/2022 4:15:00 AM 10.95 51.71 0.456 7.71 2.14 8.4
11/8/2022 4:30:00 AM 10.87 51.566 0.457 7.69 2.24 8.43
11/8/2022 4:45:00 AM 10.78 51.404 0.457 7.69 2.1 8.44
11/8/2022 5:00:00 AM 10.7 51.26 0.457 7.69 2.15 8.51
11/8/2022 5:15:00 AM 10.61 51.098 0.458 7.69 2.11 8.52
11/8/2022 5:30:00 AM 10.53 50.954 0.458 7.69 2.16 8.58
11/8/2022 5:45:00 AM 10.45 50.81 0.459 7.69 2.21 8.62
11/8/2022 6:00:00 AM 10.37 50.666 0.459 7.69 2.18 8.65
11/8/2022 6:15:00 AM 10.29 50.522 0.46 7.69 2.13 8.69
11/8/2022 6:30:00 AM 10.21 50.378 0.46 7.69 2.1 8.71
11/8/2022 6:45:00 AM 10.13 50.234 0.461 7.69 2.17 8.75
11/8/2022 7:00:00 AM 10.05 50.09 0.461 7.69 2.16 8.79
11/8/2022 7:15:00 AM 9.98 49.964 0.462 7.7 2.07 8.89
11/8/2022 7:30:00 AM 9.91 49.838 0.462 7.71 2.09 9.01
11/8/2022 7:45:00 AM 9.85 49.73 0.463 7.72 2.12 9.17
11/8/2022 8:00:00 AM 9.79 49.622 0.463 7.74 2.05 9.35
11/8/2022 8:15:00 AM 9.75 49.55 0.463 7.77 2.09 9.56
11/8/2022 8:30:00 AM 9.74 49.532 0.463 7.8 2.18 9.86
11/8/2022 8:45:00 AM 9.74 49.532 0.463 7.86 2.04 10.18
11/8/2022 9:00:00 AM 9.76 49.568 0.463 7.92 2.1 10.55
11/8/2022 9:15:00 AM 9.81 49.658 0.463 7.98 2.1 10.95
11/8/2022 9:30:00 AM 9.87 49.766 0.463 8.06 2.11 11.35
11/8/2022 9:45:00 AM 9.99 49.982 0.462 8.16 2.13 11.81
11/8/2022 10:00:00 AM 10.17 50.306 0.462 8.24 2.07 12.2
11/8/2022 10:15:00 AM 10.35 50.63 0.461 8.34 2.02 12.61
11/8/2022 10:30:00 AM 10.5 50.9 0.46 8.42 2.09 13.02
11/8/2022 10:45:00 AM 10.67 51.206 0.459 8.49 2.05 13.33
11/8/2022 11:00:00 AM 10.82 51.476 0.458 8.55 2.06 13.63
11/8/2022 11:15:00 AM 11 51.8 0.458 8.61 2.03 13.95
11/8/2022 11:30:00 AM 11.12 52.016 0.457 8.67 2.02 14.18
11/8/2022 11:45:00 AM 11.23 52.214 0.456 8.7 2.01 14.33
11/8/2022 12:00:00 PM 11.32 52.376 0.455 8.74 2.03 14.54
11/8/2022 12:15:00 PM 11.39 52.502 0.454 8.77 2.03 14.62
11/8/2022 12:30:00 PM 11.49 52.682 0.453 8.8 1.99 14.74
11/8/2022 12:45:00 PM 11.56 52.808 0.452 8.83 2 14.84
11/8/2022 1:00:00 PM 11.6 52.88 0.452 8.85 2.04 14.89
11/8/2022 1:15:00 PM 11.65 52.97 0.451 8.87 2.06 14.89
11/8/2022 1:30:00 PM 11.73 53.114 0.45 8.89 2.01 14.94
11/8/2022 1:45:00 PM 11.79 53.222 0.45 8.91 2.05 14.93
11/8/2022 2:00:00 PM 11.82 53.276 0.45 8.92 2.05 14.89
11/8/2022 2:15:00 PM 11.83 53.294 0.449 8.93 2.03 14.8
11/8/2022 2:30:00 PM 11.84 53.312 0.449 8.93 2.01 14.67
11/8/2022 2:45:00 PM 11.85 53.33 0.449 8.93 2.02 14.57
11/8/2022 3:00:00 PM 11.84 53.312 0.449 8.93 2.08 14.45
11/8/2022 3:15:00 PM 11.84 53.312 0.449 8.92 2.04 14.27
11/8/2022 3:30:00 PM 11.83 53.294 0.449 8.91 2.12 14.1
11/8/2022 3:45:00 PM 11.81 53.258 0.45 8.9 2.09 13.93
11/8/2022 4:00:00 PM 11.77 53.186 0.45 8.88 2.05 13.71
11/8/2022 4:15:00 PM 11.71 53.078 0.45 8.86 2.08 13.47
11/8/2022 4:30:00 PM 11.63 52.934 0.451 8.83 2.09 13.19
11/8/2022 4:45:00 PM 11.53 52.754 0.452 8.79 2.1 12.81
11/8/2022 5:00:00 PM 11.41 52.538 0.453 8.73 2.11 12.49
11/8/2022 5:15:00 PM 11.31 52.358 0.454 8.67 2.14 12.15
11/8/2022 5:30:00 PM 11.19 52.142 0.455 8.6 2.1 11.82
11/8/2022 5:45:00 PM 11.08 51.944 0.456 8.53 2.17 11.48
11/8/2022 6:00:00 PM 10.97 51.746 0.457 8.46 2.27 11.19
11/8/2022 6:15:00 PM 10.88 51.584 0.458 8.39 2.13 10.92
11/8/2022 6:30:00 PM 10.78 51.404 0.459 8.33 2.18 10.69
11/8/2022 6:45:00 PM 10.69 51.242 0.46 8.27 2.14 10.48
11/8/2022 7:00:00 PM 10.6 51.08 0.46 8.21 2.21 10.35
11/8/2022 7:15:00 PM 10.51 50.918 0.461 8.17 2.23 10.23
11/8/2022 7:30:00 PM 10.42 50.756 0.461 8.13 2.14 10.12
11/8/2022 7:45:00 PM 10.33 50.594 0.461 8.09 2.21 10.03
11/8/2022 8:00:00 PM 10.25 50.45 0.462 8.06 2.13 9.93
11/8/2022 8:15:00 PM 10.17 50.306 0.462 8.03 2.15 9.9
11/8/2022 8:30:00 PM 10.08 50.144 0.462 8.01 2.15 9.84
11/8/2022 8:45:00 PM 10 50 0.462 7.99 2.1 9.78
11/8/2022 9:00:00 PM 9.93 49.874 0.462 7.98 2.19 9.76
11/8/2022 9:15:00 PM 9.85 49.73 0.462 7.96 2.15 9.73
11/8/2022 9:30:00 PM 9.77 49.586 0.461 7.95 2.17 9.72
11/8/2022 9:45:00 PM 9.7 49.46 0.461 7.94 2.29 9.71
11/8/2022 10:00:00 PM 9.63 49.334 0.461 7.93 2.21 9.67
11/8/2022 10:15:00 PM 9.56 49.208 0.461 7.92 2.14 9.66
11/8/2022 10:30:00 PM 9.48 49.064 0.461 7.92 2.17 9.67
11/8/2022 10:45:00 PM 9.41 48.938 0.46 7.92 2.19 9.64
11/8/2022 11:00:00 PM 9.34 48.812 0.46 7.91 2.15 9.66
11/8/2022 11:15:00 PM 9.27 48.686 0.46 7.9 2.19 9.66
11/8/2022 11:30:00 PM 9.2 48.56 0.459 7.9 2.14 9.65
11/8/2022 11:45:00 PM 9.12 48.416 0.459 7.89 2.15 9.66
11/9/2022 12:00:00 AM 9.04 48.272 0.459 7.88 2.16 9.66
11/9/2022 12:15:00 AM 8.97 48.146 0.458 7.88 2.18 9.66
11/9/2022 12:30:00 AM 8.9 48.02 0.458 7.87 2.16 9.66
11/9/2022 12:45:00 AM 8.82 47.876 0.458 7.86 2.27 9.66
11/9/2022 1:00:00 AM 8.74 47.732 0.457 7.86 2.32 9.67
11/9/2022 1:15:00 AM 8.67 47.606 0.457 7.85 2.24 9.66
11/9/2022 1:30:00 AM 8.59 47.462 0.457 7.84 2.21 9.67
11/9/2022 1:45:00 AM 8.52 47.336 0.457 7.83 2.31 9.67
11/9/2022 2:00:00 AM 8.44 47.192 0.456 7.83 2.22 9.68
11/9/2022 2:15:00 AM 8.36 47.048 0.456 7.82 2.24 9.68
11/9/2022 2:30:00 AM 8.29 46.922 0.456 7.82 2.16 9.7
11/9/2022 2:45:00 AM 8.21 46.778 0.456 7.82 2.16 9.7
11/9/2022 3:00:00 AM 8.14 46.652 0.456 7.81 2.12 9.73
11/9/2022 3:15:00 AM 8.06 46.508 0.455 7.8 2.18 9.73
11/9/2022 3:30:00 AM 7.99 46.382 0.455 7.8 2.14 9.76
11/9/2022 3:45:00 AM 7.91 46.238 0.455 7.79 2.18 9.78
11/9/2022 4:00:00 AM 7.84 46.112 0.455 7.79 2.21 9.78
11/9/2022 4:15:00 AM 7.77 45.986 0.454 7.78 2.13 9.81
11/9/2022 4:30:00 AM 7.69 45.842 0.454 7.78 2.13 9.84
11/9/2022 4:45:00 AM 7.62 45.716 0.454 7.78 2.14 9.85
11/9/2022 5:00:00 AM 7.54 45.572 0.454 7.77 2.16 9.87
11/9/2022 5:15:00 AM 7.48 45.464 0.454 7.77 2.27 9.9
11/9/2022 5:30:00 AM 7.4 45.32 0.455 7.77 2.18 9.94
11/9/2022 5:45:00 AM 7.34 45.212 0.455 7.77 2.19 9.97
11/9/2022 6:00:00 AM 7.26 45.068 0.455 7.76 2.22 10
11/9/2022 6:15:00 AM 7.19 44.942 0.456 7.77 2.15 10.02
11/9/2022 6:30:00 AM 7.12 44.816 0.456 7.76 2.17 10.05
11/9/2022 6:45:00 AM 7.05 44.69 0.456 7.76 2.11 10.06
11/9/2022 7:00:00 AM 6.99 44.582 0.457 7.76 2.16 10.11
11/9/2022 7:15:00 AM 6.92 44.456 0.457 7.77 2.18 10.19
11/9/2022 7:30:00 AM 6.86 44.348 0.458 7.77 2.16 10.29
11/9/2022 7:45:00 AM 6.81 44.258 0.458 7.79 2.13 10.41
11/9/2022 8:00:00 AM 6.77 44.186 0.458 7.81 2.13 10.58
11/9/2022 8:15:00 AM 6.74 44.132 0.458 7.83 2.09 10.76
11/9/2022 8:30:00 AM 6.74 44.132 0.459 7.86 2.12 11
11/9/2022 8:45:00 AM 6.75 44.15 0.459 7.91 2.13 11.32
11/9/2022 9:00:00 AM 6.81 44.258 0.459 7.98 2.14 11.7
11/9/2022 9:15:00 AM 6.87 44.366 0.458 8.04 2.16 12.06
11/9/2022 9:30:00 AM 6.97 44.546 0.458 8.12 2.11 12.46
11/9/2022 9:45:00 AM 7.12 44.816 0.458 8.21 2.11 12.87
11/9/2022 10:00:00 AM 7.33 45.194 0.457 8.3 2.14 13.27
11/9/2022 10:15:00 AM 7.53 45.554 0.456 8.38 2.1 13.63
11/9/2022 10:30:00 AM 7.71 45.878 0.458 8.44 2.1 13.95
11/9/2022 10:45:00 AM 7.9 46.22 0.457 8.52 2.1 14.27
11/9/2022 11:00:00 AM 8.08 46.544 0.456 8.57 2.1 14.54
11/9/2022 11:15:00 AM 8.3 46.94 0.455 8.64 2.09 14.81
11/9/2022 11:30:00 AM 8.48 47.264 0.454 8.69 2.06 15.04
11/9/2022 11:45:00 AM 8.61 47.498 0.453 8.73 2.07 15.21
11/9/2022 12:00:00 PM 8.74 47.732 0.452 8.76 2.07 15.35
11/9/2022 12:15:00 PM 8.84 47.912 0.452 8.8 2.09 15.46
11/9/2022 12:30:00 PM 8.96 48.128 0.451 8.83 2.01 15.54
11/9/2022 12:45:00 PM 9.07 48.326 0.45 8.86 2.04 15.66
11/9/2022 1:00:00 PM 9.13 48.434 0.449 8.88 1.99 15.69
11/9/2022 1:15:00 PM 9.2 48.56 0.449 8.9 2.02 15.7
11/9/2022 1:30:00 PM 9.3 48.74 0.448 8.92 2.02 15.7
11/9/2022 1:45:00 PM 9.38 48.884 0.448 8.94 2.09 15.68
11/9/2022 2:00:00 PM 9.46 49.028 0.447 8.95 2.06 15.66
11/9/2022 2:15:00 PM 9.5 49.1 0.447 8.96 2.09 15.59
11/9/2022 2:30:00 PM 9.55 49.19 0.446 8.97 2.09 15.45
11/9/2022 2:45:00 PM 9.57 49.226 0.446 8.97 2.05 15.34
11/9/2022 3:00:00 PM 9.59 49.262 0.446 8.97 2.09 15.22
11/9/2022 3:15:00 PM 9.6 49.28 0.446 8.97 2.07 15.07
11/9/2022 3:30:00 PM 9.59 49.262 0.445 8.96 2.06 14.9
11/9/2022 3:45:00 PM 9.59 49.262 0.445 8.95 2.1 14.73
11/9/2022 4:00:00 PM 9.56 49.208 0.445 8.93 2.08 14.52
11/9/2022 4:15:00 PM 9.52 49.136 0.446 8.92 2.06 14.12
11/9/2022 4:30:00 PM 9.46 49.028 0.446 8.89 2.11 14.06
11/9/2022 4:45:00 PM 9.38 48.884 0.446 8.85 2.06 13.78
11/9/2022 5:00:00 PM 9.3 48.74 0.447 8.81 2.05 13.45
11/9/2022 5:15:00 PM 9.2 48.56 0.447 8.76 2.11 13.12
11/9/2022 5:30:00 PM 9.11 48.398 0.448 8.71 2.14 12.8
11/9/2022 5:45:00 PM 9 48.2 0.449 8.64 2.12 12.47
11/9/2022 6:00:00 PM 8.9 48.02 0.45 8.57 2.14 12.16
11/9/2022 6:15:00 PM 8.81 47.858 0.451 8.51 2.19 11.89
11/9/2022 6:30:00 PM 8.73 47.714 0.451 8.44 2.19 11.64
11/9/2022 6:45:00 PM 8.64 47.552 0.452 8.38 2.16 11.45
11/9/2022 7:00:00 PM 8.57 47.426 0.452 8.33 2.2 11.28
11/9/2022 7:15:00 PM 8.5 47.3 0.452 8.27 2.21 11.15
11/9/2022 7:30:00 PM 8.43 47.174 0.453 8.23 2.17 11.02
11/9/2022 7:45:00 PM 8.37 47.066 0.453 8.18 2.16 10.91
11/9/2022 8:00:00 PM 8.3 46.94 0.453 8.15 2.19 10.8
11/9/2022 8:15:00 PM 8.24 46.832 0.453 8.12 2.18 10.72
11/9/2022 8:30:00 PM 8.19 46.742 0.453 8.1 2.17 10.66
11/9/2022 8:45:00 PM 8.13 46.634 0.453 8.08 2.21 10.61
11/9/2022 9:00:00 PM 8.08 46.544 0.453 8.06 2.18 10.56
11/9/2022 9:15:00 PM 8.03 46.454 0.453 8.04 2.21 10.52
11/9/2022 9:30:00 PM 7.98 46.364 0.451 8.03 2.19 10.5
11/9/2022 9:45:00 PM 7.93 46.274 0.451 8.02 2.27 10.47
11/9/2022 10:00:00 PM 7.89 46.202 0.451 8.01 2.22 10.47
11/9/2022 10:15:00 PM 7.85 46.13 0.45 8 2.27 10.45
11/9/2022 10:30:00 PM 7.8 46.04 0.45 7.99 2.23 10.39
11/9/2022 10:45:00 PM 7.76 45.968 0.45 7.99 2.26 10.39
11/9/2022 11:00:00 PM 7.71 45.878 0.45 7.98 2.24 10.42
11/9/2022 11:15:00 PM 7.66 45.788 0.45 7.97 2.29 10.4
11/9/2022 11:30:00 PM 7.61 45.698 0.45 7.96 2.28 10.39
11/9/2022 11:45:00 PM 7.56 45.608 0.449 7.96 2.24 10.38
11/10/2022 12:00:00 AM 7.51 45.518 0.449 7.95 2.26 10.35
11/10/2022 12:15:00 AM 7.46 45.428 0.449 7.94 2.21 10.33
11/10/2022 12:30:00 AM 7.4 45.32 0.449 7.94 2.25 10.35
11/10/2022 12:45:00 AM 7.35 45.23 0.449 7.93 2.2 10.35
11/10/2022 1:00:00 AM 7.29 45.122 0.449 7.92 2.28 10.33
11/10/2022 1:15:00 AM 7.24 45.032 0.449 7.9 2.23 10.33
11/10/2022 1:30:00 AM 7.17 44.906 0.449 7.89 2.21 10.31
11/10/2022 1:45:00 AM 7.12 44.816 0.449 7.89 2.21 10.31
11/10/2022 2:00:00 AM 7.07 44.726 0.449 7.88 2.24 10.33
11/10/2022 2:15:00 AM 7 44.6 0.449 7.87 2.24 10.31
11/10/2022 2:30:00 AM 6.95 44.51 0.449 7.86 2.25 10.28
11/10/2022 2:45:00 AM 6.89 44.402 0.449 7.85 2.16 10.3
11/10/2022 3:00:00 AM 6.84 44.312 0.449 7.85 2.22 10.31
11/10/2022 3:15:00 AM 6.78 44.204 0.449 7.84 2.21 10.33
11/10/2022 3:30:00 AM 6.73 44.114 0.449 7.84 2.27 10.34
11/10/2022 3:45:00 AM 6.67 44.006 0.449 7.83 2.28 10.35
11/10/2022 4:00:00 AM 6.62 43.916 0.449 7.83 2.3 10.36
11/10/2022 4:15:00 AM 6.56 43.808 0.449 7.82 2.22 10.39
11/10/2022 4:30:00 AM 6.51 43.718 0.449 7.82 2.25 10.4
11/10/2022 4:45:00 AM 6.45 43.61 0.449 7.81 2.26 10.39
11/10/2022 5:00:00 AM 6.39 43.502 0.449 7.81 2.21 10.42
11/10/2022 5:15:00 AM 6.33 43.394 0.45 7.81 2.29 10.43
11/10/2022 5:30:00 AM 6.27 43.286 0.45 7.8 2.24 10.46
11/10/2022 5:45:00 AM 6.21 43.178 0.45 7.79 2.24 10.48
11/10/2022 6:00:00 AM 6.15 43.07 0.45 7.79 2.23 10.49
11/10/2022 6:15:00 AM 6.1 42.98 0.451 7.79 2.35 10.51
11/10/2022 6:30:00 AM 6.05 42.89 0.451 7.79 2.21 10.54
11/10/2022 6:45:00 AM 5.99 42.782 0.452 7.79 2.29 10.56
11/10/2022 7:00:00 AM 5.94 42.692 0.452 7.79 2.27 10.59
11/10/2022 7:15:00 AM 5.89 42.602 0.453 7.79 2.28 10.64
11/10/2022 7:30:00 AM 5.84 42.512 0.453 7.8 2.21 10.76
11/10/2022 7:45:00 AM 5.8 42.44 0.454 7.82 2.26 10.89
11/10/2022 8:00:00 AM 5.77 42.386 0.454 7.84 2.22 11.03
11/10/2022 8:15:00 AM 5.75 42.35 0.455 7.86 2.24 11.23
11/10/2022 8:30:00 AM 5.75 42.35 0.455 7.9 2.19 11.49
11/10/2022 8:45:00 AM 5.79 42.422 0.455 7.95 2.2 11.81
11/10/2022 9:00:00 AM 5.85 42.53 0.455 8.01 2.18 12.15
11/10/2022 9:15:00 AM 5.94 42.692 0.455 8.08